Provisional Data: Little Clearfield Creek near Dimeling, PA


Please select a monitoring station.
Please select start date.
Please select start date.

Toggle Unit: C/F Toggle Unit: C/F
Sample Time Temperature (C) Temperature (F) Specific Conductivity (mS/cm) pH   Turbidity (NTU+) DO (mg/L)
12/23/2021 12:00:00 AM 1.33 34.394 0.254 7.58 3.45 13.25
12/23/2021 12:15:00 AM 1.32 34.376 0.254 7.57 3.68 13.25
12/23/2021 12:30:00 AM 1.31 34.358 0.254 7.57 3.45 13.27
12/23/2021 12:45:00 AM 1.29 34.322 0.254 7.57 3.46 13.28
12/23/2021 1:00:00 AM 1.28 34.304 0.254 7.58 3.46 13.29
12/23/2021 1:15:00 AM 1.27 34.286 0.254 7.57 3.34 13.3
12/23/2021 1:30:00 AM 1.26 34.268 0.255 7.58 3.39 13.3
12/23/2021 1:45:00 AM 1.25 34.25 0.255 7.58 3.33 13.31
12/23/2021 2:00:00 AM 1.23 34.214 0.255 7.56 3.43 13.32
12/23/2021 2:15:00 AM 1.22 34.196 0.255 7.57 3.56 13.33
12/23/2021 2:30:00 AM 1.21 34.178 0.255 7.58 3.36 13.33
12/23/2021 2:45:00 AM 1.2 34.16 0.255 7.58 3.93 13.35
12/23/2021 3:00:00 AM 1.19 34.142 0.256 7.57 3.57 13.35
12/23/2021 3:15:00 AM 1.18 34.124 0.256 7.57 3.33 13.36
12/23/2021 3:30:00 AM 1.17 34.106 0.256 7.57 3.4 13.37
12/23/2021 3:45:00 AM 1.16 34.088 0.256 7.58 3.31 13.38
12/23/2021 4:00:00 AM 1.15 34.07 0.256 7.57 3.31 13.39
12/23/2021 4:15:00 AM 1.14 34.052 0.256 7.58 3.47 13.39
12/23/2021 4:30:00 AM 1.12 34.016 0.256 7.57 3.71 13.4
12/23/2021 4:45:00 AM 1.11 33.998 0.257 7.57 3.45 13.41
12/23/2021 5:00:00 AM 1.09 33.962 0.257 7.57 3.51 13.42
12/23/2021 5:15:00 AM 1.08 33.944 0.257 7.58 3.39 13.42
12/23/2021 5:30:00 AM 1.06 33.908 0.257 7.56 3.27 13.43
12/23/2021 5:45:00 AM 1.05 33.89 0.257 7.57 3.33 13.44
12/23/2021 6:00:00 AM 1.03 33.854 0.257 7.58 3.46 13.45
12/23/2021 6:15:00 AM 1.02 33.836 0.258 7.56 3.12 13.46
12/23/2021 6:30:00 AM 1.02 33.836 0.258 7.57 3.16 13.46
12/23/2021 6:45:00 AM 1 33.8 0.258 7.57 3.25 13.47
12/23/2021 7:00:00 AM 1 33.8 0.258 7.57 3.37 13.48
12/23/2021 7:15:00 AM 0.99 33.782 0.258 7.58 3.25 13.48
12/23/2021 7:30:00 AM 0.98 33.764 0.258 7.58 3.22 13.49
12/23/2021 7:45:00 AM 0.98 33.764 0.259 7.57 3.49 13.5
12/23/2021 8:00:00 AM 0.97 33.746 0.259 7.57 3.25 13.5
12/23/2021 8:15:00 AM 0.97 33.746 0.259 7.58 3.07 13.51
12/23/2021 8:30:00 AM 0.98 33.764 0.259 7.58 3.1 13.53
12/23/2021 8:45:00 AM 0.99 33.782 0.259 7.58 3.1 13.54
12/23/2021 9:00:00 AM 1 33.8 0.259 7.58 3.01 13.55
12/23/2021 9:15:00 AM 1.02 33.836 0.259 7.59 3.12 13.56
12/23/2021 9:30:00 AM 1.04 33.872 0.26 7.59 3.34 13.57
12/23/2021 9:45:00 AM 1.06 33.908 0.26 7.59 3.82 13.58
12/23/2021 10:00:00 AM 1.08 33.944 0.26 7.6 3.14 13.59
12/23/2021 10:15:00 AM 1.11 33.998 0.26 7.59 3.15 13.6
12/23/2021 10:30:00 AM 1.16 34.088 0.26 7.6 3.11 13.6
12/23/2021 10:45:00 AM 1.2 34.16 0.26 7.6 3.04 13.61
12/23/2021 11:00:00 AM 1.23 34.214 0.26 7.6 3.11 13.61
12/23/2021 11:15:00 AM 1.25 34.25 0.26 7.61 3.14 13.6
12/23/2021 11:30:00 AM 1.3 34.34 0.261 7.61 3.12 13.6
12/23/2021 11:45:00 AM 1.33 34.394 0.261 7.61 3.02 13.6
12/23/2021 12:00:00 PM 1.37 34.466 0.262 7.61 3.26 13.59
12/23/2021 12:15:00 PM 1.41 34.538 0.263 7.61 3.2 13.59
12/23/2021 12:30:00 PM 1.48 34.664 0.263 7.62 3.04 13.58
12/23/2021 12:45:00 PM 1.53 34.754 0.262 7.61 2.92 13.57
12/23/2021 1:00:00 PM 1.6 34.88 0.261 7.62 3.16 13.56
12/23/2021 1:15:00 PM 1.65 34.97 0.261 7.61 3.07 13.54
12/23/2021 1:30:00 PM 1.7 35.06 0.261 7.61 2.86 13.53
12/23/2021 1:45:00 PM 1.74 35.132 0.261 7.62 2.98 13.52
12/23/2021 2:00:00 PM 1.77 35.186 0.261 7.62 3.01 13.51
12/23/2021 2:15:00 PM 1.79 35.222 0.261 7.63 3.46 13.5
12/23/2021 2:30:00 PM 1.81 35.258 0.262 7.63 3.08 13.49
12/23/2021 2:45:00 PM 1.83 35.294 0.262 7.62 3.04 13.48
12/23/2021 3:00:00 PM 1.84 35.312 0.262 7.63 3.32 13.47
12/23/2021 3:15:00 PM 1.84 35.312 0.262 7.62 3.1 13.45
12/23/2021 3:30:00 PM 1.87 35.366 0.262 7.62 3 13.44
12/23/2021 3:45:00 PM 1.89 35.402 0.262 7.63 3.12 13.42
12/23/2021 4:00:00 PM 1.89 35.402 0.263 7.62 3.05 13.4
12/23/2021 4:15:00 PM 1.88 35.384 0.263 7.62 3.11 13.37
12/23/2021 4:30:00 PM 1.87 35.366 0.263 7.62 2.95 13.35
12/23/2021 4:45:00 PM 1.86 35.348 0.263 7.62 3.52 13.34
12/23/2021 5:00:00 PM 1.85 35.33 0.263 7.62 3.57 13.32
12/23/2021 5:15:00 PM 1.83 35.294 0.264 7.62 2.98 13.31
12/23/2021 5:30:00 PM 1.81 35.258 0.264 7.61 2.94 13.29
12/23/2021 5:45:00 PM 1.8 35.24 0.264 7.62 3.44 13.28
12/23/2021 6:00:00 PM 1.8 35.24 0.264 7.61 3.04 13.28
12/23/2021 6:15:00 PM 1.8 35.24 0.264 7.61 2.91 13.26
12/23/2021 6:30:00 PM 1.79 35.222 0.265 7.61 3.29 13.26
12/23/2021 6:45:00 PM 1.78 35.204 0.265 7.61 3.21 13.25
12/23/2021 7:00:00 PM 1.77 35.186 0.265 7.61 3.18 13.24
12/23/2021 7:15:00 PM 1.76 35.168 0.265 7.6 3.11 13.24
12/23/2021 7:30:00 PM 1.76 35.168 0.265 7.61 3.97 13.22
12/23/2021 7:45:00 PM 1.76 35.168 0.265 7.61 13.53 13.22
12/23/2021 8:00:00 PM 1.76 35.168 0.266 7.61 3.93 13.22
12/23/2021 8:15:00 PM 1.76 35.168 0.266 7.6 3.49 13.21
12/23/2021 8:30:00 PM 1.77 35.186 0.266 7.6 3.49 13.2
12/23/2021 8:45:00 PM 1.77 35.186 0.266 7.6 3.28 13.2
12/23/2021 9:00:00 PM 1.77 35.186 0.266 7.6 3.21 13.18
12/23/2021 9:15:00 PM 1.77 35.186 0.266 7.6 3.32 13.19
12/23/2021 9:30:00 PM 1.78 35.204 0.267 7.59 3.18 13.18
12/23/2021 9:45:00 PM 1.78 35.204 0.267 7.6 3.21 13.17
12/23/2021 10:00:00 PM 1.77 35.186 0.267 7.6 3.19 13.17
12/23/2021 10:15:00 PM 1.77 35.186 0.267 7.6 3.28 13.16
12/23/2021 10:30:00 PM 1.75 35.15 0.267 7.6 3.41 13.16
12/23/2021 10:45:00 PM 1.73 35.114 0.267 7.6 3.2 13.15
12/23/2021 11:00:00 PM 1.7 35.06 0.267 7.6 3.28 13.16
12/23/2021 11:15:00 PM 1.66 34.988 0.267 7.59 3.57 13.15
12/23/2021 11:30:00 PM 1.65 34.97 0.268 7.6 3.57 13.15
12/23/2021 11:45:00 PM 1.62 34.916 0.268 7.59 3.26 13.15
12/24/2021 12:00:00 AM 1.59 34.862 0.268 7.6 3.29 13.16
12/24/2021 12:15:00 AM 1.6 34.88 0.268 7.6 3.25 13.16
12/24/2021 12:30:00 AM 1.61 34.898 0.268 7.6 3.43 13.16
12/24/2021 12:45:00 AM 1.62 34.916 0.268 7.6 3.46 13.16
12/24/2021 1:00:00 AM 1.63 34.934 0.269 7.6 3.29 13.16
12/24/2021 1:15:00 AM 1.64 34.952 0.269 7.6 3.39 13.16
12/24/2021 1:30:00 AM 1.64 34.952 0.269 7.61 3.22 13.17
12/24/2021 1:45:00 AM 1.64 34.952 0.269 7.59 3.27 13.17
12/24/2021 2:00:00 AM 1.64 34.952 0.269 7.6 3.37 13.17
12/24/2021 2:15:00 AM 1.64 34.952 0.269 7.6 3.55 13.18
12/24/2021 2:30:00 AM 1.65 34.97 0.269 7.6 3.9 13.18
12/24/2021 2:45:00 AM 1.65 34.97 0.27 7.6 3.53 13.18
12/24/2021 3:00:00 AM 1.66 34.988 0.27 7.6 3.07 13.18
12/24/2021 3:15:00 AM 1.67 35.006 0.27 7.6 3.07 13.18
12/24/2021 3:30:00 AM 1.67 35.006 0.27 7.6 3.57 13.17
12/24/2021 3:45:00 AM 1.68 35.024 0.27 7.61 3.55 13.18
12/24/2021 4:00:00 AM 1.68 35.024 0.27 7.6 3.93 13.18
12/24/2021 4:15:00 AM 1.69 35.042 0.271 7.6 3.47 13.17
12/24/2021 4:30:00 AM 1.7 35.06 0.271 7.6 3.31 13.17
12/24/2021 4:45:00 AM 1.71 35.078 0.271 7.6 3.17 13.18
12/24/2021 5:00:00 AM 1.71 35.078 0.271 7.61 3.18 13.17
12/24/2021 5:15:00 AM 1.72 35.096 0.271 7.6 3.11 13.18
12/24/2021 5:30:00 AM 1.72 35.096 0.272 7.61 3.22 13.17
12/24/2021 5:45:00 AM 1.73 35.114 0.272 7.61 3.07 13.17
12/24/2021 6:00:00 AM 1.74 35.132 0.272 7.6 3.25 13.17
12/24/2021 6:15:00 AM 1.74 35.132 0.272 7.61 3.62 13.17
12/24/2021 6:30:00 AM 1.74 35.132 0.272 7.6 3.13 13.17
12/24/2021 6:45:00 AM 1.75 35.15 0.272 7.61 3.15 13.17
12/24/2021 7:00:00 AM 1.75 35.15 0.273 7.6 3.29 13.16
12/24/2021 7:15:00 AM 1.75 35.15 0.273 7.6 3.32 13.16
12/24/2021 7:30:00 AM 1.75 35.15 0.273 7.61 3.31 13.16
12/24/2021 7:45:00 AM 1.75 35.15 0.273 7.61 3.07 13.17
12/24/2021 8:00:00 AM 1.76 35.168 0.273 7.61 3.13 13.17
12/24/2021 8:15:00 AM 1.76 35.168 0.273 7.61 3.03 13.18
12/24/2021 8:30:00 AM 1.76 35.168 0.274 7.61 3.07 13.2
12/24/2021 8:45:00 AM 1.75 35.15 0.274 7.61 3.05 13.2
12/24/2021 9:00:00 AM 1.74 35.132 0.274 7.62 3 13.22
12/24/2021 9:15:00 AM 1.75 35.15 0.274 7.62 3.03 13.23
12/24/2021 9:30:00 AM 1.75 35.15 0.274 7.61 3.02 13.24
12/24/2021 9:45:00 AM 1.75 35.15 0.275 7.62 3.05 13.25
12/24/2021 10:00:00 AM 1.76 35.168 0.275 7.63 3.17 13.25
12/24/2021 10:15:00 AM 1.77 35.186 0.275 7.62 3.03 13.26
12/24/2021 10:30:00 AM 1.79 35.222 0.275 7.63 3.13 13.26
12/24/2021 10:45:00 AM 1.81 35.258 0.275 7.63 2.97 13.26
12/24/2021 11:00:00 AM 1.86 35.348 0.275 7.63 3.01 13.26
12/24/2021 11:15:00 AM 1.91 35.438 0.275 7.63 3 13.27
12/24/2021 11:30:00 AM 1.97 35.546 0.276 7.63 3.05 13.26
12/24/2021 11:45:00 AM 2.03 35.654 0.276 7.64 3.12 13.26
12/24/2021 12:00:00 PM 2.08 35.744 0.276 7.63 2.88 13.25
12/24/2021 12:15:00 PM 2.13 35.834 0.276 7.64 3.01 13.24
12/24/2021 12:30:00 PM 2.19 35.942 0.276 7.64 2.93 13.21
12/24/2021 12:45:00 PM 2.27 36.086 0.276 7.64 2.95 13.2
12/24/2021 1:00:00 PM 2.36 36.248 0.276 7.65 2.94 13.18
12/24/2021 1:15:00 PM 2.44 36.392 0.276 7.64 3.04 13.16
12/24/2021 1:30:00 PM 2.52 36.536 0.276 7.65 3.1 13.14
12/24/2021 1:45:00 PM 2.64 36.752 0.277 7.65 3.13 13.12
12/24/2021 2:00:00 PM 2.75 36.95 0.278 7.65 5.57 13.1
12/24/2021 2:15:00 PM 2.86 37.148 0.277 7.65 3.08 13.08
12/24/2021 2:30:00 PM 2.94 37.292 0.277 7.65 3.01 13.06
12/24/2021 2:45:00 PM 2.99 37.382 0.277 7.66 2.98 13.04
12/24/2021 3:00:00 PM 3.02 37.436 0.277 7.66 3.04 13.02
12/24/2021 3:15:00 PM 3.07 37.526 0.277 7.66 3.02 12.99
12/24/2021 3:30:00 PM 3.1 37.58 0.277 7.66 3.26 12.97
12/24/2021 3:45:00 PM 3.11 37.598 0.278 7.66 3.03 12.95
12/24/2021 4:00:00 PM 3.13 37.634 0.278 7.66 3.04 12.92
12/24/2021 4:15:00 PM 3.13 37.634 0.278 7.66 3.04 12.89
12/24/2021 4:30:00 PM 3.13 37.634 0.278 7.66 2.95 12.87
12/24/2021 4:45:00 PM 3.14 37.652 0.278 7.64 3.03 12.84
12/24/2021 5:00:00 PM 3.15 37.67 0.279 7.65 3.09 12.82
12/24/2021 5:15:00 PM 3.15 37.67 0.279 7.65 3.24 12.8
12/24/2021 5:30:00 PM 3.15 37.67 0.279 7.65 3.12 12.78
12/24/2021 5:45:00 PM 3.15 37.67 0.279 7.64 3.29 12.76
12/24/2021 6:00:00 PM 3.16 37.688 0.28 7.64 3.37 12.75
12/24/2021 6:15:00 PM 3.16 37.688 0.28 7.64 3.1 12.73
12/24/2021 6:30:00 PM 3.15 37.67 0.28 7.64 3.24 12.73
12/24/2021 6:45:00 PM 3.15 37.67 0.28 7.64 3.33 12.71
12/24/2021 7:00:00 PM 3.16 37.688 0.281 7.64 3.36 12.7
12/24/2021 7:15:00 PM 3.16 37.688 0.281 7.64 2.98 12.69
12/24/2021 7:30:00 PM 3.17 37.706 0.281 7.64 3.16 12.68
12/24/2021 7:45:00 PM 3.18 37.724 0.281 7.64 3.16 12.67
12/24/2021 8:00:00 PM 3.18 37.724 0.281 7.64 3.43 12.66
12/24/2021 8:15:00 PM 3.2 37.76 0.282 7.63 3.22 12.64
12/24/2021 8:30:00 PM 3.21 37.778 0.282 7.63 3.48 12.63
12/24/2021 8:45:00 PM 3.22 37.796 0.282 7.64 3.19 12.63
12/24/2021 9:00:00 PM 3.23 37.814 0.282 7.63 3.46 12.61
12/24/2021 9:15:00 PM 3.25 37.85 0.283 7.63 3.1 12.6
12/24/2021 9:30:00 PM 3.26 37.868 0.283 7.63 3.28 12.59
12/24/2021 9:45:00 PM 3.27 37.886 0.283 7.63 3.16 12.58
12/24/2021 10:00:00 PM 3.29 37.922 0.283 7.63 3.28 12.57
12/24/2021 10:15:00 PM 3.3 37.94 0.283 7.63 3.25 12.56
12/24/2021 10:30:00 PM 3.31 37.958 0.284 7.63 3.33 12.55
12/24/2021 10:45:00 PM 3.32 37.976 0.284 7.63 3.43 12.55
12/24/2021 11:00:00 PM 3.34 38.012 0.284 7.62 4.05 12.54
12/24/2021 11:15:00 PM 3.35 38.03 0.284 7.63 3.18 12.53
12/24/2021 11:30:00 PM 3.36 38.048 0.284 7.63 3.43 12.53
12/24/2021 11:45:00 PM 3.37 38.066 0.284 7.63 3.22 12.53
12/25/2021 12:00:00 AM 3.37 38.066 0.284 7.63 3.23 12.52
12/25/2021 12:15:00 AM 3.38 38.084 0.285 7.63 3.28 12.52
12/25/2021 12:30:00 AM 3.38 38.084 0.285 7.63 3.32 12.52
12/25/2021 12:45:00 AM 3.39 38.102 0.285 7.63 3.42 12.51
12/25/2021 1:00:00 AM 3.39 38.102 0.285 7.63 3.39 12.5
12/25/2021 1:15:00 AM 3.4 38.12 0.285 7.63 3.26 12.49
12/25/2021 1:30:00 AM 3.41 38.138 0.285 7.63 3.31 12.5
12/25/2021 1:45:00 AM 3.42 38.156 0.285 7.63 3.22 12.48
12/25/2021 2:00:00 AM 3.43 38.174 0.286 7.63 3.33 12.48
12/25/2021 2:15:00 AM 3.44 38.192 0.286 7.63 3.3 12.47
12/25/2021 2:30:00 AM 3.45 38.21 0.286 7.63 3.4 12.47
12/25/2021 2:45:00 AM 3.47 38.246 0.286 7.62 3.33 12.46
12/25/2021 3:00:00 AM 3.47 38.246 0.286 7.63 3.24 12.45
12/25/2021 3:15:00 AM 3.48 38.264 0.286 7.63 3.48 12.45
12/25/2021 3:30:00 AM 3.5 38.3 0.286 7.63 4.01 12.44
12/25/2021 3:45:00 AM 3.51 38.318 0.286 7.63 3.98 12.43
12/25/2021 4:00:00 AM 3.53 38.354 0.286 7.62 5.57 12.42
12/25/2021 4:15:00 AM 3.54 38.372 0.286 7.63 3.44 12.41
12/25/2021 4:30:00 AM 3.56 38.408 0.287 7.63 3.4 12.41
12/25/2021 4:45:00 AM 3.57 38.426 0.287 7.63 3.28 12.4
12/25/2021 5:00:00 AM 3.58 38.444 0.287 7.63 3.44 12.4
12/25/2021 5:15:00 AM 3.6 38.48 0.287 7.63 3.24 12.39
12/25/2021 5:30:00 AM 3.61 38.498 0.287 7.63 3.39 12.38
12/25/2021 5:45:00 AM 3.62 38.516 0.286 7.63 3.47 12.38
12/25/2021 6:00:00 AM 3.63 38.534 0.286 7.63 3.27 12.38
12/25/2021 6:15:00 AM 3.63 38.534 0.286 7.63 3.59 12.37
12/25/2021 6:30:00 AM 3.64 38.552 0.285 7.63 3.46 12.37
12/25/2021 6:45:00 AM 3.65 38.57 0.285 7.62 3.84 12.35
12/25/2021 7:00:00 AM 3.66 38.588 0.285 7.62 3.37 12.35
12/25/2021 7:15:00 AM 3.67 38.606 0.285 7.62 3.46 12.34
12/25/2021 7:30:00 AM 3.68 38.624 0.285 7.62 3.5 12.34
12/25/2021 7:45:00 AM 3.7 38.66 0.285 7.62 3.55 12.33
12/25/2021 8:00:00 AM 3.71 38.678 0.285 7.61 3.72 12.33
12/25/2021 8:15:00 AM 3.72 38.696 0.285 7.62 3.65 12.32
12/25/2021 8:30:00 AM 3.74 38.732 0.285 7.62 3.56 12.33
12/25/2021 8:45:00 AM 3.76 38.768 0.285 7.62 3.84 12.33
12/25/2021 9:00:00 AM 3.79 38.822 0.285 7.62 3.54 12.32
12/25/2021 9:15:00 AM 3.83 38.894 0.285 7.63 3.51 12.33
12/25/2021 9:30:00 AM 3.87 38.966 0.285 7.63 3.53 12.33
12/25/2021 9:45:00 AM 3.92 39.056 0.285 7.63 3.68 12.33
12/25/2021 10:00:00 AM 3.98 39.164 0.285 7.63 3.66 12.33
12/25/2021 10:15:00 AM 4.03 39.254 0.285 7.63 3.97 12.32
12/25/2021 10:30:00 AM 4.08 39.344 0.285 7.64 6.25 12.32
12/25/2021 10:45:00 AM 4.14 39.452 0.285 7.64 3.72 12.3
12/25/2021 11:00:00 AM 4.2 39.56 0.285 7.64 3.74 12.31
12/25/2021 11:15:00 AM 4.27 39.686 0.285 7.64 4.03 12.3
12/25/2021 11:30:00 AM 4.35 39.83 0.284 7.64 5.04 12.29
12/25/2021 11:45:00 AM 4.45 40.01 0.285 7.65 4.05 12.29
12/25/2021 12:00:00 PM 4.54 40.172 0.285 7.65 3.96 12.28
12/25/2021 12:15:00 PM 4.62 40.316 0.285 7.66 3.95 12.26
12/25/2021 12:30:00 PM 4.73 40.514 0.285 7.66 4.02 12.24
12/25/2021 12:45:00 PM 4.83 40.694 0.286 7.66 4.04 12.23
12/25/2021 1:00:00 PM 4.89 40.802 0.286 7.66 4.15 12.2
12/25/2021 1:15:00 PM 4.99 40.982 0.286 7.67 4.01 12.19
12/25/2021 1:30:00 PM 5.08 41.144 0.286 7.67 4.15 12.17
12/25/2021 1:45:00 PM 5.14 41.252 0.286 7.67 4.25 12.14
12/25/2021 2:00:00 PM 5.2 41.36 0.286 7.67 4.25 12.12
12/25/2021 2:15:00 PM 5.24 41.432 0.287 7.67 4.31 12.09
12/25/2021 2:30:00 PM 5.28 41.504 0.287 7.67 4.33 12.07
12/25/2021 2:45:00 PM 5.32 41.576 0.287 7.67 4.63 12.04
12/25/2021 3:00:00 PM 5.38 41.684 0.287 7.67 4.71 12.04
12/25/2021 3:15:00 PM 5.43 41.774 0.287 7.67 4.39 12.02
12/25/2021 3:30:00 PM 5.45 41.81 0.287 7.67 4.65 11.99
12/25/2021 3:45:00 PM 5.48 41.864 0.287 7.66 4.39 11.96
12/25/2021 4:00:00 PM 5.52 41.936 0.287 7.66 4.59 11.93
12/25/2021 4:15:00 PM 5.54 41.972 0.287 7.65 4.33 11.9
12/25/2021 4:30:00 PM 5.56 42.008 0.287 7.66 4.51 11.87
12/25/2021 4:45:00 PM 5.58 42.044 0.287 7.65 4.53 11.85
12/25/2021 5:00:00 PM 5.61 42.098 0.287 7.65 4.83 11.83
12/25/2021 5:15:00 PM 5.63 42.134 0.287 7.65 4.88 11.81
12/25/2021 5:30:00 PM 5.65 42.17 0.286 7.65 4.43 11.79
12/25/2021 5:45:00 PM 5.67 42.206 0.286 7.64 4.34 11.77
12/25/2021 6:00:00 PM 5.68 42.224 0.286 7.64 5.05 11.74
12/25/2021 6:15:00 PM 5.7 42.26 0.286 7.64 4.85 11.74
12/25/2021 6:30:00 PM 5.72 42.296 0.286 7.63 4.77 11.73
12/25/2021 6:45:00 PM 5.73 42.314 0.286 7.64 4.38 11.72
12/25/2021 7:00:00 PM 5.75 42.35 0.286 7.64 4.51 11.71
12/25/2021 7:15:00 PM 5.76 42.368 0.286 7.63 4.55 11.69
12/25/2021 7:30:00 PM 5.77 42.386 0.286 7.63 4.87 11.69
12/25/2021 7:45:00 PM 5.79 42.422 0.286 7.62 4.81 11.68
12/25/2021 8:00:00 PM 5.81 42.458 0.286 7.63 5.14 11.68
12/25/2021 8:15:00 PM 5.83 42.494 0.286 7.63 4.75 11.67
12/25/2021 8:30:00 PM 5.85 42.53 0.286 7.63 5.21 11.66
12/25/2021 8:45:00 PM 5.88 42.584 0.287 7.63 4.9 11.66
12/25/2021 9:00:00 PM 5.9 42.62 0.287 7.64 5.1 11.65
12/25/2021 9:15:00 PM 5.91 42.638 0.287 7.64 5.45 11.65
12/25/2021 9:30:00 PM 5.94 42.692 0.287 7.64 5.3 11.64
12/25/2021 9:45:00 PM 5.96 42.728 0.287 7.64 5.41 11.64
12/25/2021 10:00:00 PM 5.97 42.746 0.288 7.64 5.42 11.64
12/25/2021 10:15:00 PM 5.98 42.764 0.288 7.65 5.19 11.63
12/25/2021 10:30:00 PM 5.99 42.782 0.288 7.65 5.48 11.63
12/25/2021 10:45:00 PM 5.99 42.782 0.288 7.65 5.52 11.63
12/25/2021 11:00:00 PM 6 42.8 0.288 7.65 5.41 11.63
12/25/2021 11:15:00 PM 6.01 42.818 0.288 7.65 5.52 11.63
12/25/2021 11:30:00 PM 6 42.8 0.288 7.65 21.22 11.63
12/25/2021 11:45:00 PM 5.99 42.782 0.288 7.65 5.64 11.63
12/26/2021 12:00:00 AM 6 42.8 0.288 7.66 5.55 11.63
12/26/2021 12:15:00 AM 6 42.8 0.288 7.65 5.42 11.63
12/26/2021 12:30:00 AM 5.98 42.764 0.288 7.66 5.33 11.63
12/26/2021 12:45:00 AM 5.99 42.782 0.288 7.65 5.95 11.63
12/26/2021 1:00:00 AM 5.99 42.782 0.289 7.66 6 11.63
12/26/2021 1:15:00 AM 5.97 42.746 0.289 7.65 5.44 11.64
12/26/2021 1:30:00 AM 5.95 42.71 0.289 7.66 5.4 11.65
12/26/2021 1:45:00 AM 5.93 42.674 0.289 7.66 4.84 11.64
12/26/2021 2:00:00 AM 5.91 42.638 0.29 7.66 5.04 11.65
12/26/2021 2:15:00 AM 5.9 42.62 0.29 7.66 5.05 11.65
12/26/2021 2:30:00 AM 5.89 42.602 0.29 7.66 4.96 11.66
12/26/2021 2:45:00 AM 5.87 42.566 0.291 7.66 4.99 11.67
12/26/2021 3:00:00 AM 5.84 42.512 0.291 7.66 5.79 11.68
12/26/2021 3:15:00 AM 5.82 42.476 0.291 7.66 4.78 11.68
12/26/2021 3:30:00 AM 5.81 42.458 0.292 7.67 4.82 11.69
12/26/2021 3:45:00 AM 5.79 42.422 0.292 7.66 5.31 11.7
12/26/2021 4:00:00 AM 5.77 42.386 0.292 7.66 5.08 11.71
12/26/2021 4:15:00 AM 5.75 42.35 0.293 7.67 5.24 11.72
12/26/2021 4:30:00 AM 5.72 42.296 0.293 7.67 4.65 11.73
12/26/2021 4:45:00 AM 5.69 42.242 0.293 7.67 4.84 11.74
12/26/2021 5:00:00 AM 5.65 42.17 0.293 7.67 5.01 11.75
12/26/2021 5:15:00 AM 5.62 42.116 0.293 7.67 4.86 11.76
12/26/2021 5:30:00 AM 5.61 42.098 0.293 7.67 4.72 11.77
12/26/2021 5:45:00 AM 5.6 42.08 0.293 7.67 4.67 11.77
12/26/2021 6:00:00 AM 5.59 42.062 0.293 7.67 4.57 11.78
12/26/2021 6:15:00 AM 5.58 42.044 0.293 7.67 4.66 11.79
12/26/2021 6:30:00 AM 5.57 42.026 0.293 7.67 4.34 11.8
12/26/2021 6:45:00 AM 5.55 41.99 0.293 7.66 4.71 11.8
12/26/2021 7:00:00 AM 5.54 41.972 0.293 7.67 4.68 11.81
12/26/2021 7:15:00 AM 5.53 41.954 0.293 7.67 4.35 11.81
12/26/2021 7:30:00 AM 5.51 41.918 0.293 7.67 4.92 11.82
12/26/2021 7:45:00 AM 5.5 41.9 0.293 7.67 4.82 11.83
12/26/2021 8:00:00 AM 5.47 41.846 0.293 7.68 4.91 11.85
12/26/2021 8:15:00 AM 5.46 41.828 0.293 7.67 4.59 11.87
12/26/2021 8:30:00 AM 5.46 41.828 0.293 7.67 4.48 11.89
12/26/2021 8:45:00 AM 5.44 41.792 0.293 7.68 4.27 11.9
12/26/2021 9:00:00 AM 5.43 41.774 0.292 7.68 4.87 11.93
12/26/2021 9:15:00 AM 5.43 41.774 0.292 7.69 4.42 11.95
12/26/2021 9:30:00 AM 5.44 41.792 0.292 7.69 4.26 11.96
12/26/2021 9:45:00 AM 5.45 41.81 0.292 7.69 4.41 11.99
12/26/2021 10:00:00 AM 5.45 41.81 0.292 7.69 4.41 12
12/26/2021 10:15:00 AM 5.47 41.846 0.292 7.7 4.7 12.03
12/26/2021 10:30:00 AM 5.47 41.846 0.291 7.7 4.36 12.04
12/26/2021 10:45:00 AM 5.46 41.828 0.291 7.7 4.75 12.05
12/26/2021 11:00:00 AM 5.45 41.81 0.291 7.7 4.62 12.06
12/26/2021 11:15:00 AM 5.45 41.81 0.291 7.71 4.46 12.07
12/26/2021 11:30:00 AM 5.48 41.864 0.291 7.71 4.58 12.08
12/26/2021 11:45:00 AM 5.54 41.972 0.29 7.7 4.75 12.09
12/26/2021 12:00:00 PM 5.6 42.08 0.29 7.72 4.51 12.11
12/26/2021 12:15:00 PM 5.61 42.098 0.29 7.71 4.69 12.1
12/26/2021 12:30:00 PM 5.67 42.206 0.29 7.72 4.64 12.11
12/26/2021 12:45:00 PM 5.73 42.314 0.29 7.72 4.47 12.11
12/26/2021 1:00:00 PM 5.77 42.386 0.289 7.72 4.6 12.11
12/26/2021 1:15:00 PM 5.78 42.404 0.289 7.72 4.47 12.1
12/26/2021 1:30:00 PM 5.79 42.422 0.289 7.72 4.38 12.11
12/26/2021 1:45:00 PM 5.81 42.458 0.289 7.72 4.51 12.1
12/26/2021 2:00:00 PM 5.83 42.494 0.289 7.72 4.64 12.11
12/26/2021 2:15:00 PM 5.85 42.53 0.289 7.73 4.21 12.11
12/26/2021 2:30:00 PM 5.86 42.548 0.288 7.73 4.31 12.1
12/26/2021 2:45:00 PM 5.84 42.512 0.288 7.72 4.24 12.09
12/26/2021 3:00:00 PM 5.81 42.458 0.288 7.73 4.19 12.08
12/26/2021 3:15:00 PM 5.8 42.44 0.288 7.72 3.94 12.07
12/26/2021 3:30:00 PM 5.76 42.368 0.287 7.71 4.36 12.06
12/26/2021 3:45:00 PM 5.76 42.368 0.287 7.72 4.21 12.06
12/26/2021 4:00:00 PM 5.75 42.35 0.287 7.72 4.02 12.06
12/26/2021 4:15:00 PM 5.71 42.278 0.287 7.72 4.44 12.06
12/26/2021 4:30:00 PM 5.68 42.224 0.286 7.71 4.11 12.06
12/26/2021 4:45:00 PM 5.64 42.152 0.286 7.71 4.12 12.04
12/26/2021 5:00:00 PM 5.59 42.062 0.286 7.71 4.14 12.03
12/26/2021 5:15:00 PM 5.53 41.954 0.285 7.7 4.12 12.01
12/26/2021 5:30:00 PM 5.46 41.828 0.285 7.69 4.01 12
12/26/2021 5:45:00 PM 5.4 41.72 0.285 7.69 4.45 12.01
12/26/2021 6:00:00 PM 5.33 41.594 0.285 7.68 4.33 12
12/26/2021 6:15:00 PM 5.27 41.486 0.285 7.67 4.24 12.02
12/26/2021 6:30:00 PM 5.2 41.36 0.284 7.67 4.26 12.01
12/26/2021 6:45:00 PM 5.14 41.252 0.284 7.67 4.32 12.03
12/26/2021 7:00:00 PM 5.08 41.144 0.284 7.67 4.27 12.04
12/26/2021 7:15:00 PM 5.03 41.054 0.284 7.66 4.1 12.04
12/26/2021 7:30:00 PM 4.97 40.946 0.284 7.67 4.2 12.05
12/26/2021 7:45:00 PM 4.93 40.874 0.284 7.66 4.46 12.06
12/26/2021 8:00:00 PM 4.88 40.784 0.284 7.66 4.49 12.07
12/26/2021 8:15:00 PM 4.84 40.712 0.284 7.66 4.72 12.08
12/26/2021 8:30:00 PM 4.79 40.622 0.284 7.66 4.17 12.09
12/26/2021 8:45:00 PM 4.75 40.55 0.284 7.66 4.28 12.09
12/26/2021 9:00:00 PM 4.71 40.478 0.284 7.65 4.3 12.1
12/26/2021 9:15:00 PM 4.67 40.406 0.284 7.66 4.55 12.11
12/26/2021 9:30:00 PM 4.62 40.316 0.284 7.66 4.14 12.12
12/26/2021 9:45:00 PM 4.58 40.244 0.284 7.66 4.22 12.13
12/26/2021 10:00:00 PM 4.53 40.154 0.284 7.65 4.45 12.15
12/26/2021 10:15:00 PM 4.49 40.082 0.284 7.65 4.13 12.15
12/26/2021 10:30:00 PM 4.44 39.992 0.284 7.65 4.32 12.16
12/26/2021 10:45:00 PM 4.39 39.902 0.284 7.64 4.89 12.16
12/26/2021 11:00:00 PM 4.34 39.812 0.284 7.65 3.99 12.18
12/26/2021 11:15:00 PM 4.29 39.722 0.284 7.65 4.07 12.21
12/26/2021 11:30:00 PM 4.23 39.614 0.284 7.65 4.3 12.22
12/26/2021 11:45:00 PM 4.18 39.524 0.284 7.64 4.21 12.23
12/27/2021 12:00:00 AM 4.14 39.452 0.284 7.65 4.43 12.26
12/27/2021 12:15:00 AM 4.08 39.344 0.284 7.64 4.23 12.27
12/27/2021 12:30:00 AM 4.04 39.272 0.285 7.65 4.12 12.3
12/27/2021 12:45:00 AM 4 39.2 0.285 7.65 4.25 12.31
12/27/2021 1:00:00 AM 3.96 39.128 0.285 7.65 4.69 12.32
12/27/2021 1:15:00 AM 3.92 39.056 0.285 7.65 3.99 12.34
12/27/2021 1:30:00 AM 3.88 38.984 0.285 7.64 4.23 12.35
12/27/2021 1:45:00 AM 3.85 38.93 0.285 7.65 4.21 12.36
12/27/2021 2:00:00 AM 3.81 38.858 0.285 7.64 4.1 12.38
12/27/2021 2:15:00 AM 3.79 38.822 0.286 7.65 4.32 12.39
12/27/2021 2:30:00 AM 3.75 38.75 0.286 7.65 4.16 12.4
12/27/2021 2:45:00 AM 3.72 38.696 0.286 7.65 4.12 12.41
12/27/2021 3:00:00 AM 3.69 38.642 0.286 7.65 4.06 12.42
12/27/2021 3:15:00 AM 3.66 38.588 0.286 7.65 4.13 12.43
12/27/2021 3:30:00 AM 3.64 38.552 0.286 7.64 4.17 12.45
12/27/2021 3:45:00 AM 3.62 38.516 0.287 7.64 4.19 12.46
12/27/2021 4:00:00 AM 3.6 38.48 0.287 7.65 4.11 12.47
12/27/2021 4:15:00 AM 3.57 38.426 0.287 7.65 4.24 12.48
12/27/2021 4:30:00 AM 3.56 38.408 0.287 7.64 4.05 12.49
12/27/2021 4:45:00 AM 3.54 38.372 0.287 7.64 4.41 12.5
12/27/2021 5:00:00 AM 3.52 38.336 0.287 7.65 4.36 12.51
12/27/2021 5:15:00 AM 3.5 38.3 0.288 7.65 4.14 12.51
12/27/2021 5:30:00 AM 3.48 38.264 0.288 7.64 4.25 12.52
12/27/2021 5:45:00 AM 3.47 38.246 0.288 7.65 4.33 12.52
12/27/2021 6:00:00 AM 3.45 38.21 0.288 7.64 4.17 12.53
12/27/2021 6:15:00 AM 3.43 38.174 0.288 7.65 4.22 12.53
12/27/2021 6:30:00 AM 3.42 38.156 0.289 7.65 4 12.54
12/27/2021 6:45:00 AM 3.4 38.12 0.289 7.65 4.27 12.54
12/27/2021 7:00:00 AM 3.39 38.102 0.289 7.65 3.99 12.55
12/27/2021 7:15:00 AM 3.38 38.084 0.289 7.65 4.41 12.55
12/27/2021 7:30:00 AM 3.38 38.084 0.289 7.65 3.99 12.56
12/27/2021 7:45:00 AM 3.37 38.066 0.289 7.65 3.82 12.55
12/27/2021 8:00:00 AM 3.34 38.012 0.29 7.65 4.07 12.56
12/27/2021 8:15:00 AM 3.33 37.994 0.29 7.64 3.96 12.57
12/27/2021 8:30:00 AM 3.3 37.94 0.29 7.65 3.96 12.58
12/27/2021 8:45:00 AM 3.21 37.778 0.29 7.65 3.84 12.58
12/27/2021 9:00:00 AM 2.93 37.274 0.29 7.65 3.82 12.57
12/27/2021 9:15:00 AM 2.66 36.788 0.289 7.66 3.86 12.6
12/27/2021 9:30:00 AM 2.61 36.698 0.289 7.63 3.97 12.65
12/27/2021 9:45:00 AM 2.6 36.68 0.289 7.64 3.76 12.68
12/27/2021 10:00:00 AM 2.51 36.518 0.289 7.65 3.83 12.73
12/27/2021 10:15:00 AM 2.53 36.554 0.289 7.66 3.97 12.76
12/27/2021 10:30:00 AM 2.51 36.518 0.289 7.66 3.6 12.79
12/27/2021 10:45:00 AM 2.55 36.59 0.289 7.67 3.73 12.81
12/27/2021 11:00:00 AM 2.57 36.626 0.289 7.67 3.59 12.81
12/27/2021 11:15:00 AM 2.62 36.716 0.289 7.68 3.75 12.85
12/27/2021 11:30:00 AM 2.67 36.806 0.289 7.68 3.53 12.86
12/27/2021 11:45:00 AM 2.67 36.806 0.289 7.68 3.75 12.87
12/27/2021 12:00:00 PM 2.7 36.86 0.289 7.69 3.87 12.88
12/27/2021 12:15:00 PM 2.71 36.878 0.29 7.69 3.68 12.89
12/27/2021 12:30:00 PM 2.73 36.914 0.29 7.69 3.7 12.9
12/27/2021 12:45:00 PM 2.74 36.932 0.29 7.69 3.54 12.91
12/27/2021 1:00:00 PM 2.76 36.968 0.29 7.7 3.61 12.92
12/27/2021 1:15:00 PM 2.76 36.968 0.29 7.69 3.87 12.92
12/27/2021 1:30:00 PM 2.77 36.986 0.289 7.69 3.4 12.92
12/27/2021 1:45:00 PM 2.77 36.986 0.289 7.69 3.5 12.91
12/27/2021 2:00:00 PM 2.77 36.986 0.289 7.69 3.41 12.9
12/27/2021 2:15:00 PM 2.77 36.986 0.289 7.69 3.47 12.9
12/27/2021 2:30:00 PM 2.76 36.968 0.289 7.69 3.46 12.89
12/27/2021 2:45:00 PM 2.76 36.968 0.289 7.69 3.57 12.89
12/27/2021 3:00:00 PM 2.77 36.986 0.29 7.68 3.4 12.89
12/27/2021 3:15:00 PM 2.77 36.986 0.29 7.69 3.65 12.88
12/27/2021 3:30:00 PM 2.78 37.004 0.29 7.68 3.41 12.87
12/27/2021 3:45:00 PM 2.78 37.004 0.289 7.69 3.74 12.86
12/27/2021 4:00:00 PM 2.79 37.022 0.289 7.68 3.42 12.85
12/27/2021 4:15:00 PM 2.79 37.022 0.29 7.69 3.46 12.83
12/27/2021 4:30:00 PM 2.79 37.022 0.29 7.68 3.4 12.82
12/27/2021 4:45:00 PM 2.79 37.022 0.289 7.68 3.43 12.81
12/27/2021 5:00:00 PM 2.79 37.022 0.29 7.68 3.61 12.79
12/27/2021 5:15:00 PM 2.79 37.022 0.29 7.67 3.64 12.78
12/27/2021 5:30:00 PM 2.8 37.04 0.29 7.68 3.48 12.77
12/27/2021 5:45:00 PM 2.8 37.04 0.29 7.67 3.45 12.76
12/27/2021 6:00:00 PM 2.8 37.04 0.29 7.67 3.62 12.75
12/27/2021 6:15:00 PM 2.8 37.04 0.29 7.67 4.08 12.74
12/27/2021 6:30:00 PM 2.81 37.058 0.29 7.66 3.53 12.74
12/27/2021 6:45:00 PM 2.81 37.058 0.29 7.67 3.62 12.73
12/27/2021 7:00:00 PM 2.8 37.04 0.289 7.66 4.48 12.73
12/27/2021 7:15:00 PM 2.81 37.058 0.289 7.66 3.86 12.72
12/27/2021 7:30:00 PM 2.81 37.058 0.289 7.66 3.79 12.72
12/27/2021 7:45:00 PM 2.81 37.058 0.289 7.66 3.61 12.72
12/27/2021 8:00:00 PM 2.81 37.058 0.289 7.65 3.56 12.71
12/27/2021 8:15:00 PM 2.82 37.076 0.289 7.65 3.87 12.7
12/27/2021 8:30:00 PM 2.82 37.076 0.289 7.65 3.84 12.7
12/27/2021 8:45:00 PM 2.82 37.076 0.289 7.65 3.76 12.69
12/27/2021 9:00:00 PM 2.83 37.094 0.289 7.65 6.7 12.68
12/27/2021 9:15:00 PM 2.83 37.094 0.289 7.64 4.46 12.68
12/27/2021 9:30:00 PM 2.84 37.112 0.289 7.65 3.92 12.68
12/27/2021 9:45:00 PM 2.85 37.13 0.289 7.64 3.97 12.67
12/27/2021 10:00:00 PM 2.86 37.148 0.289 7.65 3.9 12.67
12/27/2021 10:15:00 PM 2.86 37.148 0.289 7.64 4.59 12.66
12/27/2021 10:30:00 PM 2.87 37.166 0.289 7.65 3.78 12.66
12/27/2021 10:45:00 PM 2.88 37.184 0.289 7.64 4.03 12.66
12/27/2021 11:00:00 PM 2.88 37.184 0.289 7.64 3.95 12.65
12/27/2021 11:15:00 PM 2.89 37.202 0.29 7.64 4.34 12.65
12/27/2021 11:30:00 PM 2.89 37.202 0.29 7.64 4.19 12.65
12/27/2021 11:45:00 PM 2.89 37.202 0.29 7.65 3.95 12.65
12/28/2021 12:00:00 AM 2.89 37.202 0.29 7.64 3.91 12.65
12/28/2021 12:15:00 AM 2.9 37.22 0.29 7.64 4.04 12.65
12/28/2021 12:30:00 AM 2.9 37.22 0.29 7.64 3.98 12.65
12/28/2021 12:45:00 AM 2.9 37.22 0.29 7.64 3.9 12.65
12/28/2021 1:00:00 AM 2.91 37.238 0.291 7.64 4.11 12.64
12/28/2021 1:15:00 AM 2.91 37.238 0.291 7.64 4.84 12.65
12/28/2021 1:30:00 AM 2.92 37.256 0.291 7.64 4.37 12.65
12/28/2021 1:45:00 AM 2.92 37.256 0.291 7.64 4.04 12.65
12/28/2021 2:00:00 AM 2.9 37.22 0.292 7.64 4.08 12.65
12/28/2021 2:15:00 AM 2.88 37.184 0.292 7.64 4.06 12.65
12/28/2021 2:30:00 AM 2.88 37.184 0.292 7.64 4.37 12.65
12/28/2021 2:45:00 AM 2.87 37.166 0.292 7.64 4.15 12.66
12/28/2021 3:00:00 AM 2.85 37.13 0.293 7.64 4.06 12.66
12/28/2021 3:15:00 AM 2.84 37.112 0.293 7.63 4.28 12.67
12/28/2021 3:30:00 AM 2.83 37.094 0.293 7.64 4.05 12.67
12/28/2021 3:45:00 AM 2.83 37.094 0.293 7.64 4.22 12.67
12/28/2021 4:00:00 AM 2.83 37.094 0.294 7.64 4.31 12.68
12/28/2021 4:15:00 AM 2.83 37.094 0.294 7.64 4.3 12.68
12/28/2021 4:30:00 AM 2.84 37.112 0.294 7.64 4.31 12.68
12/28/2021 4:45:00 AM 2.84 37.112 0.294 7.64 4.24 12.68
12/28/2021 5:00:00 AM 2.83 37.094 0.294 7.64 4.5 12.69
12/28/2021 5:15:00 AM 2.82 37.076 0.294 7.64 4.51 12.69
12/28/2021 5:30:00 AM 2.8 37.04 0.293 7.64 4.19 12.69
12/28/2021 5:45:00 AM 2.79 37.022 0.293 7.64 4.32 12.7
12/28/2021 6:00:00 AM 2.77 36.986 0.293 7.64 4.56 12.7
12/28/2021 6:15:00 AM 2.76 36.968 0.293 7.63 4.36 12.71
12/28/2021 6:30:00 AM 2.74 36.932 0.293 7.64 5.01 12.72
12/28/2021 6:45:00 AM 2.73 36.914 0.293 7.63 4.35 12.73
12/28/2021 7:00:00 AM 2.72 36.896 0.293 7.65 4.36 12.74
12/28/2021 7:15:00 AM 2.7 36.86 0.293 7.64 4.36 12.75
12/28/2021 7:30:00 AM 2.67 36.806 0.293 7.64 4.63 12.76
12/28/2021 7:45:00 AM 2.66 36.788 0.293 7.64 4.61 12.76
12/28/2021 8:00:00 AM 2.66 36.788 0.293 7.64 4.6 12.78
12/28/2021 8:15:00 AM 2.66 36.788 0.293 7.65 4.7 12.8
12/28/2021 8:30:00 AM 2.66 36.788 0.293 7.65 4.49 12.82
12/28/2021 8:45:00 AM 2.65 36.77 0.293 7.66 5.77 12.83
12/28/2021 9:00:00 AM 2.65 36.77 0.293 7.65 4.98 12.85
12/28/2021 9:15:00 AM 2.65 36.77 0.293 7.66 7.53 12.87
12/28/2021 9:30:00 AM 2.65 36.77 0.293 7.66 5.08 12.87
12/28/2021 9:45:00 AM 2.66 36.788 0.293 7.67 5.2 12.88
12/28/2021 10:00:00 AM 2.67 36.806 0.293 7.67 4.94 12.89
12/28/2021 10:15:00 AM 2.66 36.788 0.293 7.67 5.34 12.89
12/28/2021 10:30:00 AM 2.68 36.824 0.293 7.67 4.85 12.9
12/28/2021 10:45:00 AM 2.7 36.86 0.293 7.68 4.77 12.9
12/28/2021 11:00:00 AM 2.75 36.95 0.294 7.68 6.04 12.91
12/28/2021 11:15:00 AM 2.82 37.076 0.294 7.69 4.59 12.92
12/28/2021 11:30:00 AM 2.89 37.202 0.293 7.69 7.9 12.92
12/28/2021 11:45:00 AM 2.95 37.31 0.293 7.69 6.77 12.91
12/28/2021 12:00:00 PM 3 37.4 0.293 7.7 5.17 12.92
12/28/2021 12:15:00 PM 3.04 37.472 0.293 7.7 5.24 12.91
12/28/2021 12:30:00 PM 3.07 37.526 0.293 7.7 5.08 12.9
12/28/2021 12:45:00 PM 3.1 37.58 0.293 7.7 5.39 12.89
12/28/2021 1:00:00 PM 3.12 37.616 0.293 7.7 5.27 12.88
12/28/2021 1:15:00 PM 3.15 37.67 0.293 7.71 5.65 12.87
12/28/2021 1:30:00 PM 3.16 37.688 0.293 7.7 5.29 12.86
12/28/2021 1:45:00 PM 3.18 37.724 0.293 7.71 5.35 12.85
12/28/2021 2:00:00 PM 3.2 37.76 0.293 7.71 5.09 12.84
12/28/2021 2:15:00 PM 3.22 37.796 0.293 7.71 5.03 12.83
12/28/2021 2:30:00 PM 3.24 37.832 0.293 7.71 5.44 12.81
12/28/2021 2:45:00 PM 3.25 37.85 0.293 7.71 5.62 12.8
12/28/2021 3:00:00 PM 3.25 37.85 0.293 7.71 5.33 12.78
12/28/2021 3:15:00 PM 3.25 37.85 0.293 7.71 4.86 12.76
12/28/2021 3:30:00 PM 3.25 37.85 0.294 7.7 5.07 12.75
12/28/2021 3:45:00 PM 3.25 37.85 0.293 7.7 5.04 12.75
12/28/2021 4:00:00 PM 3.26 37.868 0.294 7.69 5.14 12.74
12/28/2021 4:15:00 PM 3.26 37.868 0.294 7.7 5.12 12.72
12/28/2021 4:30:00 PM 3.26 37.868 0.294 7.7 4.85 12.71
12/28/2021 4:45:00 PM 3.27 37.886 0.294 7.69 5.58 12.69
12/28/2021 5:00:00 PM 3.27 37.886 0.294 7.69 4.9 12.68
12/28/2021 5:15:00 PM 3.28 37.904 0.294 7.69 4.59 12.66
12/28/2021 5:30:00 PM 3.29 37.922 0.295 7.68 4.91 12.65
12/28/2021 5:45:00 PM 3.29 37.922 0.295 7.68 5.07 12.63
12/28/2021 6:00:00 PM 3.3 37.94 0.295 7.68 4.63 12.62
12/28/2021 6:15:00 PM 3.3 37.94 0.295 7.69 5.13 12.61
12/28/2021 6:30:00 PM 3.31 37.958 0.294 7.68 5.11 12.59
12/28/2021 6:45:00 PM 3.32 37.976 0.294 7.68 4.98 12.58
12/28/2021 7:00:00 PM 3.32 37.976 0.294 7.67 4.84 12.58
12/28/2021 7:15:00 PM 3.33 37.994 0.294 7.67 5.1 12.57
12/28/2021 7:30:00 PM 3.33 37.994 0.293 7.67 5.12 12.56
12/28/2021 7:45:00 PM 3.17 37.706 0.292 7.68 5.25 12.55
12/28/2021 8:00:00 PM 3.1 37.58 0.291 7.67 5.07 12.56
12/28/2021 8:15:00 PM 3.09 37.562 0.29 7.66 5.63 12.56
12/28/2021 8:30:00 PM 3.11 37.598 0.289 7.67 5.47 12.57
12/28/2021 8:45:00 PM 3.13 37.634 0.288 7.65 5.49 12.57
12/28/2021 9:00:00 PM 3.15 37.67 0.287 7.65 5.77 12.56
12/28/2021 9:15:00 PM 3.17 37.706 0.285 7.65 5.9 12.56
12/28/2021 9:30:00 PM 3.18 37.724 0.284 7.65 6.19 12.55
12/28/2021 9:45:00 PM 3.19 37.742 0.282 7.64 6.67 12.55
12/28/2021 10:00:00 PM 3.2 37.76 0.28 7.64 7.49 12.54
12/28/2021 10:15:00 PM 3.21 37.778 0.278 7.63 7.61 12.53
12/28/2021 10:30:00 PM 3.23 37.814 0.276 7.61 9.14 12.52
12/28/2021 10:45:00 PM 3.26 37.868 0.274 7.61 9.72 12.51
12/28/2021 11:00:00 PM 3.28 37.904 0.271 7.59 14.73 12.49
12/28/2021 11:15:00 PM 3.31 37.958 0.269 7.57 17.56 12.47
12/28/2021 11:30:00 PM 3.35 38.03 0.265 7.56 30.38 12.45
12/28/2021 11:45:00 PM 3.37 38.066 0.261 7.55 32.89 12.44
12/29/2021 12:00:00 AM 3.4 38.12 0.258 7.53 43.58 12.44
12/29/2021 12:15:00 AM 3.41 38.138 0.254 7.52 60.2 12.43
12/29/2021 12:30:00 AM 3.43 38.174 0.251 7.51 54.26 12.42
12/29/2021 12:45:00 AM 3.45 38.21 0.249 7.5 52.61 12.41
12/29/2021 1:00:00 AM 3.47 38.246 0.248 7.48 50.77 12.4
12/29/2021 1:15:00 AM 3.49 38.282 0.246 7.48 55.26 12.39
12/29/2021 1:30:00 AM 3.5 38.3 0.245 7.47 60.21 12.38
12/29/2021 1:45:00 AM 3.52 38.336 0.244 7.46 70.19 12.38
12/29/2021 2:00:00 AM 3.53 38.354 0.241 7.46 78.83 12.37
12/29/2021 2:15:00 AM 3.54 38.372 0.236 7.46 94.58 12.37
12/29/2021 2:30:00 AM 3.54 38.372 0.231 7.45 107.65 12.37
12/29/2021 2:45:00 AM 3.55 38.39 0.227 7.45 111.36 12.36
12/29/2021 3:00:00 AM 3.56 38.408 0.225 7.43 118.7 12.36
12/29/2021 3:15:00 AM 3.57 38.426 0.223 7.45 117.26 12.36
12/29/2021 3:30:00 AM 3.59 38.462 0.222 7.44 114.26 12.35
12/29/2021 3:45:00 AM 3.61 38.498 0.22 7.44 117.6 12.34
12/29/2021 4:00:00 AM 3.63 38.534 0.217 7.44 122.29 12.32
12/29/2021 4:15:00 AM 3.65 38.57 0.213 7.43 131.22 12.31
12/29/2021 4:30:00 AM 3.67 38.606 0.208 7.41 148.2 12.3
12/29/2021 4:45:00 AM 3.69 38.642 0.204 7.4 148.57 12.29
12/29/2021 5:00:00 AM 3.71 38.678 0.199 7.4 151.62 12.28
12/29/2021 5:15:00 AM 3.73 38.714 0.196 7.39 156.08 12.27
12/29/2021 5:30:00 AM 3.75 38.75 0.193 7.38 165.12 12.25
12/29/2021 5:45:00 AM 3.77 38.786 0.193 7.36 177.34 12.23
12/29/2021 6:00:00 AM 3.79 38.822 0.195 7.37 170.92 12.21
12/29/2021 6:15:00 AM 3.81 38.858 0.197 7.36 196.1 12.18
12/29/2021 6:30:00 AM 3.82 38.876 0.197 7.36 203.38 12.16
12/29/2021 6:45:00 AM 3.84 38.912 0.197 7.37 201.65 12.13
12/29/2021 7:00:00 AM 3.86 38.948 0.197 7.36 200.32 12.12
12/29/2021 7:15:00 AM 3.88 38.984 0.198 7.37 206.5 12.09
12/29/2021 7:30:00 AM 3.9 39.02 0.196 7.35 244.75 12.07
12/29/2021 7:45:00 AM 3.91 39.038 0.191 7.34 245.3 12.06
12/29/2021 8:00:00 AM 3.9 39.02 0.184 7.33 260.95 12.05
12/29/2021 8:15:00 AM 3.9 39.02 0.177 7.32 260.73 12.03
12/29/2021 8:30:00 AM 3.89 39.002 0.171 7.29 257.73 12.02
12/29/2021 8:45:00 AM 3.9 39.02 0.166 7.28 252.99 12.02
12/29/2021 9:00:00 AM 3.9 39.02 0.16 7.26 252.12 12
12/29/2021 9:15:00 AM 3.92 39.056 0.156 7.25 235.82 11.98
12/29/2021 9:30:00 AM 3.93 39.074 0.151 7.23 229.85 11.96
12/29/2021 9:45:00 AM 3.95 39.11 0.148 7.19 236.11 11.95
12/29/2021 10:00:00 AM 3.97 39.146 0.145 7.2 229.38 11.93
12/29/2021 10:15:00 AM 3.99 39.182 0.142 7.17 218.83 11.94
12/29/2021 10:30:00 AM 4.02 39.236 0.141 7.18 232.6 11.96
12/29/2021 10:45:00 AM 4.04 39.272 0.14 7.18 211.55 11.99
12/29/2021 11:00:00 AM 4.08 39.344 0.139 7.19 184.75 12.01
12/29/2021 11:15:00 AM 4.11 39.398 0.139 7.18 179.43 12.01
12/29/2021 11:30:00 AM 4.15 39.47 0.139 7.16 167.23 11.96
12/29/2021 11:45:00 AM 4.19 39.542 0.139 7.17 149.07 11.98
12/29/2021 12:00:00 PM 4.23 39.614 0.139 7.19 135.86 12.01
12/29/2021 12:15:00 PM 4.28 39.704 0.14 7.15 132.06 12.01
12/29/2021 12:30:00 PM 4.33 39.794 0.141 7.17 125.85 12.01
12/29/2021 12:45:00 PM 4.38 39.884 0.141 7.18 118.58 12
12/29/2021 1:00:00 PM 4.43 39.974 0.142 7.17 105.6 11.99
12/29/2021 1:15:00 PM 4.48 40.064 0.142 7.19 98.77 11.98
12/29/2021 1:30:00 PM 4.52 40.136 0.143 7.19 93.66 11.97
12/29/2021 1:45:00 PM 4.57 40.226 0.143 7.19 90.71 11.97
12/29/2021 2:00:00 PM 4.62 40.316 0.143 7.19 88.12 11.95
12/29/2021 2:15:00 PM 4.68 40.424 0.144 7.2 85.06 11.95
12/29/2021 2:30:00 PM 4.74 40.532 0.144 7.2 83.38 11.94
12/29/2021 2:45:00 PM 4.79 40.622 0.144 7.2 76.01 11.93
12/29/2021 3:00:00 PM 4.84 40.712 0.144 7.22 75.7 11.92
12/29/2021 3:15:00 PM 4.88 40.784 0.144 7.21 69.93 11.91
12/29/2021 3:30:00 PM 4.93 40.874 0.144 7.21 69.23 11.9
12/29/2021 3:45:00 PM 4.98 40.964 0.144 7.21 67.39 11.89
12/29/2021 4:00:00 PM 5.02 41.036 0.144 7.22 64.68 11.89
12/29/2021 4:15:00 PM 5.06 41.108 0.144 7.22 60.88 11.87
12/29/2021 4:30:00 PM 5.09 41.162 0.145 7.21 60.26 11.86
12/29/2021 4:45:00 PM 5.13 41.234 0.145 7.22 55.5 11.85
12/29/2021 5:00:00 PM 5.16 41.288 0.145 7.21 57.3 11.84
12/29/2021 5:15:00 PM 5.19 41.342 0.145 7.23 55.51 11.82
12/29/2021 5:30:00 PM 5.22 41.396 0.146 7.22 44.06 11.82
12/29/2021 5:45:00 PM 5.25 41.45 0.146 7.22 54.07 11.81
12/29/2021 6:00:00 PM 5.27 41.486 0.146 7.23 50.19 11.79
12/29/2021 6:15:00 PM 5.3 41.54 0.146 7.23 46.18 11.79
12/29/2021 6:30:00 PM 5.32 41.576 0.147 7.23 48.62 11.78
12/29/2021 6:45:00 PM 5.35 41.63 0.147 7.23 43.58 11.78
12/29/2021 7:00:00 PM 5.37 41.666 0.148 7.23 45.12 11.77
12/29/2021 7:15:00 PM 5.39 41.702 0.148 7.24 43.42 11.77
12/29/2021 7:30:00 PM 5.41 41.738 0.149 7.25 42.96 11.76
12/29/2021 7:45:00 PM 5.43 41.774 0.149 7.24 43.48 11.76
12/29/2021 8:00:00 PM 5.45 41.81 0.149 7.24 42.06 11.74
12/29/2021 8:15:00 PM 5.47 41.846 0.15 7.23 38.85 11.75
12/29/2021 8:30:00 PM 5.49 41.882 0.15 7.24 39.53 11.74
12/29/2021 8:45:00 PM 5.5 41.9 0.151 7.24 38.29 11.73
12/29/2021 9:00:00 PM 5.52 41.936 0.151 7.24 38.9 11.73
12/29/2021 9:15:00 PM 5.54 41.972 0.151 7.25 36.05 11.72
12/29/2021 9:30:00 PM 5.56 42.008 0.152 7.25 36.05 11.72
12/29/2021 9:45:00 PM 5.57 42.026 0.152 7.25 35.12 11.71
12/29/2021 10:00:00 PM 5.59 42.062 0.153 7.26 34.7 11.72
12/29/2021 10:15:00 PM 5.61 42.098 0.153 7.26 33.17 11.71
12/29/2021 10:30:00 PM 5.63 42.134 0.154 7.25 34.85 11.7
12/29/2021 10:45:00 PM 5.64 42.152 0.154 7.26 34.23 11.7
12/29/2021 11:00:00 PM 5.66 42.188 0.155 7.25 32 11.7
12/29/2021 11:15:00 PM 5.68 42.224 0.155 7.26 30.17 11.7
12/29/2021 11:30:00 PM 5.7 42.26 0.155 7.27 30.61 11.69
12/29/2021 11:45:00 PM 5.71 42.278 0.156 7.26 30.96 11.68
12/30/2021 12:00:00 AM 5.73 42.314 0.156 7.27 30.86 11.68
12/30/2021 12:15:00 AM 5.75 42.35 0.157 7.27 28.34 11.68
12/30/2021 12:30:00 AM 5.77 42.386 0.157 7.27 28.59 11.68
12/30/2021 12:45:00 AM 5.79 42.422 0.158 7.26 28.9 11.67
12/30/2021 1:00:00 AM 5.81 42.458 0.158 7.27 29.31 11.66
12/30/2021 1:15:00 AM 5.83 42.494 0.159 7.27 28.24 11.66
12/30/2021 1:30:00 AM 5.84 42.512 0.159 7.26 28.68 11.65
12/30/2021 1:45:00 AM 5.86 42.548 0.159 7.28 26.46 11.65
12/30/2021 2:00:00 AM 5.88 42.584 0.16 7.27 27.36 11.64
12/30/2021 2:15:00 AM 5.89 42.602 0.16 7.27 27.32 11.64
12/30/2021 2:30:00 AM 5.91 42.638 0.161 7.27 25.83 11.64
12/30/2021 2:45:00 AM 5.92 42.656 0.161 7.27 27.59 11.63
12/30/2021 3:00:00 AM 5.93 42.674 0.161 7.29 25.61 11.63
12/30/2021 3:15:00 AM 5.95 42.71 0.162 7.29 26.71 11.62
12/30/2021 3:30:00 AM 5.96 42.728 0.162 7.28 24.1 11.62
12/30/2021 3:45:00 AM 5.97 42.746 0.163 7.28 24.11 11.62
12/30/2021 4:00:00 AM 5.98 42.764 0.163 7.28 24.76 11.62
12/30/2021 4:15:00 AM 5.99 42.782 0.163 7.28 25.19 11.61
12/30/2021 4:30:00 AM 6 42.8 0.164 7.29 22.42 11.61
12/30/2021 4:45:00 AM 6.01 42.818 0.164 7.28 22.62 11.6
12/30/2021 5:00:00 AM 6.02 42.836 0.165 7.29 24.43 11.6
12/30/2021 5:15:00 AM 6.03 42.854 0.165 7.29 28.82 11.6
12/30/2021 5:30:00 AM 6.03 42.854 0.165 7.28 31.77 11.59
12/30/2021 5:45:00 AM 6.04 42.872 0.166 7.29 22.86 11.59
12/30/2021 6:00:00 AM 6.05 42.89 0.166 7.28 30.67 11.6
12/30/2021 6:15:00 AM 6.05 42.89 0.167 7.29 21.64 11.59
12/30/2021 6:30:00 AM 6.06 42.908 0.167 7.28 21 11.59
12/30/2021 6:45:00 AM 6.06 42.908 0.168 7.29 20.82 11.59
12/30/2021 7:00:00 AM 6.07 42.926 0.168 7.29 20.1 11.58
12/30/2021 7:15:00 AM 6.07 42.926 0.168 7.3 22.02 11.59
12/30/2021 7:30:00 AM 6.08 42.944 0.169 7.29 22.08 11.59
12/30/2021 7:45:00 AM 6.09 42.962 0.169 7.3 20.72 11.59
12/30/2021 8:00:00 AM 6.09 42.962 0.169 7.3 20.38 11.59
12/30/2021 8:15:00 AM 6.1 42.98 0.17 7.3 19.77 11.58
12/30/2021 8:30:00 AM 6.11 42.998 0.17 7.31 20.2 11.59
12/30/2021 8:45:00 AM 6.11 42.998 0.17 7.3 20.35 11.59
12/30/2021 9:00:00 AM 6.12 43.016 0.171 7.31 20.28 11.6
12/30/2021 9:15:00 AM 6.13 43.034 0.171 7.3 20.36 11.59
12/30/2021 9:30:00 AM 6.15 43.07 0.172 7.31 18.71 11.6
12/30/2021 9:45:00 AM 6.16 43.088 0.172 7.31 18.03 11.6
12/30/2021 10:00:00 AM 6.18 43.124 0.172 7.31 19.22 11.61
12/30/2021 10:15:00 AM 6.21 43.178 0.173 7.31 18.72 11.62
12/30/2021 10:30:00 AM 6.25 43.25 0.173 7.32 17.97 11.62
12/30/2021 10:45:00 AM 6.28 43.304 0.173 7.32 17.66 11.62
12/30/2021 11:00:00 AM 6.3 43.34 0.173 7.32 16.85 11.62
12/30/2021 11:15:00 AM 6.32 43.376 0.174 7.32 17.49 11.62
12/30/2021 11:30:00 AM 6.36 43.448 0.174 7.33 16.92 11.62
12/30/2021 11:45:00 AM 6.39 43.502 0.174 7.33 17.2 11.62
12/30/2021 12:00:00 PM 6.4 43.52 0.175 7.33 17.36 11.61
12/30/2021 12:15:00 PM 6.43 43.574 0.175 7.34 17.72 11.61
12/30/2021 12:30:00 PM 6.45 43.61 0.175 7.34 18.06 11.6
12/30/2021 12:45:00 PM 6.48 43.664 0.175 7.33 17.9 11.6
12/30/2021 1:00:00 PM 6.5 43.7 0.176 7.34 17.36 11.59
12/30/2021 1:15:00 PM 6.54 43.772 0.176 7.34 16.97 11.59
12/30/2021 1:30:00 PM 6.58 43.844 0.176 7.35 16.06 11.58
12/30/2021 1:45:00 PM 6.62 43.916 0.176 7.35 16.98 11.58
12/30/2021 2:00:00 PM 6.65 43.97 0.177 7.35 16.31 11.57
12/30/2021 2:15:00 PM 6.69 44.042 0.177 7.36 15.43 11.57
12/30/2021 2:30:00 PM 6.73 44.114 0.177 7.35 15.4 11.56
12/30/2021 2:45:00 PM 6.76 44.168 0.178 7.36 16.47 11.55
12/30/2021 3:00:00 PM 6.79 44.222 0.178 7.36 15.53 11.54
12/30/2021 3:15:00 PM 6.8 44.24 0.178 7.35 17.25 11.53
12/30/2021 3:30:00 PM 6.83 44.294 0.178 7.36 15.58 11.52
12/30/2021 3:45:00 PM 6.86 44.348 0.179 7.36 15.7 11.52
12/30/2021 4:00:00 PM 6.88 44.384 0.179 7.35 15.32 11.51
12/30/2021 4:15:00 PM 6.89 44.402 0.179 7.35 15.6 11.49
12/30/2021 4:30:00 PM 6.9 44.42 0.179 7.36 15.06 11.48
12/30/2021 4:45:00 PM 6.91 44.438 0.18 7.35 15.09 11.47
12/30/2021 5:00:00 PM 6.92 44.456 0.18 7.35 15.09 11.46
12/30/2021 5:15:00 PM 6.93 44.474 0.18 7.34 15.34 11.45
12/30/2021 5:30:00 PM 6.93 44.474 0.18 7.36 14.33 11.43
12/30/2021 5:45:00 PM 6.94 44.492 0.181 7.35 14.21 11.43
12/30/2021 6:00:00 PM 6.94 44.492 0.181 7.36 14.44 11.42
12/30/2021 6:15:00 PM 6.95 44.51 0.181 7.34 15.02 11.41
12/30/2021 6:30:00 PM 6.94 44.492 0.181 7.35 15.46 11.4
12/30/2021 6:45:00 PM 6.94 44.492 0.182 7.34 15.41 11.4
12/30/2021 7:00:00 PM 6.94 44.492 0.182 7.35 14.42 11.39
12/30/2021 7:15:00 PM 6.94 44.492 0.182 7.34 15.61 11.39
12/30/2021 7:30:00 PM 6.95 44.51 0.183 7.35 14.22 11.39
12/30/2021 7:45:00 PM 6.94 44.492 0.183 7.34 14.7 11.38
12/30/2021 8:00:00 PM 6.93 44.474 0.183 7.35 14.74 11.38
12/30/2021 8:15:00 PM 6.93 44.474 0.183 7.35 14.38 11.38
12/30/2021 8:30:00 PM 6.92 44.456 0.184 7.35 14.75 11.37
12/30/2021 8:45:00 PM 6.92 44.456 0.184 7.35 15.66 11.38
12/30/2021 9:00:00 PM 6.92 44.456 0.184 7.34 13.4 11.38
12/30/2021 9:15:00 PM 6.92 44.456 0.184 7.35 16.19 11.38
12/30/2021 9:30:00 PM 6.92 44.456 0.185 7.35 13.96 11.38
12/30/2021 9:45:00 PM 6.92 44.456 0.185 7.35 14.76 11.37
12/30/2021 10:00:00 PM 6.92 44.456 0.185 7.34 14.71 11.38
12/30/2021 10:15:00 PM 6.92 44.456 0.185 7.35 13.89 11.37
12/30/2021 10:30:00 PM 6.92 44.456 0.186 7.35 13.9 11.38
12/30/2021 10:45:00 PM 6.92 44.456 0.186 7.35 14.85 11.37
12/30/2021 11:00:00 PM 6.93 44.474 0.186 7.35 14.58 11.38
12/30/2021 11:15:00 PM 6.93 44.474 0.186 7.35 14.87 11.37
12/30/2021 11:30:00 PM 6.93 44.474 0.187 7.35 13.31 11.38
12/30/2021 11:45:00 PM 6.93 44.474 0.187 7.35 13.6 11.38
12/31/2021 12:00:00 AM 6.93 44.474 0.187 7.33 13.27 11.37
12/31/2021 12:15:00 AM 6.93 44.474 0.187 7.35 12.41 11.37
12/31/2021 12:30:00 AM 6.93 44.474 0.188 7.35 14.34 11.37
12/31/2021 12:45:00 AM 6.93 44.474 0.188 7.35 12.77 11.37
12/31/2021 1:00:00 AM 6.93 44.474 0.188 7.35 12.86 11.37
12/31/2021 1:15:00 AM 6.93 44.474 0.188 7.36 13.11 11.37
12/31/2021 1:30:00 AM 6.93 44.474 0.189 7.35 12.51 11.37
12/31/2021 1:45:00 AM 6.93 44.474 0.189 7.35 14.84 11.36
12/31/2021 2:00:00 AM 6.93 44.474 0.189 7.35 12.96 11.36
12/31/2021 2:15:00 AM 6.93 44.474 0.189 7.35 11.98 11.36
12/31/2021 2:30:00 AM 6.93 44.474 0.19 7.35 11.31 11.37
12/31/2021 2:45:00 AM 6.92 44.456 0.19 7.35 12.2 11.36
12/31/2021 3:00:00 AM 6.92 44.456 0.19 7.35 12.4 11.37
12/31/2021 3:15:00 AM 6.92 44.456 0.191 7.36 11.93 11.36
12/31/2021 3:30:00 AM 6.92 44.456 0.191 7.35 11.99 11.36
12/31/2021 3:45:00 AM 6.92 44.456 0.191 7.36 12.85 11.36
12/31/2021 4:00:00 AM 6.93 44.474 0.192 7.35 12.05 11.37
12/31/2021 4:15:00 AM 6.93 44.474 0.192 7.36 11.81 11.36
12/31/2021 4:30:00 AM 6.93 44.474 0.192 7.36 12.5 11.35
12/31/2021 4:45:00 AM 6.93 44.474 0.192 7.36 11.62 11.34
12/31/2021 5:00:00 AM 6.93 44.474 0.192 7.35 12.25 11.36
12/31/2021 5:15:00 AM 6.93 44.474 0.193 7.37 11.63 11.36
12/31/2021 5:30:00 AM 6.93 44.474 0.193 7.36 11.41 11.36
12/31/2021 5:45:00 AM 6.93 44.474 0.193 7.37 11.85 11.35
12/31/2021 6:00:00 AM 6.93 44.474 0.193 7.36 10.88 11.36
12/31/2021 6:15:00 AM 6.92 44.456 0.194 7.36 11.69 11.35
12/31/2021 6:30:00 AM 6.9 44.42 0.194 7.36 10.86 11.35
12/31/2021 6:45:00 AM 6.9 44.42 0.194 7.36 10.79 11.36
12/31/2021 7:00:00 AM 6.88 44.384 0.194 7.37 11.42 11.36
12/31/2021 7:15:00 AM 6.87 44.366 0.195 7.36 10.8 11.37
12/31/2021 7:30:00 AM 6.85 44.33 0.195 7.37 10.95 11.37
12/31/2021 7:45:00 AM 6.84 44.312 0.195 7.37 10.6 11.37
12/31/2021 8:00:00 AM 6.83 44.294 0.195 7.36 11.06 11.37
12/31/2021 8:15:00 AM 6.81 44.258 0.196 7.37 11.41 11.39
12/31/2021 8:30:00 AM 6.81 44.258 0.196 7.37 10.9 11.39
12/31/2021 8:45:00 AM 6.81 44.258 0.196 7.37 11.83 11.4
12/31/2021 9:00:00 AM 6.8 44.24 0.196 7.38 10.49 11.42
12/31/2021 9:15:00 AM 6.8 44.24 0.197 7.38 10.41 11.42
12/31/2021 9:30:00 AM 6.79 44.222 0.197 7.37 10.45 11.43
12/31/2021 9:45:00 AM 6.78 44.204 0.197 7.38 10.61 11.44
12/31/2021 10:00:00 AM 6.79 44.222 0.198 7.39 11.13 11.46
12/31/2021 10:15:00 AM 6.82 44.276 0.198 7.39 10.17 11.47
12/31/2021 10:30:00 AM 6.85 44.33 0.198 7.4 11.19 11.47
12/31/2021 10:45:00 AM 6.87 44.366 0.199 7.39 10.19 11.48
12/31/2021 11:00:00 AM 6.9 44.42 0.199 7.4 10.1 11.48
12/31/2021 11:15:00 AM 6.92 44.456 0.199 7.41 9.9 11.49
12/31/2021 11:30:00 AM 6.94 44.492 0.199 7.42 9.62 11.49
12/31/2021 11:45:00 AM 6.98 44.564 0.199 7.42 10.89 11.5
12/31/2021 12:00:00 PM 7.03 44.654 0.2 7.42 9.86 11.5
12/31/2021 12:15:00 PM 7.07 44.726 0.2 7.43 9.63 11.5
12/31/2021 12:30:00 PM 7.09 44.762 0.2 7.43 10.74 11.5
12/31/2021 12:45:00 PM 7.12 44.816 0.2 7.43 9.86 11.49
12/31/2021 1:00:00 PM 7.15 44.87 0.201 7.42 9.82 11.49
12/31/2021 1:15:00 PM 7.18 44.924 0.201 7.43 9.38 11.49
12/31/2021 1:30:00 PM 7.19 44.942 0.201 7.42 9.93 11.48
12/31/2021 1:45:00 PM 7.19 44.942 0.201 7.43 9.69 11.48
12/31/2021 2:00:00 PM 7.21 44.978 0.202 7.43 9.76 11.47
12/31/2021 2:15:00 PM 7.23 45.014 0.202 7.44 10.15 11.47
12/31/2021 2:30:00 PM 7.24 45.032 0.202 7.44 9.36 11.47
12/31/2021 2:45:00 PM 7.27 45.086 0.202 7.44 9.66 11.46
12/31/2021 3:00:00 PM 7.28 45.104 0.203 7.44 8.66 11.45
12/31/2021 3:15:00 PM 7.3 45.14 0.203 7.45 9.77 11.45
12/31/2021 3:30:00 PM 7.32 45.176 0.203 7.44 9.62 11.45
12/31/2021 3:45:00 PM 7.33 45.194 0.203 7.43 9.28 11.42
12/31/2021 4:00:00 PM 7.33 45.194 0.204 7.43 9.54 11.42
12/31/2021 4:15:00 PM 7.34 45.212 0.204 7.44 9.02 11.42
12/31/2021 4:30:00 PM 7.34 45.212 0.204 7.43 9.16 11.4
12/31/2021 4:45:00 PM 7.35 45.23 0.204 7.44 9.34 11.38
12/31/2021 5:00:00 PM 7.35 45.23 0.205 7.43 8.93 11.36
12/31/2021 5:15:00 PM 7.35 45.23 0.205 7.43 9.8 11.35
12/31/2021 5:30:00 PM 7.35 45.23 0.205 7.43 9.57 11.34
12/31/2021 5:45:00 PM 7.34 45.212 0.205 7.43 9.42 11.34
12/31/2021 6:00:00 PM 7.34 45.212 0.206 7.42 9.64 11.33
12/31/2021 6:15:00 PM 7.33 45.194 0.206 7.43 9.26 11.31
12/31/2021 6:30:00 PM 7.32 45.176 0.206 7.43 9.63 11.31
12/31/2021 6:45:00 PM 7.31 45.158 0.206 7.43 10.16 11.31
12/31/2021 7:00:00 PM 7.3 45.14 0.207 7.42 9.63 11.3
12/31/2021 7:15:00 PM 7.3 45.14 0.207 7.42 10.21 11.29
12/31/2021 7:30:00 PM 7.29 45.122 0.207 7.42 9.6 11.29
12/31/2021 7:45:00 PM 7.27 45.086 0.208 7.43 9.85 11.29
12/31/2021 8:00:00 PM 7.26 45.068 0.208 7.42 9.61 11.28
12/31/2021 8:15:00 PM 7.24 45.032 0.208 7.42 9.39 11.28
12/31/2021 8:30:00 PM 7.22 44.996 0.208 7.42 11.02 11.27
12/31/2021 8:45:00 PM 7.2 44.96 0.209 7.41 10.07 11.26
12/31/2021 9:00:00 PM 7.17 44.906 0.209 7.42 9.95 11.27
12/31/2021 9:15:00 PM 7.15 44.87 0.209 7.42 10.16 11.27
12/31/2021 9:30:00 PM 7.13 44.834 0.209 7.42 9.24 11.28
12/31/2021 9:45:00 PM 7.11 44.798 0.21 7.42 9.59 11.29
12/31/2021 10:00:00 PM 7.09 44.762 0.21 7.42 9.64 11.29
12/31/2021 10:15:00 PM 7.08 44.744 0.21 7.42 10.25 11.29
12/31/2021 10:30:00 PM 7.07 44.726 0.21 7.42 10.55 11.29
12/31/2021 10:45:00 PM 7.05 44.69 0.211 7.42 9.99 11.29
12/31/2021 11:00:00 PM 7.04 44.672 0.211 7.43 9.54 11.31
12/31/2021 11:15:00 PM 7.02 44.636 0.211 7.43 9.27 11.3
12/31/2021 11:30:00 PM 7.01 44.618 0.211 7.42 9.9 11.31
12/31/2021 11:45:00 PM 7 44.6 0.212 7.42 9.01 11.31
1/1/2022 12:00:00 AM 6.99 44.582 0.212 7.43 9.83 11.3
1/1/2022 12:15:00 AM 6.99 44.582 0.212 7.43 8.92 11.31
1/1/2022 12:30:00 AM 6.98 44.564 0.213 7.44 9.07 11.31
1/1/2022 12:45:00 AM 6.97 44.546 0.213 7.43 8.46 11.31
1/1/2022 1:00:00 AM 6.96 44.528 0.213 7.44 8.68 11.32
1/1/2022 1:15:00 AM 6.95 44.51 0.213 7.45 9.32 11.31
1/1/2022 1:30:00 AM 6.95 44.51 0.214 7.45 8.88 11.31
1/1/2022 1:45:00 AM 6.95 44.51 0.214 7.44 8.11 11.31
1/1/2022 2:00:00 AM 6.94 44.492 0.214 7.45 8.26 11.32
1/1/2022 2:15:00 AM 6.94 44.492 0.214 7.44 8.78 11.32
1/1/2022 2:30:00 AM 6.94 44.492 0.214 7.44 8.79 11.31
1/1/2022 2:45:00 AM 6.94 44.492 0.215 7.44 8.83 11.32
1/1/2022 3:00:00 AM 6.94 44.492 0.215 7.44 8.57 11.32
1/1/2022 3:15:00 AM 6.94 44.492 0.215 7.45 9.09 11.32
1/1/2022 3:30:00 AM 6.94 44.492 0.216 7.44 8.57 11.32
1/1/2022 3:45:00 AM 6.94 44.492 0.216 7.45 8.44 11.32
1/1/2022 4:00:00 AM 6.94 44.492 0.216 7.44 7.95 11.32
1/1/2022 4:15:00 AM 6.93 44.474 0.217 7.44 8.08 11.32
1/1/2022 4:30:00 AM 6.94 44.492 0.217 7.44 7.85 11.32
1/1/2022 4:45:00 AM 6.93 44.474 0.217 7.45 8.48 11.32
1/1/2022 5:00:00 AM 6.93 44.474 0.217 7.44 9.11 11.32
1/1/2022 5:15:00 AM 6.92 44.456 0.218 7.43 8.32 11.31
1/1/2022 5:30:00 AM 6.92 44.456 0.218 7.44 8.16 11.32
1/1/2022 5:45:00 AM 6.92 44.456 0.218 7.44 9.54 11.32
1/1/2022 6:00:00 AM 6.91 44.438 0.218 7.45 8.2 11.32
1/1/2022 6:15:00 AM 6.91 44.438 0.219 7.44 8.06 11.33
1/1/2022 6:30:00 AM 6.91 44.438 0.219 7.44 8.77 11.32
1/1/2022 6:45:00 AM 6.91 44.438 0.219 7.44 8.17 11.32
1/1/2022 7:00:00 AM 6.91 44.438 0.219 7.44 8.03 11.33
1/1/2022 7:15:00 AM 6.91 44.438 0.22 7.45 7.95 11.32
1/1/2022 7:30:00 AM 6.91 44.438 0.22 7.44 8.02 11.32
1/1/2022 7:45:00 AM 6.92 44.456 0.22 7.45 7.72 11.32
1/1/2022 8:00:00 AM 6.92 44.456 0.221 7.43 8.32 11.33
1/1/2022 8:15:00 AM 6.92 44.456 0.221 7.42 8.94 11.33
1/1/2022 8:30:00 AM 6.92 44.456 0.221 7.43 7.91 11.33
1/1/2022 8:45:00 AM 6.93 44.474 0.221 7.42 7.98 11.34
1/1/2022 9:00:00 AM 6.93 44.474 0.221 7.42 8.27 11.34
1/1/2022 9:15:00 AM 6.94 44.492 0.222 7.43 10.43 11.34
1/1/2022 9:30:00 AM 6.95 44.51 0.222 7.43 7.33 11.35
1/1/2022 9:45:00 AM 6.96 44.528 0.222 7.43 7.89 11.36
1/1/2022 10:00:00 AM 6.98 44.564 0.223 7.45 7.4 11.37
1/1/2022 10:15:00 AM 6.99 44.582 0.223 7.45 7.22 11.38
1/1/2022 10:30:00 AM 7.01 44.618 0.223 7.45 7.73 11.38
1/1/2022 10:45:00 AM 7.03 44.654 0.223 7.45 7.23 11.38
1/1/2022 11:00:00 AM 7.05 44.69 0.224 7.44 7.46 11.4
1/1/2022 11:15:00 AM 7.07 44.726 0.224 7.45 7.37 11.39
1/1/2022 11:30:00 AM 7.09 44.762 0.224 7.45 7.39 11.41
1/1/2022 11:45:00 AM 7.12 44.816 0.224 7.45 7.09 11.41
1/1/2022 12:00:00 PM 7.15 44.87 0.224 7.46 8.31 11.41
1/1/2022 12:15:00 PM 7.19 44.942 0.225 7.46 7.16 11.41
1/1/2022 12:30:00 PM 7.22 44.996 0.225 7.47 7.03 11.41
1/1/2022 12:45:00 PM 7.25 45.05 0.225 7.47 7.22 11.4
1/1/2022 1:00:00 PM 7.29 45.122 0.226 7.48 7.21 11.4
1/1/2022 1:15:00 PM 7.32 45.176 0.226 7.48 6.95 11.39
1/1/2022 1:30:00 PM 7.35 45.23 0.226 7.46 6.74 11.39
1/1/2022 1:45:00 PM 7.38 45.284 0.226 7.47 7.04 11.38
1/1/2022 2:00:00 PM 7.41 45.338 0.227 7.48 6.77 11.37
1/1/2022 2:15:00 PM 7.44 45.392 0.227 7.48 7.09 11.36
1/1/2022 2:30:00 PM 7.46 45.428 0.227 7.47 6.88 11.36
1/1/2022 2:45:00 PM 7.48 45.464 0.227 7.48 7.16 11.34
1/1/2022 3:00:00 PM 7.49 45.482 0.228 7.48 7.09 11.32
1/1/2022 3:15:00 PM 7.51 45.518 0.228 7.48 7.17 11.32
1/1/2022 3:30:00 PM 7.52 45.536 0.228 7.47 7.56 11.3
1/1/2022 3:45:00 PM 7.53 45.554 0.228 7.48 6.88 11.29
1/1/2022 4:00:00 PM 7.54 45.572 0.228 7.47 6.64 11.27
1/1/2022 4:15:00 PM 7.55 45.59 0.228 7.47 7.01 11.27
1/1/2022 4:30:00 PM 7.56 45.608 0.229 7.47 7.15 11.25
1/1/2022 4:45:00 PM 7.57 45.626 0.229 7.47 6.99 11.24
1/1/2022 5:00:00 PM 7.57 45.626 0.229 7.47 6.83 11.23
1/1/2022 5:15:00 PM 7.58 45.644 0.229 7.47 6.74 11.2
1/1/2022 5:30:00 PM 7.59 45.662 0.229 7.47 7.01 11.2
1/1/2022 5:45:00 PM 7.6 45.68 0.229 7.47 7.38 11.19
1/1/2022 6:00:00 PM 7.61 45.698 0.229 7.47 7.08 11.18
1/1/2022 6:15:00 PM 7.61 45.698 0.229 7.47 7.3 11.17
1/1/2022 6:30:00 PM 7.62 45.716 0.229 7.46 7.79 11.15
1/1/2022 6:45:00 PM 7.63 45.734 0.229 7.46 6.84 11.14
1/1/2022 7:00:00 PM 7.63 45.734 0.229 7.45 7.72 11.13
1/1/2022 7:15:00 PM 7.64 45.752 0.229 7.45 7.34 11.14
1/1/2022 7:30:00 PM 7.64 45.752 0.229 7.44 8.31 11.12
1/1/2022 7:45:00 PM 7.64 45.752 0.23 7.44 7.93 11.11
1/1/2022 8:00:00 PM 7.65 45.77 0.23 7.44 7.86 11.11
1/1/2022 8:15:00 PM 7.65 45.77 0.23 7.42 8.08 11.1
1/1/2022 8:30:00 PM 7.66 45.788 0.23 7.44 8 11.1
1/1/2022 8:45:00 PM 7.67 45.806 0.23 7.44 8.54 11.11
1/1/2022 9:00:00 PM 7.67 45.806 0.23 7.43 8.69 11.1
1/1/2022 9:15:00 PM 7.68 45.824 0.23 7.44 8.27 11.09
1/1/2022 9:30:00 PM 7.68 45.824 0.231 7.44 8.54 11.08
1/1/2022 9:45:00 PM 7.69 45.842 0.231 7.44 9.01 11.07
1/1/2022 10:00:00 PM 7.69 45.842 0.232 7.44 8.91 11.08
1/1/2022 10:15:00 PM 7.7 45.86 0.232 7.43 8.29 11.07
1/1/2022 10:30:00 PM 7.7 45.86 0.232 7.44 8.37 11.07
1/1/2022 10:45:00 PM 7.7 45.86 0.232 7.45 8.42 11.07
1/1/2022 11:00:00 PM 7.71 45.878 0.233 7.44 8.05 11.06
1/1/2022 11:15:00 PM 7.71 45.878 0.233 7.46 9 11.06
1/1/2022 11:30:00 PM 7.71 45.878 0.233 7.45 8 11.06
1/1/2022 11:45:00 PM 7.72 45.896 0.233 7.46 8.17 11.07
1/2/2022 12:00:00 AM 7.72 45.896 0.233 7.46 9.08 11.06
1/2/2022 12:15:00 AM 7.72 45.896 0.233 7.47 8.39 11.06
1/2/2022 12:30:00 AM 7.73 45.914 0.233 7.46 8.54 11.06
1/2/2022 12:45:00 AM 7.73 45.914 0.234 7.47 8.98 11.07
1/2/2022 1:00:00 AM 7.73 45.914 0.234 7.46 9.17 11.06
1/2/2022 1:15:00 AM 7.73 45.914 0.234 7.46 8.61 11.06
1/2/2022 1:30:00 AM 7.74 45.932 0.234 7.46 8.93 11.05
1/2/2022 1:45:00 AM 7.74 45.932 0.234 7.46 9.28 11.05
1/2/2022 2:00:00 AM 7.74 45.932 0.234 7.46 9.57 11.05
1/2/2022 2:15:00 AM 7.75 45.95 0.234 7.44 9 11.04
1/2/2022 2:30:00 AM 7.75 45.95 0.234 7.46 8.84 11.05
1/2/2022 2:45:00 AM 7.76 45.968 0.234 7.46 8.51 11.04
1/2/2022 3:00:00 AM 7.76 45.968 0.234 7.46 8.91 11.04
1/2/2022 3:15:00 AM 7.77 45.986 0.234 7.47 8.5 11.04
1/2/2022 3:30:00 AM 7.77 45.986 0.234 7.45 9.27 11.03
1/2/2022 3:45:00 AM 7.78 46.004 0.234 7.47 9.26 11.04
1/2/2022 4:00:00 AM 7.78 46.004 0.234 7.46 9.21 11.03
1/2/2022 4:15:00 AM 7.79 46.022 0.235 7.47 9.13 11.03
1/2/2022 4:30:00 AM 7.8 46.04 0.235 7.46 9.78 11.02
1/2/2022 4:45:00 AM 7.8 46.04 0.235 7.48 9.4 11.03
1/2/2022 5:00:00 AM 7.81 46.058 0.235 7.47 9.51 11.02
1/2/2022 5:15:00 AM 7.82 46.076 0.235 7.48 8.99 11.02
1/2/2022 5:30:00 AM 7.82 46.076 0.235 7.48 10.23 11.02
1/2/2022 5:45:00 AM 7.82 46.076 0.235 7.46 9.97 11.02
1/2/2022 6:00:00 AM 7.82 46.076 0.236 7.45 10.22 11.02
1/2/2022 6:15:00 AM 7.83 46.094 0.236 7.47 10.27 11.01
1/2/2022 6:30:00 AM 7.83 46.094 0.236 7.48 10.05 11.02
1/2/2022 6:45:00 AM 7.83 46.094 0.237 7.47 10.73 11.02
1/2/2022 7:00:00 AM 7.83 46.094 0.237 7.48 9.56 11.01
1/2/2022 7:15:00 AM 7.83 46.094 0.237 7.49 9.69 11.01
1/2/2022 7:30:00 AM 7.83 46.094 0.238 7.49 9.9 11.02
1/2/2022 7:45:00 AM 7.83 46.094 0.238 7.5 9.99 11.02
1/2/2022 8:00:00 AM 7.83 46.094 0.238 7.5 9.89 11.01
1/2/2022 8:15:00 AM 7.84 46.112 0.239 7.49 9.49 11.03
1/2/2022 8:30:00 AM 7.84 46.112 0.239 7.5 9.61 11.02
1/2/2022 8:45:00 AM 7.85 46.13 0.239 7.5 9.38 11.04
1/2/2022 9:00:00 AM 7.85 46.13 0.239 7.5 8.99 11.03
1/2/2022 9:15:00 AM 7.86 46.148 0.24 7.51 10.07 11.05
1/2/2022 9:30:00 AM 7.87 46.166 0.24 7.51 8.85 11.06
1/2/2022 9:45:00 AM 7.87 46.166 0.24 7.51 8.98 11.07
1/2/2022 10:00:00 AM 7.87 46.166 0.24 7.52 9.1 11.07
1/2/2022 10:15:00 AM 7.88 46.184 0.239 7.52 8.83 11.08
1/2/2022 10:30:00 AM 7.88 46.184 0.239 7.52 8.86 11.09
1/2/2022 10:45:00 AM 7.89 46.202 0.239 7.52 8.75 11.09
1/2/2022 11:00:00 AM 7.89 46.202 0.239 7.52 8.93 11.11
1/2/2022 11:15:00 AM 7.9 46.22 0.239 7.52 8.77 11.12
1/2/2022 11:30:00 AM 7.89 46.202 0.238 7.53 8.59 11.12
1/2/2022 11:45:00 AM 7.89 46.202 0.238 7.53 9.62 11.14
1/2/2022 12:00:00 PM 7.88 46.184 0.238 7.52 8.78 11.13
1/2/2022 12:15:00 PM 7.88 46.184 0.238 7.53 9.11 11.14
1/2/2022 12:30:00 PM 7.88 46.184 0.237 7.53 9.32 11.15
1/2/2022 12:45:00 PM 7.89 46.202 0.237 7.53 8.72 11.16
1/2/2022 1:00:00 PM 7.89 46.202 0.237 7.54 9.54 11.17
1/2/2022 1:15:00 PM 7.88 46.184 0.236 7.54 8.5 11.17
1/2/2022 1:30:00 PM 7.87 46.166 0.236 7.54 8.97 11.17
1/2/2022 1:45:00 PM 7.85 46.13 0.236 7.53 9.04 11.18
1/2/2022 2:00:00 PM 7.83 46.094 0.235 7.53 9.3 11.19
1/2/2022 2:15:00 PM 7.81 46.058 0.235 7.53 8.79 11.19
1/2/2022 2:30:00 PM 7.79 46.022 0.235 7.53 8.31 11.18
1/2/2022 2:45:00 PM 7.77 45.986 0.235 7.52 8.66 11.18
1/2/2022 3:00:00 PM 7.76 45.968 0.234 7.53 8.96 11.19
1/2/2022 3:15:00 PM 7.74 45.932 0.234 7.53 8.78 11.2
1/2/2022 3:30:00 PM 7.71 45.878 0.234 7.53 8.76 11.2
1/2/2022 3:45:00 PM 7.67 45.806 0.234 7.53 9.08 11.21
1/2/2022 4:00:00 PM 7.63 45.734 0.234 7.54 8.89 11.21
1/2/2022 4:15:00 PM 7.6 45.68 0.234 7.53 8.29 11.21
1/2/2022 4:30:00 PM 7.56 45.608 0.234 7.53 8.69 11.21
1/2/2022 4:45:00 PM 7.52 45.536 0.234 7.53 8.4 11.22
1/2/2022 5:00:00 PM 7.48 45.464 0.234 7.53 7.96 11.22
1/2/2022 5:15:00 PM 7.44 45.392 0.234 7.53 8.35 11.22
1/2/2022 5:30:00 PM 7.39 45.302 0.234 7.52 8.63 11.23
1/2/2022 5:45:00 PM 7.35 45.23 0.234 7.53 9 11.25
1/2/2022 6:00:00 PM 7.31 45.158 0.234 7.52 9.62 11.26
1/2/2022 6:15:00 PM 7.26 45.068 0.234 7.52 8.19 11.26
1/2/2022 6:30:00 PM 7.22 44.996 0.235 7.52 8.87 11.27
1/2/2022 6:45:00 PM 7.17 44.906 0.235 7.52 8.79 11.29
1/2/2022 7:00:00 PM 7.13 44.834 0.235 7.52 9.16 11.29
1/2/2022 7:15:00 PM 7.08 44.744 0.236 7.52 9.14 11.31
1/2/2022 7:30:00 PM 7.04 44.672 0.236 7.52 8.76 11.32
1/2/2022 7:45:00 PM 7 44.6 0.236 7.52 8.65 11.32
1/2/2022 8:00:00 PM 6.96 44.528 0.236 7.52 8.48 11.33
1/2/2022 8:15:00 PM 6.92 44.456 0.237 7.52 8.63 11.34
1/2/2022 8:30:00 PM 6.87 44.366 0.237 7.53 8.43 11.36
1/2/2022 8:45:00 PM 6.83 44.294 0.237 7.52 8.88 11.36
1/2/2022 9:00:00 PM 6.79 44.222 0.238 7.52 8.8 11.38
1/2/2022 9:15:00 PM 6.75 44.15 0.238 7.53 8.88 11.4
1/2/2022 9:30:00 PM 6.71 44.078 0.238 7.53 9.19 11.41
1/2/2022 9:45:00 PM 6.66 43.988 0.238 7.53 8.29 11.43
1/2/2022 10:00:00 PM 6.62 43.916 0.239 7.53 9 11.44
1/2/2022 10:15:00 PM 6.57 43.826 0.239 7.52 8.23 11.46
1/2/2022 10:30:00 PM 6.53 43.754 0.239 7.53 8.71 11.46
1/2/2022 10:45:00 PM 6.49 43.682 0.239 7.53 8.21 11.49
1/2/2022 11:00:00 PM 6.44 43.592 0.24 7.53 8.24 11.51
1/2/2022 11:15:00 PM 6.39 43.502 0.24 7.52 8.53 11.53
1/2/2022 11:30:00 PM 6.34 43.412 0.24 7.53 8.55 11.54
1/2/2022 11:45:00 PM 6.29 43.322 0.241 7.53 8.14 11.55
1/3/2022 12:00:00 AM 6.24 43.232 0.241 7.53 8.08 11.57
1/3/2022 12:15:00 AM 6.2 43.16 0.241 7.53 7.94 11.58
1/3/2022 12:30:00 AM 6.15 43.07 0.242 7.53 7.81 11.6
1/3/2022 12:45:00 AM 6.1 42.98 0.242 7.53 7.97 11.61
1/3/2022 1:00:00 AM 6.06 42.908 0.242 7.53 7.88 11.62
1/3/2022 1:15:00 AM 6.01 42.818 0.242 7.53 7.84 11.63
1/3/2022 1:30:00 AM 5.95 42.71 0.242 7.54 7.45 11.66
1/3/2022 1:45:00 AM 5.9 42.62 0.243 7.53 7.91 11.67
1/3/2022 2:00:00 AM 5.86 42.548 0.243 7.54 8.05 11.68
1/3/2022 2:15:00 AM 5.82 42.476 0.243 7.53 7.33 11.69
1/3/2022 2:30:00 AM 5.77 42.386 0.243 7.53 7.29 11.7
1/3/2022 2:45:00 AM 5.72 42.296 0.243 7.53 7.46 11.72
1/3/2022 3:00:00 AM 5.68 42.224 0.244 7.53 8.16 11.72
1/3/2022 3:15:00 AM 5.61 42.098 0.244 7.54 7.36 11.75
1/3/2022 3:30:00 AM 5.56 42.008 0.244 7.53 7.13 11.77
1/3/2022 3:45:00 AM 5.52 41.936 0.244 7.54 6.99 11.78
1/3/2022 4:00:00 AM 5.47 41.846 0.244 7.53 6.91 11.79
1/3/2022 4:15:00 AM 5.42 41.756 0.244 7.54 6.69 11.82
1/3/2022 4:30:00 AM 5.37 41.666 0.245 7.53 7.05 11.84
1/3/2022 4:45:00 AM 5.32 41.576 0.245 7.48 8.05 11.85
1/3/2022 5:00:00 AM 5.27 41.486 0.245 7.51 7.05 11.87
1/3/2022 5:15:00 AM 5.22 41.396 0.245 7.52 7.2 11.88
1/3/2022 5:30:00 AM 5.17 41.306 0.245 7.53 6.37 11.89
1/3/2022 5:45:00 AM 5.13 41.234 0.245 7.53 6.76 11.91
1/3/2022 6:00:00 AM 5.09 41.162 0.246 7.54 6.9 11.93
1/3/2022 6:15:00 AM 5.05 41.09 0.246 7.54 6.72 11.94
1/3/2022 6:30:00 AM 4.99 40.982 0.246 7.53 6.75 11.95
1/3/2022 6:45:00 AM 4.94 40.892 0.246 7.53 6.66 11.97
1/3/2022 7:00:00 AM 4.9 40.82 0.246 7.54 6.88 11.98
1/3/2022 7:15:00 AM 4.87 40.766 0.246 7.53 6.29 11.99
1/3/2022 7:30:00 AM 4.82 40.676 0.247 7.53 7.74 12.01
1/3/2022 7:45:00 AM 4.77 40.586 0.247 7.54 6.59 12.03
1/3/2022 8:00:00 AM 4.72 40.496 0.247 7.54 7.17 12.05
1/3/2022 8:15:00 AM 4.67 40.406 0.247 7.54 6.5 12.08
1/3/2022 8:30:00 AM 4.64 40.352 0.247 7.54 6.25 12.08
1/3/2022 8:45:00 AM 4.6 40.28 0.248 7.54 6.48 12.1
1/3/2022 9:00:00 AM 4.56 40.208 0.248 7.54 6.32 12.13
1/3/2022 9:15:00 AM 4.53 40.154 0.248 7.54 6.34 12.15
1/3/2022 9:30:00 AM 4.49 40.082 0.248 7.54 6.24 12.18
1/3/2022 9:45:00 AM 4.46 40.028 0.248 7.55 6.15 12.21
1/3/2022 10:00:00 AM 4.44 39.992 0.249 7.55 5.97 12.23
1/3/2022 10:15:00 AM 4.42 39.956 0.249 7.56 6.22 12.26
1/3/2022 10:30:00 AM 4.39 39.902 0.249 7.55 6.91 12.28
1/3/2022 10:45:00 AM 4.38 39.884 0.249 7.57 6.12 12.31
1/3/2022 11:00:00 AM 4.35 39.83 0.249 7.56 6.22 12.33
1/3/2022 11:15:00 AM 4.31 39.758 0.25 7.56 6.4 12.34
1/3/2022 11:30:00 AM 4.29 39.722 0.25 7.57 5.55 12.37
1/3/2022 11:45:00 AM 4.27 39.686 0.25 7.57 5.97 12.38
1/3/2022 12:00:00 PM 4.25 39.65 0.25 7.57 5.62 12.4
1/3/2022 12:15:00 PM 4.22 39.596 0.251 7.57 6.44 12.42
1/3/2022 12:30:00 PM 4.21 39.578 0.251 7.58 5.64 12.43
1/3/2022 12:45:00 PM 4.17 39.506 0.251 7.58 5.93 12.44
1/3/2022 1:00:00 PM 4.17 39.506 0.251 7.58 5.87 12.44
1/3/2022 1:15:00 PM 4.15 39.47 0.252 7.58 5.55 12.46
1/3/2022 1:30:00 PM 4.15 39.47 0.252 7.58 5.65 12.47
1/3/2022 1:45:00 PM 4.16 39.488 0.252 7.58 5.72 12.47
1/3/2022 2:00:00 PM 4.18 39.524 0.252 7.59 5.59 12.47
1/3/2022 2:15:00 PM 4.19 39.542 0.253 7.59 5.49 12.48
1/3/2022 2:30:00 PM 4.19 39.542 0.253 7.59 5.35 12.48
1/3/2022 2:45:00 PM 4.18 39.524 0.253 7.59 5.55 12.48
1/3/2022 3:00:00 PM 4.16 39.488 0.253 7.59 5.8 12.5
1/3/2022 3:15:00 PM 4.14 39.452 0.254 7.6 6.71 12.5
1/3/2022 3:30:00 PM 4.09 39.362 0.254 7.6 5.53 12.51
1/3/2022 3:45:00 PM 4.04 39.272 0.254 7.59 5.61 12.51
1/3/2022 4:00:00 PM 3.98 39.164 0.254 7.59 5.55 12.51
1/3/2022 4:15:00 PM 3.91 39.038 0.254 7.59 5.85 12.53
1/3/2022 4:30:00 PM 3.85 38.93 0.255 7.59 5.28 12.52
1/3/2022 4:45:00 PM 3.78 38.804 0.255 7.58 5.35 12.54
1/3/2022 5:00:00 PM 3.73 38.714 0.255 7.58 5.58 12.53
1/3/2022 5:15:00 PM 3.67 38.606 0.255 7.58 5.21 12.54
1/3/2022 5:30:00 PM 3.61 38.498 0.256 7.58 5.5 12.54
1/3/2022 5:45:00 PM 3.56 38.408 0.256 7.58 5.3 12.55
1/3/2022 6:00:00 PM 3.5 38.3 0.256 7.58 6 12.56
1/3/2022 6:15:00 PM 3.45 38.21 0.257 7.58 5.88 12.57
1/3/2022 6:30:00 PM 3.4 38.12 0.257 7.58 5.35 12.58
1/3/2022 6:45:00 PM 3.37 38.066 0.257 7.57 5.44 12.58
1/3/2022 7:00:00 PM 3.32 37.976 0.257 7.58 5.93 12.6
1/3/2022 7:15:00 PM 3.27 37.886 0.258 7.57 5.64 12.6
1/3/2022 7:30:00 PM 3.23 37.814 0.258 7.57 5.46 12.62
1/3/2022 7:45:00 PM 3.2 37.76 0.258 7.57 5.62 12.63
1/3/2022 8:00:00 PM 3.15 37.67 0.258 7.57 5.53 12.64
1/3/2022 8:15:00 PM 3.11 37.598 0.259 7.57 5.49 12.66
1/3/2022 8:30:00 PM 3.05 37.49 0.259 7.58 5.47 12.68
1/3/2022 8:45:00 PM 3 37.4 0.259 7.57 5.76 12.7
1/3/2022 9:00:00 PM 2.95 37.31 0.259 7.57 6.62 12.71
1/3/2022 9:15:00 PM 2.9 37.22 0.26 7.57 5.58 12.73
1/3/2022 9:30:00 PM 2.85 37.13 0.26 7.57 5.44 12.75
1/3/2022 9:45:00 PM 2.79 37.022 0.26 7.57 5.73 12.77
1/3/2022 10:00:00 PM 2.74 36.932 0.26 7.57 5.46 12.79
1/3/2022 10:15:00 PM 2.7 36.86 0.261 7.57 5.7 12.8
1/3/2022 10:30:00 PM 2.65 36.77 0.261 7.57 5.18 12.81
1/3/2022 10:45:00 PM 2.61 36.698 0.261 7.57 5.41 12.83
1/3/2022 11:00:00 PM 2.58 36.644 0.261 7.57 5.42 12.84
1/3/2022 11:15:00 PM 2.55 36.59 0.261 7.57 5.34 12.87
1/3/2022 11:30:00 PM 2.52 36.536 0.262 7.57 5.6 12.88
1/3/2022 11:45:00 PM 2.5 36.5 0.262 7.57 4.97 12.88
1/4/2022 12:00:00 AM 2.47 36.446 0.262 7.57 5.72 12.9
1/4/2022 12:15:00 AM 2.44 36.392 0.262 7.57 5.18 12.92
1/4/2022 12:30:00 AM 2.41 36.338 0.263 7.57 5.62 12.93
1/4/2022 12:45:00 AM 2.38 36.284 0.263 7.58 5.46 12.95
1/4/2022 1:00:00 AM 2.34 36.212 0.263 7.57 5.16 12.97
1/4/2022 1:15:00 AM 2.3 36.14 0.263 7.57 5.46 12.98
1/4/2022 1:30:00 AM 2.26 36.068 0.263 7.57 5.14 13
1/4/2022 1:45:00 AM 2.22 35.996 0.264 7.58 5.57 13.01
1/4/2022 2:00:00 AM 2.18 35.924 0.264 7.58 5.18 13.03
1/4/2022 2:15:00 AM 2.13 35.834 0.264 7.57 5.14 13.05
1/4/2022 2:30:00 AM 2.09 35.762 0.264 7.58 5.06 13.07
1/4/2022 2:45:00 AM 2.05 35.69 0.265 7.57 4.74 13.08
1/4/2022 3:00:00 AM 2.01 35.618 0.265 7.58 5.2 13.09
1/4/2022 3:15:00 AM 1.96 35.528 0.265 7.58 5.28 13.11
1/4/2022 3:30:00 AM 1.91 35.438 0.265 7.58 5.3 13.13
1/4/2022 3:45:00 AM 1.86 35.348 0.266 7.58 4.89 13.14
1/4/2022 4:00:00 AM 1.83 35.294 0.266 7.58 4.84 13.16
1/4/2022 4:15:00 AM 1.78 35.204 0.266 7.58 5.21 13.16
1/4/2022 4:30:00 AM 1.74 35.132 0.266 7.58 5 13.18
1/4/2022 4:45:00 AM 1.7 35.06 0.266 7.59 4.74 13.2
1/4/2022 5:00:00 AM 1.66 34.988 0.267 7.57 5.18 13.21
1/4/2022 5:15:00 AM 1.62 34.916 0.267 7.58 5.73 13.22
1/4/2022 5:30:00 AM 1.58 34.844 0.267 7.58 4.91 13.23
1/4/2022 5:45:00 AM 1.54 34.772 0.268 7.59 4.77 13.25
1/4/2022 6:00:00 AM 1.51 34.718 0.268 7.57 4.91 13.25
1/4/2022 6:15:00 AM 1.46 34.628 0.268 7.59 4.75 13.28
1/4/2022 6:30:00 AM 1.43 34.574 0.268 7.58 5.15 13.29
1/4/2022 6:45:00 AM 1.39 34.502 0.269 7.58 4.77 13.31
1/4/2022 7:00:00 AM 1.36 34.448 0.269 7.57 4.93 13.31
1/4/2022 7:15:00 AM 1.32 34.376 0.269 7.58 5 13.33
1/4/2022 7:30:00 AM 1.28 34.304 0.269 7.58 4.67 13.35
1/4/2022 7:45:00 AM 1.24 34.232 0.27 7.58 5.03 13.36
1/4/2022 8:00:00 AM 1.21 34.178 0.27 7.58 4.68 13.38
1/4/2022 8:15:00 AM 1.19 34.142 0.27 7.57 4.96 13.4
1/4/2022 8:30:00 AM 1.16 34.088 0.27 7.58 4.91 13.42
1/4/2022 8:45:00 AM 1.14 34.052 0.271 7.58 4.88 13.43
1/4/2022 9:00:00 AM 1.12 34.016 0.271 7.59 4.82 13.46
1/4/2022 9:15:00 AM 1.11 33.998 0.271 7.59 4.68 13.47
1/4/2022 9:30:00 AM 1.1 33.98 0.271 7.59 4.94 13.48
1/4/2022 9:45:00 AM 1.11 33.998 0.272 7.59 4.76 13.5
1/4/2022 10:00:00 AM 1.11 33.998 0.272 7.6 5.07 13.52
1/4/2022 10:15:00 AM 1.12 34.016 0.272 7.6 4.86 13.53
1/4/2022 10:30:00 AM 1.14 34.052 0.272 7.6 4.53 13.55
1/4/2022 10:45:00 AM 1.16 34.088 0.272 7.61 4.47 13.56
1/4/2022 11:00:00 AM 1.18 34.124 0.272 7.61 4.48 13.56
1/4/2022 11:15:00 AM 1.21 34.178 0.273 7.61 4.76 13.56
1/4/2022 11:30:00 AM 1.26 34.268 0.273 7.6 4.54 13.56
1/4/2022 11:45:00 AM 1.3 34.34 0.273 7.62 4.93 13.57
1/4/2022 12:00:00 PM 1.35 34.43 0.273 7.62 4.64 13.57
1/4/2022 12:15:00 PM 1.4 34.52 0.273 7.62 4.66 13.55
1/4/2022 12:30:00 PM 1.45 34.61 0.273 7.61 4.48 13.55
1/4/2022 12:45:00 PM 1.51 34.718 0.273 7.62 4.7 13.53
1/4/2022 1:00:00 PM 1.58 34.844 0.273 7.61 4.58 13.52
1/4/2022 1:15:00 PM 1.64 34.952 0.273 7.63 4.34 13.5
1/4/2022 1:30:00 PM 1.71 35.078 0.273 7.63 4.31 13.48
1/4/2022 1:45:00 PM 1.79 35.222 0.273 7.62 4.41 13.45
1/4/2022 2:00:00 PM 1.85 35.33 0.274 7.63 4.31 13.44
1/4/2022 2:15:00 PM 1.91 35.438 0.274 7.62 4.51 13.43
1/4/2022 2:30:00 PM 1.97 35.546 0.274 7.63 4.98 13.42
1/4/2022 2:45:00 PM 2.02 35.636 0.274 7.63 4.41 13.39
1/4/2022 3:00:00 PM 2.05 35.69 0.274 7.63 4.36 13.39
1/4/2022 3:15:00 PM 2.07 35.726 0.274 7.63 4.74 13.38
1/4/2022 3:30:00 PM 2.09 35.762 0.274 7.63 4.31 13.36
1/4/2022 3:45:00 PM 2.08 35.744 0.275 7.63 4.41 13.35
1/4/2022 4:00:00 PM 2.06 35.708 0.275 7.63 4.74 13.33
1/4/2022 4:15:00 PM 2.05 35.69 0.275 7.63 4.33 13.33
1/4/2022 4:30:00 PM 2.02 35.636 0.275 7.64 4.33 13.32
1/4/2022 4:45:00 PM 2.01 35.618 0.275 7.62 4.28 13.29
1/4/2022 5:00:00 PM 1.99 35.582 0.276 7.63 4.63 13.29
1/4/2022 5:15:00 PM 1.97 35.546 0.276 7.62 4.17 13.27
1/4/2022 5:30:00 PM 1.95 35.51 0.276 7.63 4.39 13.26
1/4/2022 5:45:00 PM 1.93 35.474 0.276 7.61 4.49 13.24
1/4/2022 6:00:00 PM 1.91 35.438 0.277 7.62 4.35 13.24
1/4/2022 6:15:00 PM 1.89 35.402 0.277 7.63 4.27 13.23
1/4/2022 6:30:00 PM 1.88 35.384 0.277 7.62 4.28 13.22
1/4/2022 6:45:00 PM 1.87 35.366 0.277 7.62 4.25 13.21
1/4/2022 7:00:00 PM 1.85 35.33 0.277 7.62 4.22 13.2
1/4/2022 7:15:00 PM 1.84 35.312 0.278 7.62 4.22 13.19
1/4/2022 7:30:00 PM 1.83 35.294 0.278 7.62 4.25 13.19
1/4/2022 7:45:00 PM 1.82 35.276 0.278 7.62 4.13 13.18
1/4/2022 8:00:00 PM 1.81 35.258 0.278 7.61 4.38 13.17
1/4/2022 8:15:00 PM 1.8 35.24 0.278 7.61 4.39 13.17
1/4/2022 8:30:00 PM 1.78 35.204 0.279 7.62 4.26 13.17
1/4/2022 8:45:00 PM 1.77 35.186 0.279 7.61 4.27 13.16
1/4/2022 9:00:00 PM 1.75 35.15 0.279 7.61 4.46 13.16
1/4/2022 9:15:00 PM 1.73 35.114 0.279 7.62 4.25 13.17
1/4/2022 9:30:00 PM 1.72 35.096 0.279 7.6 4.28 13.16
1/4/2022 9:45:00 PM 1.69 35.042 0.28 7.62 4.49 13.18
1/4/2022 10:00:00 PM 1.67 35.006 0.28 7.61 4.53 13.17
1/4/2022 10:15:00 PM 1.63 34.934 0.28 7.62 4.14 13.19
1/4/2022 10:30:00 PM 1.62 34.916 0.28 7.62 4.06 13.18
1/4/2022 10:45:00 PM 1.59 34.862 0.28 7.62 4.29 13.19
1/4/2022 11:00:00 PM 1.58 34.844 0.28 7.6 4.03 13.19
1/4/2022 11:15:00 PM 1.56 34.808 0.281 7.62 4.21 13.19
1/4/2022 11:30:00 PM 1.55 34.79 0.281 7.62 4.08 13.19
1/4/2022 11:45:00 PM 1.53 34.754 0.281 7.61 4.19 13.2
1/5/2022 12:00:00 AM 1.52 34.736 0.281 7.62 4.27 13.2
1/5/2022 12:15:00 AM 1.51 34.718 0.281 7.62 4.05 13.2
1/5/2022 12:30:00 AM 1.49 34.682 0.281 7.62 4.32 13.2
1/5/2022 12:45:00 AM 1.48 34.664 0.282 7.61 4.21 13.2
1/5/2022 1:00:00 AM 1.46 34.628 0.282 7.61 4.25 13.21
1/5/2022 1:15:00 AM 1.45 34.61 0.282 7.62 4.08 13.22
1/5/2022 1:30:00 AM 1.43 34.574 0.282 7.62 4.41 13.22
1/5/2022 1:45:00 AM 1.41 34.538 0.282 7.62 4.56 13.24
1/5/2022 2:00:00 AM 1.39 34.502 0.283 7.62 4.39 13.24
1/5/2022 2:15:00 AM 1.36 34.448 0.283 7.61 4.32 13.25
1/5/2022 2:30:00 AM 1.35 34.43 0.283 7.62 4.12 13.25
1/5/2022 2:45:00 AM 1.33 34.394 0.283 7.61 4.05 13.26
1/5/2022 3:00:00 AM 1.31 34.358 0.283 7.62 3.98 13.27
1/5/2022 3:15:00 AM 1.29 34.322 0.284 7.62 4.21 13.27
1/5/2022 3:30:00 AM 1.27 34.286 0.284 7.62 4.2 13.28
1/5/2022 3:45:00 AM 1.26 34.268 0.284 7.61 4.26 13.28
1/5/2022 4:00:00 AM 1.24 34.232 0.284 7.62 4.04 13.28
1/5/2022 4:15:00 AM 1.23 34.214 0.284 7.62 4.13 13.3
1/5/2022 4:30:00 AM 1.22 34.196 0.284 7.62 4.66 13.3
1/5/2022 4:45:00 AM 1.21 34.178 0.285 7.62 4.2 13.3
1/5/2022 5:00:00 AM 1.2 34.16 0.285 7.62 4.14 13.3
1/5/2022 5:15:00 AM 1.18 34.124 0.285 7.62 3.93 13.3
1/5/2022 5:30:00 AM 1.18 34.124 0.285 7.62 4.04 13.3
1/5/2022 5:45:00 AM 1.16 34.088 0.285 7.62 3.74 13.31
1/5/2022 6:00:00 AM 1.14 34.052 0.285 7.62 3.88 13.3
1/5/2022 6:15:00 AM 1.12 34.016 0.286 7.62 4.11 13.3
1/5/2022 6:30:00 AM 1.11 33.998 0.286 7.62 3.78 13.31
1/5/2022 6:45:00 AM 1.09 33.962 0.286 7.62 3.93 13.31
1/5/2022 7:00:00 AM 1.09 33.962 0.286 7.63 4.1 13.31
1/5/2022 7:15:00 AM 1.08 33.944 0.286 7.63 4.18 13.3
1/5/2022 7:30:00 AM 1.07 33.926 0.286 7.62 4.11 13.31
1/5/2022 7:45:00 AM 1.06 33.908 0.287 7.62 5.09 13.3
1/5/2022 8:00:00 AM 1.06 33.908 0.287 7.62 5.02 13.31
1/5/2022 8:15:00 AM 1.06 33.908 0.287 7.63 3.95 13.31
1/5/2022 8:30:00 AM 1.07 33.926 0.287 7.63 4.12 13.32
1/5/2022 8:45:00 AM 1.09 33.962 0.287 7.63 3.91 13.32
1/5/2022 9:00:00 AM 1.12 34.016 0.287 7.63 3.98 13.32
1/5/2022 9:15:00 AM 1.14 34.052 0.288 7.63 3.78 13.34
1/5/2022 9:30:00 AM 1.18 34.124 0.288 7.63 3.96 13.33
1/5/2022 9:45:00 AM 1.21 34.178 0.288 7.64 3.83 13.33
1/5/2022 10:00:00 AM 1.24 34.232 0.288 7.63 4.04 13.34
1/5/2022 10:15:00 AM 1.3 34.34 0.288 7.64 3.98 13.33
1/5/2022 10:30:00 AM 1.34 34.412 0.288 7.64 3.83 13.32
1/5/2022 10:45:00 AM 1.38 34.484 0.288 7.65 3.8 13.31
1/5/2022 11:00:00 AM 1.44 34.592 0.288 7.65 3.83 13.31
1/5/2022 11:15:00 AM 1.48 34.664 0.288 7.65 3.96 13.3
1/5/2022 11:30:00 AM 1.53 34.754 0.288 7.66 3.8 13.29
1/5/2022 11:45:00 AM 1.6 34.88 0.288 7.64 3.99 13.28
1/5/2022 12:00:00 PM 1.68 35.024 0.288 7.66 3.84 13.27
1/5/2022 12:15:00 PM 1.75 35.15 0.288 7.66 3.72 13.25
1/5/2022 12:30:00 PM 1.82 35.276 0.288 7.66 3.83 13.24
1/5/2022 12:45:00 PM 1.89 35.402 0.288 7.67 3.74 13.22
1/5/2022 1:00:00 PM 1.96 35.528 0.288 7.66 3.97 13.21
1/5/2022 1:15:00 PM 2.02 35.636 0.288 7.67 3.84 13.18
1/5/2022 1:30:00 PM 2.11 35.798 0.288 7.67 3.78 13.16
1/5/2022 1:45:00 PM 2.2 35.96 0.288 7.67 3.74 13.13
1/5/2022 2:00:00 PM 2.31 36.158 0.289 7.67 3.9 13.1
1/5/2022 2:15:00 PM 2.39 36.302 0.289 7.68 4.24 13.07
1/5/2022 2:30:00 PM 2.48 36.464 0.288 7.68 4 13.04
1/5/2022 2:45:00 PM 2.56 36.608 0.289 7.68 3.7 13.01
1/5/2022 3:00:00 PM 2.62 36.716 0.289 7.67 3.91 12.98
1/5/2022 3:15:00 PM 2.67 36.806 0.289 7.68 4.06 12.96
1/5/2022 3:30:00 PM 2.72 36.896 0.289 7.68 3.74 12.93
1/5/2022 3:45:00 PM 2.74 36.932 0.289 7.68 3.69 12.91
1/5/2022 4:00:00 PM 2.77 36.986 0.289 7.68 3.7 12.89
1/5/2022 4:15:00 PM 2.77 36.986 0.289 7.68 3.72 12.88
1/5/2022 4:30:00 PM 2.78 37.004 0.29 7.68 3.84 12.86
1/5/2022 4:45:00 PM 2.8 37.04 0.29 7.68 4.26 12.83
1/5/2022 5:00:00 PM 2.8 37.04 0.29 7.68 3.74 12.81
1/5/2022 5:15:00 PM 2.79 37.022 0.29 7.68 3.92 12.79
1/5/2022 5:30:00 PM 2.79 37.022 0.29 7.67 6.59 12.76
1/5/2022 5:45:00 PM 2.8 37.04 0.29 7.67 4.01 12.75
1/5/2022 6:00:00 PM 2.8 37.04 0.29 7.66 3.75 12.74
1/5/2022 6:15:00 PM 2.8 37.04 0.29 7.67 4.32 12.73
1/5/2022 6:30:00 PM 2.82 37.076 0.29 7.67 4.16 12.71
1/5/2022 6:45:00 PM 2.83 37.094 0.29 7.67 3.77 12.71
1/5/2022 7:00:00 PM 2.85 37.13 0.29 7.67 4.17 12.7
1/5/2022 7:15:00 PM 2.86 37.148 0.29 7.66 4.02 12.68
1/5/2022 7:30:00 PM 2.88 37.184 0.29 7.66 3.96 12.67
1/5/2022 7:45:00 PM 2.9 37.22 0.291 7.67 4.08 12.66
1/5/2022 8:00:00 PM 2.91 37.238 0.291 7.66 4.15 12.65
1/5/2022 8:15:00 PM 2.92 37.256 0.291 7.66 4.3 12.63
1/5/2022 8:30:00 PM 2.94 37.292 0.291 7.66 4.28 12.63
1/5/2022 8:45:00 PM 2.96 37.328 0.291 7.67 4.42 12.62
1/5/2022 9:00:00 PM 2.97 37.346 0.291 7.66 4.82 12.61
1/5/2022 9:15:00 PM 2.98 37.364 0.291 7.66 4.22 12.61
1/5/2022 9:30:00 PM 2.98 37.364 0.291 7.67 4.33 12.6
1/5/2022 9:45:00 PM 2.98 37.364 0.291 7.67 4.26 12.6
1/5/2022 10:00:00 PM 2.96 37.328 0.291 7.65 4.36 12.6
1/5/2022 10:15:00 PM 2.95 37.31 0.291 7.66 4.23 12.59
1/5/2022 10:30:00 PM 2.93 37.274 0.292 7.66 3.95 12.59
1/5/2022 10:45:00 PM 2.93 37.274 0.292 7.66 4.24 12.59
1/5/2022 11:00:00 PM 2.91 37.238 0.292 7.67 4.57 12.6
1/5/2022 11:15:00 PM 2.89 37.202 0.292 7.66 4.08 12.6
1/5/2022 11:30:00 PM 2.88 37.184 0.292 7.66 4.16 12.61
1/5/2022 11:45:00 PM 2.87 37.166 0.292 7.66 4.02 12.61
1/6/2022 12:00:00 AM 2.85 37.13 0.292 7.67 4.27 12.61
1/6/2022 12:15:00 AM 2.83 37.094 0.293 7.66 4.22 12.61
1/6/2022 12:30:00 AM 2.82 37.076 0.293 7.67 4.08 12.62
1/6/2022 12:45:00 AM 2.8 37.04 0.293 7.66 4.22 12.62
1/6/2022 1:00:00 AM 2.77 36.986 0.293 7.66 9.3 12.63
1/6/2022 1:15:00 AM 2.76 36.968 0.293 7.66 6.34 12.63
1/6/2022 1:30:00 AM 2.75 36.95 0.293 7.66 4.33 12.64
1/6/2022 1:45:00 AM 2.74 36.932 0.293 7.66 4.9 12.65
1/6/2022 2:00:00 AM 2.72 36.896 0.294 7.67 4.73 12.66
1/6/2022 2:15:00 AM 2.69 36.842 0.294 7.66 4.67 12.67
1/6/2022 2:30:00 AM 2.67 36.806 0.294 7.67 4.22 12.68
1/6/2022 2:45:00 AM 2.63 36.734 0.294 7.67 4.01 12.69
1/6/2022 3:00:00 AM 2.58 36.644 0.294 7.67 4.77 12.71
1/6/2022 3:15:00 AM 2.53 36.554 0.295 7.67 4.53 12.71
1/6/2022 3:30:00 AM 2.48 36.464 0.295 7.66 5.33 12.73
1/6/2022 3:45:00 AM 2.43 36.374 0.295 7.67 4.72 12.75
1/6/2022 4:00:00 AM 2.39 36.302 0.295 7.67 4.34 12.77
1/6/2022 4:15:00 AM 2.36 36.248 0.295 7.66 4.43 12.77
1/6/2022 4:30:00 AM 2.31 36.158 0.296 7.67 4.27 12.8
1/6/2022 4:45:00 AM 2.26 36.068 0.296 7.67 4.28 12.81
1/6/2022 5:00:00 AM 2.22 35.996 0.296 7.67 4.23 12.82
1/6/2022 5:15:00 AM 2.16 35.888 0.296 7.67 4.84 12.85
1/6/2022 5:30:00 AM 2.11 35.798 0.296 7.67 4.43 12.87
1/6/2022 5:45:00 AM 2.07 35.726 0.296 7.67 4.29 12.88
1/6/2022 6:00:00 AM 2.02 35.636 0.297 7.66 4.82 12.9
1/6/2022 6:15:00 AM 1.98 35.564 0.297 7.67 4.63 12.91
1/6/2022 6:30:00 AM 1.93 35.474 0.297 7.67 4.39 12.93
1/6/2022 6:45:00 AM 1.88 35.384 0.297 7.67 4.68 12.95
1/6/2022 7:00:00 AM 1.84 35.312 0.297 7.68 4.35 12.97
1/6/2022 7:15:00 AM 1.79 35.222 0.297 7.67 4.6 12.99
1/6/2022 7:30:00 AM 1.75 35.15 0.298 7.67 5.02 13.01
1/6/2022 7:45:00 AM 1.7 35.06 0.298 7.66 4.52 13.02
1/6/2022 8:00:00 AM 1.66 34.988 0.298 7.67 4.37 13.04
1/6/2022 8:15:00 AM 1.6 34.88 0.298 7.68 4.23 13.07
1/6/2022 8:30:00 AM 1.57 34.826 0.298 7.67 4.34 13.1
1/6/2022 8:45:00 AM 1.55 34.79 0.299 7.68 4.26 13.12
1/6/2022 9:00:00 AM 1.52 34.736 0.299 7.68 4.45 13.15
1/6/2022 9:15:00 AM 1.48 34.664 0.299 7.68 4.27 13.17
1/6/2022 9:30:00 AM 1.45 34.61 0.299 7.68 4.15 13.19
1/6/2022 9:45:00 AM 1.43 34.574 0.299 7.69 4.2 13.22
1/6/2022 10:00:00 AM 1.43 34.574 0.299 7.68 4.14 13.24
1/6/2022 10:15:00 AM 1.44 34.592 0.3 7.69 4.03 13.26
1/6/2022 10:30:00 AM 1.45 34.61 0.3 7.69 4.08 13.28
1/6/2022 10:45:00 AM 1.45 34.61 0.3 7.69 4.28 13.29
1/6/2022 11:00:00 AM 1.47 34.646 0.3 7.69 4.16 13.31
1/6/2022 11:15:00 AM 1.47 34.646 0.3 7.69 4.11 13.32
1/6/2022 11:30:00 AM 1.49 34.682 0.3 7.7 5.67 13.32
1/6/2022 11:45:00 AM 1.49 34.682 0.301 7.7 4.31 13.33
1/6/2022 12:00:00 PM 1.51 34.718 0.301 7.7 4.3 13.34
1/6/2022 12:15:00 PM 1.53 34.754 0.301 7.7 3.96 13.34
1/6/2022 12:30:00 PM 1.61 34.898 0.301 7.7 3.93 13.34
1/6/2022 12:45:00 PM 1.67 35.006 0.301 7.7 3.78 13.34
1/6/2022 1:00:00 PM 1.74 35.132 0.301 7.7 4.27 13.33
1/6/2022 1:15:00 PM 1.78 35.204 0.301 7.71 3.73 13.32
1/6/2022 1:30:00 PM 1.82 35.276 0.301 7.71 3.96 13.32
1/6/2022 1:45:00 PM 1.86 35.348 0.301 7.71 4.14 13.32
1/6/2022 2:00:00 PM 1.94 35.492 0.301 7.71 3.87 13.31
1/6/2022 2:15:00 PM 1.93 35.474 0.301 7.7 3.75 13.29
1/6/2022 2:30:00 PM 1.95 35.51 0.301 7.71 4.14 13.28
1/6/2022 2:45:00 PM 1.97 35.546 0.301 7.71 3.74 13.27
1/6/2022 3:00:00 PM 1.98 35.564 0.301 7.71 3.78 13.28
1/6/2022 3:15:00 PM 1.97 35.546 0.301 7.71 3.76 13.27
1/6/2022 3:30:00 PM 1.95 35.51 0.301 7.71 3.71 13.26
1/6/2022 3:45:00 PM 1.93 35.474 0.301 7.71 3.78 13.26
1/6/2022 4:00:00 PM 1.91 35.438 0.301 7.71 3.96 13.25
1/6/2022 4:15:00 PM 1.9 35.42 0.302 7.7 3.93 13.23
1/6/2022 4:30:00 PM 1.9 35.42 0.302 7.7 4.08 13.21
1/6/2022 4:45:00 PM 1.89 35.402 0.302 7.7 3.88 13.2
1/6/2022 5:00:00 PM 1.87 35.366 0.302 7.7 4.07 13.19
1/6/2022 5:15:00 PM 1.85 35.33 0.302 7.7 3.62 13.19
1/6/2022 5:30:00 PM 1.82 35.276 0.302 7.69 3.95 13.18
1/6/2022 5:45:00 PM 1.8 35.24 0.302 7.69 3.84 13.18
1/6/2022 6:00:00 PM 1.78 35.204 0.303 7.69 3.75 13.18
1/6/2022 6:15:00 PM 1.77 35.186 0.303 7.69 4.17 13.17
1/6/2022 6:30:00 PM 1.75 35.15 0.303 7.69 4.37 13.17
1/6/2022 6:45:00 PM 1.74 35.132 0.303 7.68 4.07 13.17
1/6/2022 7:00:00 PM 1.72 35.096 0.303 7.69 4.13 13.16
1/6/2022 7:15:00 PM 1.68 35.024 0.303 7.69 4.19 13.16
1/6/2022 7:30:00 PM 1.65 34.97 0.303 7.69 4.05 13.16
1/6/2022 7:45:00 PM 1.6 34.88 0.303 7.68 4.2 13.16
1/6/2022 8:00:00 PM 1.56 34.808 0.303 7.69 4.04 13.17
1/6/2022 8:15:00 PM 1.52 34.736 0.303 7.68 4.29 13.17
1/6/2022 8:30:00 PM 1.48 34.664 0.303 7.68 4.76 13.17
1/6/2022 8:45:00 PM 1.44 34.592 0.303 7.68 3.86 13.17
1/6/2022 9:00:00 PM 1.42 34.556 0.303 7.67 4.25 13.18
1/6/2022 9:15:00 PM 1.4 34.52 0.304 7.68 4.36 13.18
1/6/2022 9:30:00 PM 1.34 34.412 0.303 7.68 4.13 13.19
1/6/2022 9:45:00 PM 1.33 34.394 0.304 7.68 4.1 13.19
1/6/2022 10:00:00 PM 1.31 34.358 0.304 7.68 4.15 13.21
1/6/2022 10:15:00 PM 1.28 34.304 0.304 7.68 3.96 13.22
1/6/2022 10:30:00 PM 1.23 34.214 0.304 7.68 3.83 13.23
1/6/2022 10:45:00 PM 1.2 34.16 0.304 7.68 3.99 13.24
1/6/2022 11:00:00 PM 1.17 34.106 0.304 7.67 3.99 13.24
1/6/2022 11:15:00 PM 1.15 34.07 0.304 7.68 3.99 13.26
1/6/2022 11:30:00 PM 1.13 34.034 0.304 7.68 3.88 13.26
1/6/2022 11:45:00 PM 1.11 33.998 0.304 7.68 4.23 13.28
1/7/2022 12:00:00 AM 1.09 33.962 0.304 7.68 4.34 13.29
1/7/2022 12:15:00 AM 1.06 33.908 0.304 7.68 7.12 13.3
1/7/2022 12:30:00 AM 1.05 33.89 0.304 7.68 3.99 13.3
1/7/2022 12:45:00 AM 1.02 33.836 0.305 7.68 3.97 13.3
1/7/2022 1:00:00 AM 0.99 33.782 0.305 7.68 3.85 13.32
1/7/2022 1:15:00 AM 0.98 33.764 0.305 7.68 3.66 13.32
1/7/2022 1:30:00 AM 0.97 33.746 0.305 7.68 3.77 13.33
1/7/2022 1:45:00 AM 0.95 33.71 0.305 7.67 4.11 13.34
1/7/2022 2:00:00 AM 0.94 33.692 0.305 7.68 3.62 13.35
1/7/2022 2:15:00 AM 0.92 33.656 0.305 7.68 3.69 13.36
1/7/2022 2:30:00 AM 0.91 33.638 0.306 7.68 3.96 13.36
1/7/2022 2:45:00 AM 0.9 33.62 0.306 7.68 3.84 13.38
1/7/2022 3:00:00 AM 0.88 33.584 0.306 7.68 4.01 13.38
1/7/2022 3:15:00 AM 0.86 33.548 0.306 7.68 3.98 13.4
1/7/2022 3:30:00 AM 0.84 33.512 0.306 7.68 3.58 13.39
1/7/2022 3:45:00 AM 0.82 33.476 0.307 7.67 3.83 13.42
1/7/2022 4:00:00 AM 0.81 33.458 0.307 7.68 3.85 13.42
1/7/2022 4:15:00 AM 0.78 33.404 0.307 7.68 3.86 13.44
1/7/2022 4:30:00 AM 0.76 33.368 0.307 7.68 3.76 13.44
1/7/2022 4:45:00 AM 0.73 33.314 0.307 7.68 3.67 13.46
1/7/2022 5:00:00 AM 0.7 33.26 0.308 7.68 3.56 13.47
1/7/2022 5:15:00 AM 0.67 33.206 0.308 7.68 3.72 13.48
1/7/2022 5:30:00 AM 0.66 33.188 0.308 7.67 3.96 13.48
1/7/2022 5:45:00 AM 0.64 33.152 0.308 7.68 3.98 13.49
1/7/2022 6:00:00 AM 0.61 33.098 0.309 7.68 3.65 13.5
1/7/2022 6:15:00 AM 0.59 33.062 0.309 7.67 3.86 13.51
1/7/2022 6:30:00 AM 0.56 33.008 0.309 7.68 3.73 13.52
1/7/2022 6:45:00 AM 0.54 32.972 0.309 7.68 4.31 13.53
1/7/2022 7:00:00 AM 0.51 32.918 0.309 7.68 3.54 13.54
1/7/2022 7:15:00 AM 0.49 32.882 0.31 7.69 3.8 13.55
1/7/2022 7:30:00 AM 0.46 32.828 0.31 7.68 3.6 13.56
1/7/2022 7:45:00 AM 0.42 32.756 0.31 7.68 3.81 13.58
1/7/2022 8:00:00 AM 0.39 32.702 0.31 7.68 23.3 13.59
1/7/2022 8:15:00 AM 0.36 32.648 0.311 7.69 4.02 13.61
1/7/2022 8:30:00 AM 0.33 32.594 0.311 7.69 4.31 13.62
1/7/2022 8:45:00 AM 0.31 32.558 0.311 7.69 3.56 13.65
1/7/2022 9:00:00 AM 0.29 32.522 0.311 7.69 3.43 13.68
1/7/2022 9:15:00 AM 0.27 32.486 0.311 7.69 3.5 13.7
1/7/2022 9:30:00 AM 0.24 32.432 0.312 7.7 3.66 13.72
1/7/2022 9:45:00 AM 0.23 32.414 0.312 7.7 3.8 13.73
1/7/2022 10:00:00 AM 0.21 32.378 0.312 7.7 3.7 13.76
1/7/2022 10:15:00 AM 0.19 32.342 0.312 7.7 3.65 13.78
1/7/2022 10:30:00 AM 0.19 32.342 0.312 7.7 3.74 13.8
1/7/2022 10:45:00 AM 0.23 32.414 0.313 7.7 3.55 13.81
1/7/2022 11:00:00 AM 0.25 32.45 0.313 7.71 3.49 13.81
1/7/2022 11:15:00 AM 0.24 32.432 0.313 7.71 3.66 13.82
1/7/2022 11:30:00 AM 0.25 32.45 0.313 7.72 3.5 13.84
1/7/2022 11:45:00 AM 0.26 32.468 0.313 7.72 3.55 13.85
1/7/2022 12:00:00 PM 0.29 32.522 0.314 7.71 3.94 13.85
1/7/2022 12:15:00 PM 0.31 32.558 0.314 7.71 3.49 13.85
1/7/2022 12:30:00 PM 0.32 32.576 0.314 7.72 3.5 13.86
1/7/2022 12:45:00 PM 0.35 32.63 0.314 7.72 3.58 13.86
1/7/2022 1:00:00 PM 0.39 32.702 0.314 7.72 3.63 13.86
1/7/2022 1:15:00 PM 0.4 32.72 0.315 7.72 3.6 13.86
1/7/2022 1:30:00 PM 0.42 32.756 0.315 7.73 3.5 13.87
1/7/2022 1:45:00 PM 0.43 32.774 0.315 7.72 3.29 13.86
1/7/2022 2:00:00 PM 0.43 32.774 0.315 7.72 3.59 13.86
1/7/2022 2:15:00 PM 0.41 32.738 0.315 7.73 3.51 13.87
1/7/2022 2:30:00 PM 0.41 32.738 0.316 7.72 17.34 13.86
1/7/2022 2:45:00 PM 0.41 32.738 0.316 7.73 3.72 13.87
1/7/2022 3:00:00 PM 0.4 32.72 0.316 7.73 3.6 13.87
1/7/2022 3:15:00 PM 0.39 32.702 0.316 7.73 3.44 13.87
1/7/2022 3:30:00 PM 0.37 32.666 0.316 7.74 3.55 13.86
1/7/2022 3:45:00 PM 0.34 32.612 0.317 7.72 3.65 13.86
1/7/2022 4:00:00 PM 0.33 32.594 0.317 7.73 3.65 13.86
1/7/2022 4:15:00 PM 0.28 32.504 0.317 7.73 3.58 13.87
1/7/2022 4:30:00 PM 0.25 32.45 0.318 7.73 3.79 13.87
1/7/2022 4:45:00 PM 0.21 32.378 0.318 7.73 4.81 13.88
1/7/2022 5:00:00 PM 0.17 32.306 0.318 7.73 3.48 13.88
1/7/2022 5:15:00 PM 0.13 32.234 0.319 7.72 3.53 13.88
1/7/2022 5:30:00 PM 0.1 32.18 0.319 7.73 3.45 13.89
1/7/2022 5:45:00 PM 0.06 32.108 0.319 7.72 3.4 13.9
1/7/2022 6:00:00 PM 0.04 32.072 0.32 7.73 3.23 13.91
1/7/2022 6:15:00 PM 0.01 32.018 0.32 7.71 4.86 13.91
1/7/2022 6:30:00 PM -0.02 31.964 0.32 7.72 5.6 13.93
1/7/2022 6:45:00 PM -0.04 31.928 0.321 7.72 4.73 13.94
1/7/2022 7:00:00 PM -0.05 31.91 0.321 7.72 4.3 13.95
1/7/2022 7:15:00 PM -0.04 31.928 0.321 7.72 4.51 13.97
1/7/2022 7:30:00 PM -0.04 31.928 0.321 7.72 4 13.96
1/7/2022 7:45:00 PM -0.04 31.928 0.322 7.72 3.97 13.96
1/7/2022 8:00:00 PM -0.04 31.928 0.322 7.72 4.29 13.98
1/7/2022 8:15:00 PM -0.04 31.928 0.322 7.72 4.56 13.99
1/7/2022 8:30:00 PM -0.04 31.928 0.322 7.71 4.05 13.99
1/7/2022 8:45:00 PM -0.04 31.928 0.323 7.72 3.79 14
1/7/2022 9:00:00 PM -0.04 31.928 0.323 7.71 3.85 14
1/7/2022 9:15:00 PM -0.04 31.928 0.323 7.71 3.82 14
1/7/2022 9:30:00 PM -0.03 31.946 0.323 7.71 3.6 14
1/7/2022 9:45:00 PM -0.04 31.928 0.324 7.71 3.99 14.01
1/7/2022 10:00:00 PM -0.03 31.946 0.324 7.71 4.01 14
1/7/2022 10:15:00 PM -0.03 31.946 0.324 7.71 3.57 14
1/7/2022 10:30:00 PM -0.03 31.946 0.324 7.71 4.02 14.01
1/7/2022 10:45:00 PM -0.02 31.964 0.324 7.7 3.59 14.01
1/7/2022 11:00:00 PM -0.01 31.982 0.325 7.69 3.8 14
1/7/2022 11:15:00 PM -0.02 31.964 0.325 7.69 3.81 13.99
1/7/2022 11:30:00 PM -0.02 31.964 0.325 7.69 3.49 14
1/7/2022 11:45:00 PM -0.02 31.964 0.325 7.69 3.58 14.01
1/8/2022 12:00:00 AM -0.02 31.964 0.326 7.69 3.92 14.01
1/8/2022 12:15:00 AM -0.02 31.964 0.326 7.69 3.52 14.01
1/8/2022 12:30:00 AM -0.02 31.964 0.326 7.69 3.65 14.02
1/8/2022 12:45:00 AM -0.02 31.964 0.327 7.68 3.65 14.03
1/8/2022 1:00:00 AM -0.01 31.982 0.327 7.68 3.36 14.01
1/8/2022 1:15:00 AM -0.02 31.964 0.327 7.68 3.34 14.03
1/8/2022 1:30:00 AM -0.02 31.964 0.328 7.69 3.43 14.05
1/8/2022 1:45:00 AM -0.02 31.964 0.328 7.68 3.4 14.05
1/8/2022 2:00:00 AM -0.02 31.964 0.329 7.69 3.47 14.05
1/8/2022 2:15:00 AM -0.02 31.964 0.329 7.68 3.59 14.05
1/8/2022 2:30:00 AM -0.02 31.964 0.329 7.68 3.38 14.06
1/8/2022 2:45:00 AM -0.02 31.964 0.33 7.68 3.56 14.06
1/8/2022 3:00:00 AM -0.02 31.964 0.33 7.69 3.27 14.08
1/8/2022 3:15:00 AM -0.01 31.982 0.33 7.68 3.32 14.06
1/8/2022 3:30:00 AM -0.02 31.964 0.331 7.68 3.47 14.08
1/8/2022 3:45:00 AM -0.02 31.964 0.331 7.68 3.4 14.09
1/8/2022 4:00:00 AM -0.02 31.964 0.332 7.69 3.25 14.09
1/8/2022 4:15:00 AM -0.02 31.964 0.332 7.68 3.33 14.09
1/8/2022 4:30:00 AM -0.02 31.964 0.332 7.69 3.18 14.1
1/8/2022 4:45:00 AM -0.02 31.964 0.333 7.67 3.39 14.11
1/8/2022 5:00:00 AM -0.02 31.964 0.333 7.69 3.37 14.11
1/8/2022 5:15:00 AM -0.02 31.964 0.333 7.68 3.35 14.11
1/8/2022 5:30:00 AM -0.02 31.964 0.334 7.69 3.29 14.13
1/8/2022 5:45:00 AM -0.02 31.964 0.334 7.68 3.19 14.12
1/8/2022 6:00:00 AM -0.01 31.982 0.334 7.68 3.16 14.12
1/8/2022 6:15:00 AM -0.01 31.982 0.335 7.68 3.33 14.12
1/8/2022 6:30:00 AM -0.01 31.982 0.335 7.67 3.53 14.11
1/8/2022 6:45:00 AM -0.02 31.964 0.335 7.68 3.13 14.13
1/8/2022 7:00:00 AM -0.01 31.982 0.335 7.67 3.19 14.13
1/8/2022 7:15:00 AM -0.01 31.982 0.336 7.66 3.09 14.13
1/8/2022 7:30:00 AM -0.02 31.964 0.336 7.67 3.25 14.13
1/8/2022 7:45:00 AM -0.02 31.964 0.336 7.68 3.15 14.15
1/8/2022 8:00:00 AM -0.02 31.964 0.337 7.67 3.11 14.16
1/8/2022 8:15:00 AM -0.01 31.982 0.337 7.67 3.11 14.16
1/8/2022 8:30:00 AM 0 32 0.337 7.67 3.33 14.16
1/8/2022 8:45:00 AM 0 32 0.337 7.66 3.13 14.17
1/8/2022 9:00:00 AM -0.01 31.982 0.337 7.66 3.16 14.19
1/8/2022 9:15:00 AM 0.01 32.018 0.337 7.66 3.3 14.17
1/8/2022 9:30:00 AM 0.01 32.018 0.337 7.66 3.14 14.2
1/8/2022 9:45:00 AM 0.02 32.036 0.337 7.66 3.18 14.2
1/8/2022 10:00:00 AM 0.03 32.054 0.337 7.66 3.12 14.2
1/8/2022 10:15:00 AM 0.06 32.108 0.337 7.66 3.16 14.19
1/8/2022 10:30:00 AM 0.04 32.072 0.338 7.67 3.37 14.19
1/8/2022 10:45:00 AM 0.03 32.054 0.338 7.66 3.21 14.2
1/8/2022 11:00:00 AM 0.05 32.09 0.338 7.66 3.38 14.2
1/8/2022 11:15:00 AM 0.06 32.108 0.338 7.66 3.18 14.21
1/8/2022 11:30:00 AM 0.04 32.072 0.338 7.66 3.32 14.19
1/8/2022 11:45:00 AM 0.05 32.09 0.338 7.66 3.2 14.19
1/8/2022 12:00:00 PM 0.04 32.072 0.338 7.67 3.24 14.19
1/8/2022 12:15:00 PM 0.04 32.072 0.338 7.67 3.19 14.19
1/8/2022 12:30:00 PM 0.04 32.072 0.338 7.66 3.3 14.18
1/8/2022 12:45:00 PM 0.03 32.054 0.338 7.67 3.25 14.19
1/8/2022 1:00:00 PM 0.04 32.072 0.338 7.67 3.32 14.18
1/8/2022 1:15:00 PM 0.04 32.072 0.338 7.67 3.41 14.17
1/8/2022 1:30:00 PM 0.06 32.108 0.338 7.67 3.33 14.17
1/8/2022 1:45:00 PM 0.04 32.072 0.337 7.68 3.61 14.18
1/8/2022 2:00:00 PM 0.05 32.09 0.337 7.69 3.57 14.18
1/8/2022 2:15:00 PM 0.08 32.144 0.337 7.68 3.54 14.18
1/8/2022 2:30:00 PM 0.06 32.108 0.336 7.68 3.46 14.16
1/8/2022 2:45:00 PM 0.07 32.126 0.336 7.68 3.54 14.15
1/8/2022 3:00:00 PM 0.06 32.108 0.336 7.68 3.46 14.14
1/8/2022 3:15:00 PM 0.07 32.126 0.336 7.68 3.8 14.13
1/8/2022 3:30:00 PM 0.07 32.126 0.335 7.67 4.06 14.1
1/8/2022 3:45:00 PM 0.06 32.108 0.336 7.67 4.04 14.11
1/8/2022 4:00:00 PM 0.02 32.036 0.336 7.68 3.99 14.09
1/8/2022 4:15:00 PM 0 32 0.337 7.69 4.02 14.1
1/8/2022 4:30:00 PM -0.01 31.982 0.337 7.68 4.02 14.1
1/8/2022 4:45:00 PM -0.01 31.982 0.338 7.69 3.91 14.09
1/8/2022 5:00:00 PM -0.01 31.982 0.338 7.69 4.7 14.09
1/8/2022 5:15:00 PM 0 32 0.339 7.68 5.4 14.07
1/8/2022 5:30:00 PM -0.03 31.946 0.34 7.71 4.34 14.12
1/8/2022 5:45:00 PM -0.03 31.946 0.341 7.71 4.46 14.13
1/8/2022 6:00:00 PM -0.04 31.928 0.341 7.72 4.29 14.12
1/8/2022 6:15:00 PM -0.03 31.946 0.341 7.72 4.37 14.12
1/8/2022 6:30:00 PM -0.04 31.928 0.342 7.72 4.27 14.12
1/8/2022 6:45:00 PM -0.03 31.946 0.342 7.72 4.24 14.1
1/8/2022 7:00:00 PM -0.02 31.964 0.342 7.72 3.87 14.09
1/8/2022 7:15:00 PM -0.02 31.964 0.342 7.7 4.21 14.08
1/8/2022 7:30:00 PM -0.02 31.964 0.342 7.72 4.11 14.08
1/8/2022 7:45:00 PM -0.03 31.946 0.342 7.72 4.12 14.09
1/8/2022 8:00:00 PM -0.03 31.946 0.342 7.72 4.43 14.08
1/8/2022 8:15:00 PM -0.03 31.946 0.342 7.73 4.48 14.09
1/8/2022 8:30:00 PM -0.03 31.946 0.341 7.73 4.11 14.08
1/8/2022 8:45:00 PM -0.03 31.946 0.341 7.72 4.11 14.08
1/8/2022 9:00:00 PM -0.04 31.928 0.341 7.72 4.07 14.07
1/8/2022 9:15:00 PM -0.04 31.928 0.341 7.72 4.1 14.07
1/8/2022 9:30:00 PM -0.03 31.946 0.341 7.71 4.98 14.07
1/8/2022 9:45:00 PM -0.03 31.946 0.341 7.72 4.42 14.07
1/8/2022 10:00:00 PM -0.03 31.946 0.341 7.72 4.1 14.06
1/8/2022 10:15:00 PM -0.03 31.946 0.341 7.71 4.26 14.05
1/8/2022 10:30:00 PM -0.02 31.964 0.341 7.71 4.25 14.04
1/8/2022 10:45:00 PM -0.03 31.946 0.341 7.71 4.15 14.05
1/8/2022 11:00:00 PM -0.02 31.964 0.342 7.72 3.99 14.04
1/8/2022 11:15:00 PM -0.02 31.964 0.342 7.72 3.96 14.03
1/8/2022 11:30:00 PM -0.03 31.946 0.343 7.72 4.19 14.04
1/8/2022 11:45:00 PM -0.03 31.946 0.343 7.71 4.17 14.02
1/9/2022 12:00:00 AM -0.03 31.946 0.344 7.72 4.01 14.02
1/9/2022 12:15:00 AM -0.02 31.964 0.344 7.72 4.19 14.02
1/9/2022 12:30:00 AM -0.03 31.946 0.345 7.72 4.01 14.01
1/9/2022 12:45:00 AM -0.03 31.946 0.345 7.72 4.07 14.01
1/9/2022 1:00:00 AM -0.02 31.964 0.345 7.72 4.02 14
1/9/2022 1:15:00 AM -0.03 31.946 0.346 7.72 3.9 14
1/9/2022 1:30:00 AM -0.03 31.946 0.346 7.73 4.17 14
1/9/2022 1:45:00 AM -0.02 31.964 0.346 7.72 3.84 13.98
1/9/2022 2:00:00 AM -0.03 31.946 0.347 7.72 3.62 13.99
1/9/2022 2:15:00 AM -0.02 31.964 0.347 7.72 3.99 13.97
1/9/2022 2:30:00 AM -0.03 31.946 0.348 7.72 4.08 13.97
1/9/2022 2:45:00 AM -0.03 31.946 0.348 7.73 4.01 13.97
1/9/2022 3:00:00 AM -0.02 31.964 0.349 7.72 4.09 13.96
1/9/2022 3:15:00 AM -0.03 31.946 0.349 7.73 4.1 13.96
1/9/2022 3:30:00 AM -0.03 31.946 0.35 7.73 3.86 13.96
1/9/2022 3:45:00 AM -0.03 31.946 0.351 7.73 4.08 13.95
1/9/2022 4:00:00 AM -0.03 31.946 0.351 7.73 4.44 13.95
1/9/2022 4:15:00 AM -0.03 31.946 0.352 7.73 4.18 13.93
1/9/2022 4:30:00 AM -0.02 31.964 0.352 7.73 3.97 13.93
1/9/2022 4:45:00 AM -0.03 31.946 0.353 7.73 4.22 13.93
1/9/2022 5:00:00 AM -0.02 31.964 0.354 7.73 4.23 13.92
1/9/2022 5:15:00 AM -0.02 31.964 0.354 7.72 4.06 13.91
1/9/2022 5:30:00 AM -0.03 31.946 0.355 7.74 4.4 13.91
1/9/2022 5:45:00 AM -0.03 31.946 0.356 7.73 4.3 13.91
1/9/2022 6:00:00 AM -0.03 31.946 0.356 7.74 4.28 13.9
1/9/2022 6:15:00 AM -0.02 31.964 0.356 7.74 3.98 13.9
1/9/2022 6:30:00 AM -0.02 31.964 0.356 7.73 4.46 13.89
1/9/2022 6:45:00 AM -0.03 31.946 0.355 7.74 4.49 13.89
1/9/2022 7:00:00 AM -0.02 31.964 0.355 7.73 4.37 13.89
1/9/2022 7:15:00 AM -0.02 31.964 0.355 7.74 4.36 13.87
1/9/2022 7:30:00 AM -0.02 31.964 0.354 7.74 4.52 13.88
1/9/2022 7:45:00 AM -0.03 31.946 0.354 7.74 4.98 13.87
1/9/2022 8:00:00 AM -0.02 31.964 0.354 7.73 4.58 13.87
1/9/2022 8:15:00 AM -0.02 31.964 0.354 7.73 5.07 13.85
1/9/2022 8:30:00 AM -0.02 31.964 0.354 7.73 5.01 13.85
1/9/2022 8:45:00 AM -0.02 31.964 0.353 7.74 5.62 13.85
1/9/2022 9:00:00 AM -0.02 31.964 0.353 7.74 7.63 13.85
1/9/2022 9:15:00 AM -0.02 31.964 0.352 7.73 5.1 13.84
1/9/2022 9:30:00 AM -0.01 31.982 0.352 7.72 5.38 13.82
1/9/2022 9:45:00 AM 0 32 0.351 7.72 5.32 13.82
1/9/2022 10:00:00 AM 0 32 0.351 7.72 5.48 13.82
1/9/2022 10:15:00 AM 0 32 0.35 7.72 5.4 13.81
1/9/2022 10:30:00 AM 0 32 0.35 7.72 4.85 13.82
1/9/2022 10:45:00 AM 0 32 0.349 7.72 5.69 13.81
1/9/2022 11:00:00 AM 0 32 0.349 7.71 6.28 13.81
1/9/2022 11:15:00 AM 0.02 32.036 0.349 7.72 6.45 13.81
1/9/2022 11:30:00 AM 0.02 32.036 0.349 7.72 6.39 13.81
1/9/2022 11:45:00 AM 0.02 32.036 0.348 7.72 5.73 13.8
1/9/2022 12:00:00 PM 0.02 32.036 0.348 7.72 6.38 13.81
1/9/2022 12:15:00 PM 0.03 32.054 0.347 7.72 5.83 13.8
1/9/2022 12:30:00 PM 0.05 32.09 0.346 7.71 6.34 13.79
1/9/2022 12:45:00 PM 0.09 32.162 0.345 7.72 7.49 13.79
1/9/2022 1:00:00 PM 0.11 32.198 0.345 7.71 6.99 13.79
1/9/2022 1:15:00 PM 0.12 32.216 0.344 7.72 7.03 13.79
1/9/2022 1:30:00 PM 0.13 32.234 0.343 7.71 6.93 13.78
1/9/2022 1:45:00 PM 0.15 32.27 0.343 7.71 6.98 13.77
1/9/2022 2:00:00 PM 0.15 32.27 0.342 7.71 7.19 13.77
1/9/2022 2:15:00 PM 0.16 32.288 0.341 7.71 7.71 13.76
1/9/2022 2:30:00 PM 0.17 32.306 0.34 7.7 7.65 13.76
1/9/2022 2:45:00 PM 0.18 32.324 0.34 7.7 7.45 13.75
1/9/2022 3:00:00 PM 0.19 32.342 0.34 7.7 7.78 13.75
1/9/2022 3:15:00 PM 0.21 32.378 0.341 7.7 8.45 13.74
1/9/2022 3:30:00 PM 0.21 32.378 0.341 7.7 8.61 13.73
1/9/2022 3:45:00 PM 0.22 32.396 0.341 7.7 8.5 13.73
1/9/2022 4:00:00 PM 0.22 32.396 0.34 7.69 9.11 13.72
1/9/2022 4:15:00 PM 0.23 32.414 0.339 7.69 9.68 13.71
1/9/2022 4:30:00 PM 0.23 32.414 0.339 7.7 9.42 13.7
1/9/2022 4:45:00 PM 0.24 32.432 0.338 7.68 9.69 13.7
1/9/2022 5:00:00 PM 0.24 32.432 0.338 7.69 9.9 13.69
1/9/2022 5:15:00 PM 0.25 32.45 0.337 7.69 11.39 13.68
1/9/2022 5:30:00 PM 0.25 32.45 0.337 7.68 11.4 13.68
1/9/2022 5:45:00 PM 0.26 32.468 0.336 7.69 13.12 13.67
1/9/2022 6:00:00 PM 0.27 32.486 0.336 7.68 14.21 13.67
1/9/2022 6:15:00 PM 0.26 32.468 0.335 7.68 14.05 13.67
1/9/2022 6:30:00 PM 0.24 32.432 0.335 7.69 14.75 13.66
1/9/2022 6:45:00 PM 0.23 32.414 0.334 7.67 15.42 13.66
1/9/2022 7:00:00 PM 0.24 32.432 0.334 7.68 16.27 13.66
1/9/2022 7:15:00 PM 0.24 32.432 0.333 7.67 16.18 13.66
1/9/2022 7:30:00 PM 0.24 32.432 0.332 7.68 16.4 13.66
1/9/2022 7:45:00 PM 0.24 32.432 0.331 7.68 17.16 13.66
1/9/2022 8:00:00 PM 0.24 32.432 0.331 7.67 18.52 13.67
1/9/2022 8:15:00 PM 0.24 32.432 0.33 7.68 15.98 13.67
1/9/2022 8:30:00 PM 0.24 32.432 0.329 7.67 19.1 13.67
1/9/2022 8:45:00 PM 0.24 32.432 0.328 7.68 20.11 13.67
1/9/2022 9:00:00 PM 0.25 32.45 0.327 7.67 19.96 13.68
1/9/2022 9:15:00 PM 0.25 32.45 0.327 7.68 20.53 13.68
1/9/2022 9:30:00 PM 0.24 32.432 0.326 7.67 21.27 13.69
1/9/2022 9:45:00 PM 0.24 32.432 0.326 7.68 22.58 13.7
1/9/2022 10:00:00 PM 0.24 32.432 0.325 7.68 22.55 13.7
1/9/2022 10:15:00 PM 0.22 32.396 0.325 7.68 19.89 13.7
1/9/2022 10:30:00 PM 0.2 32.36 0.325 7.68 21.93 13.71
1/9/2022 10:45:00 PM 0.17 32.306 0.325 7.69 20.59 13.72
1/9/2022 11:00:00 PM 0.16 32.288 0.325 7.68 20.67 13.72
1/9/2022 11:15:00 PM 0.16 32.288 0.326 7.68 19.05 13.72
1/9/2022 11:30:00 PM 0.15 32.27 0.326 7.69 20.14 13.72
1/9/2022 11:45:00 PM 0.14 32.252 0.326 7.69 19.75 13.72
1/10/2022 12:00:00 AM 0.13 32.234 0.326 7.68 31.04 13.73
1/10/2022 12:15:00 AM 0.13 32.234 0.325 7.69 19.51 13.72
1/10/2022 12:30:00 AM 0.14 32.252 0.324 7.69 19.23 13.73
1/10/2022 12:45:00 AM 0.16 32.288 0.323 7.69 18.96 13.72
1/10/2022 1:00:00 AM 0.18 32.324 0.322 7.69 20.07 13.71
1/10/2022 1:15:00 AM 0.21 32.378 0.321 7.69 19.06 13.7
1/10/2022 1:30:00 AM 0.23 32.414 0.32 7.68 18.65 13.69
1/10/2022 1:45:00 AM 0.28 32.504 0.318 7.69 18.21 13.67
1/10/2022 2:00:00 AM 0.32 32.576 0.317 7.67 17.94 13.66
1/10/2022 2:15:00 AM 0.36 32.648 0.315 7.68 18.9 13.63
1/10/2022 2:30:00 AM 0.39 32.702 0.313 7.68 17.5 13.62
1/10/2022 2:45:00 AM 0.43 32.774 0.311 7.67 18.28 13.6
1/10/2022 3:00:00 AM 0.48 32.864 0.309 7.67 17.04 13.59
1/10/2022 3:15:00 AM 0.52 32.936 0.307 7.66 17.17 13.58
1/10/2022 3:30:00 AM 0.55 32.99 0.305 7.67 17.7 13.57
1/10/2022 3:45:00 AM 0.58 33.044 0.303 7.66 16.42 13.56
1/10/2022 4:00:00 AM 0.6 33.08 0.301 7.67 15.35 13.56
1/10/2022 4:15:00 AM 0.6 33.08 0.299 7.66 16.35 13.56
1/10/2022 4:30:00 AM 0.61 33.098 0.296 7.66 16.52 13.55
1/10/2022 4:45:00 AM 0.61 33.098 0.294 7.65 15.68 13.55
1/10/2022 5:00:00 AM 0.61 33.098 0.291 7.66 15.67 13.56
1/10/2022 5:15:00 AM 0.61 33.098 0.289 7.65 15.52 13.56
1/10/2022 5:30:00 AM 0.59 33.062 0.287 7.64 15.22 13.56
1/10/2022 5:45:00 AM 0.57 33.026 0.285 7.64 15.29 13.57
1/10/2022 6:00:00 AM 0.54 32.972 0.284 7.64 14.73 13.58
1/10/2022 6:15:00 AM 0.51 32.918 0.282 7.63 14.75 13.59
1/10/2022 6:30:00 AM 0.49 32.882 0.281 7.64 14.16 13.6
1/10/2022 6:45:00 AM 0.47 32.846 0.28 7.63 14.02 13.61
1/10/2022 7:00:00 AM 0.45 32.81 0.279 7.64 13.21 13.62
1/10/2022 7:15:00 AM 0.42 32.756 0.278 7.62 13.84 13.63
1/10/2022 7:30:00 AM 0.4 32.72 0.277 7.63 14.06 13.64
1/10/2022 7:45:00 AM 0.36 32.648 0.277 7.62 13.33 13.66
1/10/2022 8:00:00 AM 0.34 32.612 0.276 7.63 12.63 13.67
1/10/2022 8:15:00 AM 0.32 32.576 0.276 7.62 12.55 13.69
1/10/2022 8:30:00 AM 0.32 32.576 0.275 7.63 12.25 13.7
1/10/2022 8:45:00 AM 0.32 32.576 0.275 7.63 11.91 13.72
1/10/2022 9:00:00 AM 0.31 32.558 0.275 7.62 13.03 13.73
1/10/2022 9:15:00 AM 0.3 32.54 0.275 7.62 11.7 13.74
1/10/2022 9:30:00 AM 0.31 32.558 0.275 7.62 11.44 13.76
1/10/2022 9:45:00 AM 0.31 32.558 0.275 7.63 11.85 13.77
1/10/2022 10:00:00 AM 0.32 32.576 0.275 7.63 12.13 13.78
1/10/2022 10:15:00 AM 0.33 32.594 0.275 7.63 11.66 13.79
1/10/2022 10:30:00 AM 0.33 32.594 0.274 7.61 11.07 13.8
1/10/2022 10:45:00 AM 0.34 32.612 0.274 7.63 10.99 13.81
1/10/2022 11:00:00 AM 0.34 32.612 0.274 7.63 10.98 13.82
1/10/2022 11:15:00 AM 0.35 32.63 0.274 7.62 11.02 13.82
1/10/2022 11:30:00 AM 0.36 32.648 0.274 7.63 10.53 13.83
1/10/2022 11:45:00 AM 0.38 32.684 0.273 7.63 11.18 13.83
1/10/2022 12:00:00 PM 0.4 32.72 0.273 7.63 11.12 13.83
1/10/2022 12:15:00 PM 0.42 32.756 0.273 7.62 10.5 13.83
1/10/2022 12:30:00 PM 0.43 32.774 0.272 7.63 11.5 13.84
1/10/2022 12:45:00 PM 0.43 32.774 0.272 7.63 10.41 13.84
1/10/2022 1:00:00 PM 0.45 32.81 0.271 7.63 10.6 13.84
1/10/2022 1:15:00 PM 0.45 32.81 0.271 7.63 10.9 13.85
1/10/2022 1:30:00 PM 0.48 32.864 0.271 7.63 10.2 13.84
1/10/2022 1:45:00 PM 0.51 32.918 0.27 7.63 10.12 13.84
1/10/2022 2:00:00 PM 0.55 32.99 0.27 7.62 10.27 13.84
1/10/2022 2:15:00 PM 0.56 33.008 0.269 7.63 9.62 13.83
1/10/2022 2:30:00 PM 0.57 33.026 0.269 7.63 9.86 13.83
1/10/2022 2:45:00 PM 0.58 33.044 0.269 7.63 9.71 13.83
1/10/2022 3:00:00 PM 0.56 33.008 0.268 7.63 9.2 13.83
1/10/2022 3:15:00 PM 0.52 32.936 0.268 7.63 9.9 13.83
1/10/2022 3:30:00 PM 0.49 32.882 0.268 7.63 9.37 13.83
1/10/2022 3:45:00 PM 0.48 32.864 0.268 7.63 9.24 13.83
1/10/2022 4:00:00 PM 0.43 32.774 0.268 7.63 9.24 13.83
1/10/2022 4:15:00 PM 0.39 32.702 0.268 7.62 11.07 13.83
1/10/2022 4:30:00 PM 0.33 32.594 0.267 7.63 9.7 13.84
1/10/2022 4:45:00 PM 0.29 32.522 0.267 7.62 9.09 13.83
1/10/2022 5:00:00 PM 0.26 32.468 0.267 7.62 8.66 13.84
1/10/2022 5:15:00 PM 0.22 32.396 0.267 7.62 8.69 13.84
1/10/2022 5:30:00 PM 0.19 32.342 0.267 7.61 8.17 13.83
1/10/2022 5:45:00 PM 0.17 32.306 0.267 7.62 8.4 13.83
1/10/2022 6:00:00 PM 0.13 32.234 0.267 7.61 9.23 13.83
1/10/2022 6:15:00 PM 0.11 32.198 0.267 7.62 8.76 13.84
1/10/2022 6:30:00 PM 0.1 32.18 0.267 7.61 8.85 13.83
1/10/2022 6:45:00 PM 0.08 32.144 0.267 7.61 8.88 13.85
1/10/2022 7:00:00 PM 0.05 32.09 0.267 7.62 8.24 13.85
1/10/2022 7:15:00 PM 0.01 32.018 0.267 7.6 8.8 13.86
1/10/2022 7:30:00 PM -0.01 31.982 0.267 7.61 8.28 13.87
1/10/2022 7:45:00 PM -0.04 31.928 0.267 7.61 8.6 13.89
1/10/2022 8:00:00 PM -0.04 31.928 0.267 7.61 8.28 13.9
1/10/2022 8:15:00 PM -0.04 31.928 0.268 7.6 8.08 13.9
1/10/2022 8:30:00 PM -0.04 31.928 0.268 7.61 8.13 13.92
1/10/2022 8:45:00 PM -0.04 31.928 0.268 7.61 7.88 13.93
1/10/2022 9:00:00 PM -0.05 31.91 0.268 7.61 8.47 13.94
1/10/2022 9:15:00 PM -0.04 31.928 0.268 7.6 7.51 13.95
1/10/2022 9:30:00 PM -0.04 31.928 0.269 7.6 7.78 13.95
1/10/2022 9:45:00 PM -0.04 31.928 0.269 7.61 7.6 13.96
1/10/2022 10:00:00 PM -0.04 31.928 0.269 7.61 7.63 13.97
1/10/2022 10:15:00 PM -0.04 31.928 0.269 7.6 7.07 13.97
1/10/2022 10:30:00 PM -0.04 31.928 0.27 7.61 6.94 13.97
1/10/2022 10:45:00 PM -0.04 31.928 0.27 7.59 7.54 13.98
1/10/2022 11:00:00 PM -0.03 31.946 0.27 7.6 6.61 13.98
1/10/2022 11:15:00 PM -0.03 31.946 0.27 7.6 6.83 13.99
1/10/2022 11:30:00 PM -0.04 31.928 0.27 7.6 6.74 14
1/10/2022 11:45:00 PM -0.04 31.928 0.271 7.59 6.89 14
1/11/2022 12:00:00 AM -0.03 31.946 0.271 7.6 6.29 14
1/11/2022 12:15:00 AM -0.04 31.928 0.271 7.6 6.29 14.02
1/11/2022 12:30:00 AM -0.03 31.946 0.272 7.6 6.33 14.02
1/11/2022 12:45:00 AM -0.04 31.928 0.272 7.6 6.06 14.02
1/11/2022 1:00:00 AM -0.04 31.928 0.273 7.6 5.93 14.03
1/11/2022 1:15:00 AM -0.03 31.946 0.273 7.59 5.64 14.04
1/11/2022 1:30:00 AM -0.04 31.928 0.273 7.6 5.99 14.04
1/11/2022 1:45:00 AM -0.03 31.946 0.274 7.6 5.93 14.05
1/11/2022 2:00:00 AM -0.03 31.946 0.274 7.6 5.93 14.06
1/11/2022 2:15:00 AM -0.03 31.946 0.274 7.6 5.77 14.06
1/11/2022 2:30:00 AM -0.03 31.946 0.275 7.6 5.54 14.07
1/11/2022 2:45:00 AM -0.03 31.946 0.275 7.59 5.37 14.06
1/11/2022 3:00:00 AM -0.03 31.946 0.275 7.6 5.46 14.08
1/11/2022 3:15:00 AM -0.03 31.946 0.276 7.6 5.07 14.08
1/11/2022 3:30:00 AM -0.03 31.946 0.276 7.6 5.81 14.08
1/11/2022 3:45:00 AM -0.03 31.946 0.276 7.6 5.04 14.08
1/11/2022 4:00:00 AM -0.03 31.946 0.277 7.6 5.03 14.09
1/11/2022 4:15:00 AM -0.03 31.946 0.277 7.6 5.27 14.09
1/11/2022 4:30:00 AM -0.03 31.946 0.277 7.6 5.07 14.1
1/11/2022 4:45:00 AM -0.03 31.946 0.278 7.59 4.92 14.1
1/11/2022 5:00:00 AM -0.02 31.964 0.278 7.6 4.88 14.09
1/11/2022 5:15:00 AM -0.02 31.964 0.278 7.59 4.74 14.08
1/11/2022 5:30:00 AM -0.02 31.964 0.279 7.59 4.8 14.08
1/11/2022 5:45:00 AM -0.02 31.964 0.279 7.58 4.85 14.08
1/11/2022 6:00:00 AM -0.01 31.982 0.279 7.58 5.25 14.07
1/11/2022 6:15:00 AM -0.01 31.982 0.28 7.58 4.86 14.06
1/11/2022 6:30:00 AM -0.01 31.982 0.28 7.58 4.7 14.07
1/11/2022 6:45:00 AM -0.01 31.982 0.28 7.58 4.52 14.07
1/11/2022 7:00:00 AM -0.02 31.964 0.281 7.58 4.52 14.09
1/11/2022 7:15:00 AM -0.01 31.982 0.281 7.57 4.42 14.08
1/11/2022 7:30:00 AM -0.01 31.982 0.282 7.56 5.03 14.07
1/11/2022 7:45:00 AM 0 32 0.282 7.57 4.37 14.07
1/11/2022 8:00:00 AM 0 32 0.282 7.57 4.56 14.07
1/11/2022 8:15:00 AM 0.01 32.018 0.282 7.56 4.65 14.06
1/11/2022 8:30:00 AM 0 32 0.283 7.56 4.34 14.08
1/11/2022 8:45:00 AM 0 32 0.283 7.58 4.16 14.1
1/11/2022 9:00:00 AM 0 32 0.283 7.57 4.53 14.1
1/11/2022 9:15:00 AM 0 32 0.283 7.58 4.34 14.12
1/11/2022 9:30:00 AM 0 32 0.284 7.58 4.3 14.13
1/11/2022 9:45:00 AM 0.01 32.018 0.284 7.58 4.51 14.13
1/11/2022 10:00:00 AM 0.02 32.036 0.284 7.58 4.18 14.13
1/11/2022 10:15:00 AM 0.02 32.036 0.284 7.57 4.37 14.13
1/11/2022 10:30:00 AM 0.02 32.036 0.284 7.58 4.35 14.14
1/11/2022 10:45:00 AM 0.03 32.054 0.284 7.57 4.43 14.13
1/11/2022 11:00:00 AM 0.01 32.018 0.285 7.59 4.25 14.15
1/11/2022 11:15:00 AM 0.02 32.036 0.285 7.58 4.41 14.13
1/11/2022 11:30:00 AM 0.02 32.036 0.285 7.58 4.37 14.15
1/11/2022 11:45:00 AM 0.01 32.018 0.285 7.59 4.02 14.14
1/11/2022 12:00:00 PM 0.02 32.036 0.285 7.59 4.12 14.14
1/11/2022 12:15:00 PM 0.03 32.054 0.285 7.56 4.64 14.12
1/11/2022 12:30:00 PM 0.03 32.054 0.285 7.58 4.23 14.13
1/11/2022 12:45:00 PM 0.02 32.036 0.285 7.59 4.25 14.15
1/11/2022 1:00:00 PM 0.03 32.054 0.285 7.59 4.37 14.14
1/11/2022 1:15:00 PM 0.02 32.036 0.286 7.58 4.52 14.15
1/11/2022 1:30:00 PM 0.01 32.018 0.286 7.6 4.4 14.16
1/11/2022 1:45:00 PM 0.01 32.018 0.286 7.6 4.49 14.15
1/11/2022 2:00:00 PM 0.03 32.054 0.286 7.6 4.47 14.16
1/11/2022 2:15:00 PM 0.03 32.054 0.286 7.6 4.47 14.15
1/11/2022 2:30:00 PM 0 32 0.286 7.6 4.58 14.16
1/11/2022 2:45:00 PM 0.02 32.036 0.286 7.61 4.45 14.16
1/11/2022 3:00:00 PM 0.03 32.054 0.286 7.6 4.67 14.15
1/11/2022 3:15:00 PM 0.02 32.036 0.286 7.6 4.3 14.16
1/11/2022 3:30:00 PM 0.02 32.036 0.286 7.61 4.36 14.15
1/11/2022 3:45:00 PM 0.01 32.018 0.286 7.6 4.56 14.15
1/11/2022 4:00:00 PM -0.01 31.982 0.286 7.61 4.63 14.15
1/11/2022 4:15:00 PM -0.01 31.982 0.286 7.59 4.92 14.15
1/11/2022 4:30:00 PM -0.02 31.964 0.286 7.61 4.27 14.16
1/11/2022 4:45:00 PM -0.02 31.964 0.286 7.61 4.31 14.16
1/11/2022 5:00:00 PM -0.02 31.964 0.286 7.61 4.25 14.15
1/11/2022 5:15:00 PM -0.02 31.964 0.286 7.62 4.22 14.15
1/11/2022 5:30:00 PM -0.02 31.964 0.287 7.61 4.37 14.13
1/11/2022 5:45:00 PM -0.02 31.964 0.287 7.61 4.32 14.13
1/11/2022 6:00:00 PM -0.02 31.964 0.287 7.6 4.31 14.12
1/11/2022 6:15:00 PM -0.03 31.946 0.287 7.61 4.35 14.13
1/11/2022 6:30:00 PM -0.02 31.964 0.287 7.61 4.32 14.12
1/11/2022 6:45:00 PM -0.03 31.946 0.288 7.61 4.34 14.13
1/11/2022 7:00:00 PM -0.03 31.946 0.288 7.6 4.21 14.13
1/11/2022 7:15:00 PM -0.03 31.946 0.288 7.61 4.43 14.11
1/11/2022 7:30:00 PM -0.03 31.946 0.288 7.61 4.41 14.11
1/11/2022 7:45:00 PM -0.03 31.946 0.288 7.61 4.6 14.12
1/11/2022 8:00:00 PM -0.03 31.946 0.289 7.62 4.58 14.13
1/11/2022 8:15:00 PM -0.03 31.946 0.289 7.62 4.21 14.12
1/11/2022 8:30:00 PM -0.03 31.946 0.289 7.6 4.63 14.12
1/11/2022 8:45:00 PM -0.03 31.946 0.29 7.62 4.85 14.11
1/11/2022 9:00:00 PM -0.03 31.946 0.29 7.6 4.3 14.11
1/11/2022 9:15:00 PM -0.03 31.946 0.291 7.61 4.52 14.11
1/11/2022 9:30:00 PM -0.03 31.946 0.291 7.62 4.28 14.1
1/11/2022 9:45:00 PM -0.03 31.946 0.292 7.61 4.33 14.1
1/11/2022 10:00:00 PM -0.03 31.946 0.292 7.62 4.34 14.09
1/11/2022 10:15:00 PM -0.02 31.964 0.292 7.6 4.18 14.08
1/11/2022 10:30:00 PM -0.03 31.946 0.293 7.61 4.62 14.08
1/11/2022 10:45:00 PM -0.03 31.946 0.293 7.61 4.24 14.07
1/11/2022 11:00:00 PM -0.02 31.964 0.294 7.6 4.11 14.08
1/11/2022 11:15:00 PM -0.02 31.964 0.294 7.61 4.09 14.07
1/11/2022 11:30:00 PM -0.03 31.946 0.295 7.61 4.48 14.08
1/11/2022 11:45:00 PM -0.03 31.946 0.295 7.6 3.95 14.07
1/12/2022 12:00:00 AM -0.02 31.964 0.295 7.6 4.17 14.06
1/12/2022 12:15:00 AM -0.03 31.946 0.296 7.61 4.09 14.07
1/12/2022 12:30:00 AM -0.02 31.964 0.296 7.6 4.02 14.07
1/12/2022 12:45:00 AM -0.03 31.946 0.297 7.61 4.09 14.06
1/12/2022 1:00:00 AM -0.02 31.964 0.297 7.6 3.97 14.05
1/12/2022 1:15:00 AM -0.02 31.964 0.298 7.6 4.1 14.05
1/12/2022 1:30:00 AM -0.02 31.964 0.298 7.6 3.99 14.03
1/12/2022 1:45:00 AM -0.02 31.964 0.298 7.6 4.19 14.03
1/12/2022 2:00:00 AM -0.02 31.964 0.299 7.6 3.92 14.03
1/12/2022 2:15:00 AM -0.01 31.982 0.299 7.58 3.81 14.02
1/12/2022 2:30:00 AM -0.01 31.982 0.3 7.59 3.67 14
1/12/2022 2:45:00 AM -0.01 31.982 0.3 7.59 3.75 14.01
1/12/2022 3:00:00 AM -0.02 31.964 0.3 7.59 3.9 14.01
1/12/2022 3:15:00 AM -0.01 31.982 0.301 7.59 4.06 14
1/12/2022 3:30:00 AM -0.01 31.982 0.301 7.58 3.75 14
1/12/2022 3:45:00 AM -0.01 31.982 0.302 7.59 3.8 14
1/12/2022 4:00:00 AM -0.01 31.982 0.302 7.59 3.93 13.98
1/12/2022 4:15:00 AM -0.01 31.982 0.302 7.57 3.64 13.99
1/12/2022 4:30:00 AM -0.01 31.982 0.303 7.59 3.66 13.98
1/12/2022 4:45:00 AM -0.01 31.982 0.303 7.57 3.77 13.99
1/12/2022 5:00:00 AM 0 32 0.303 7.57 3.54 13.96
1/12/2022 5:15:00 AM -0.01 31.982 0.304 7.59 3.48 13.98
1/12/2022 5:30:00 AM -0.01 31.982 0.304 7.59 3.5 13.98
1/12/2022 5:45:00 AM -0.01 31.982 0.304 7.59 3.75 13.97
1/12/2022 6:00:00 AM -0.01 31.982 0.305 7.59 3.74 13.97
1/12/2022 6:15:00 AM -0.01 31.982 0.305 7.59 3.92 13.97
1/12/2022 6:30:00 AM -0.01 31.982 0.305 7.59 3.77 13.96
1/12/2022 6:45:00 AM -0.01 31.982 0.305 7.57 3.69 13.96
1/12/2022 7:00:00 AM 0 32 0.306 7.57 3.65 13.93
1/12/2022 7:15:00 AM -0.02 31.964 0.306 7.59 3.76 13.97
1/12/2022 7:30:00 AM -0.01 31.982 0.306 7.59 3.77 13.97
1/12/2022 7:45:00 AM -0.02 31.964 0.306 7.6 3.7 13.98
1/12/2022 8:00:00 AM -0.02 31.964 0.307 7.59 3.58 13.97
1/12/2022 8:15:00 AM -0.01 31.982 0.307 7.58 3.73 13.97
1/12/2022 8:30:00 AM -0.01 31.982 0.307 7.59 3.54 13.98
1/12/2022 8:45:00 AM -0.01 31.982 0.307 7.59 3.89 13.98
1/12/2022 9:00:00 AM 0 32 0.307 7.58 3.56 13.98
1/12/2022 9:15:00 AM 0.01 32.018 0.307 7.59 3.6 13.98
1/12/2022 9:30:00 AM 0.01 32.018 0.307 7.59 3.49 13.98
1/12/2022 9:45:00 AM 0.02 32.036 0.307 7.59 3.57 13.98
1/12/2022 10:00:00 AM 0.02 32.036 0.306 7.6 3.37 13.98
1/12/2022 10:15:00 AM 0.02 32.036 0.306 7.6 3.43 13.98
1/12/2022 10:30:00 AM 0.02 32.036 0.306 7.6 3.52 13.98
1/12/2022 10:45:00 AM 0.02 32.036 0.306 7.6 3.47 13.97
1/12/2022 11:00:00 AM 0.02 32.036 0.306 7.6 3.4 13.97
1/12/2022 11:15:00 AM 0.02 32.036 0.306 7.61 3.46 13.96
1/12/2022 11:30:00 AM 0.02 32.036 0.305 7.6 3.44 13.95
1/12/2022 11:45:00 AM 0.02 32.036 0.305 7.61 3.57 13.95
1/12/2022 12:00:00 PM 0.02 32.036 0.305 7.61 3.58 13.94
1/12/2022 12:15:00 PM 0.03 32.054 0.305 7.61 4.04 13.93
1/12/2022 12:30:00 PM 0.04 32.072 0.304 7.61 3.92 13.93
1/12/2022 12:45:00 PM 0.03 32.054 0.304 7.61 3.85 13.93
1/12/2022 1:00:00 PM 0.03 32.054 0.304 7.62 3.83 13.92
1/12/2022 1:15:00 PM 0.02 32.036 0.303 7.62 4.22 13.92
1/12/2022 1:30:00 PM 0.03 32.054 0.303 7.63 4.2 13.91
1/12/2022 1:45:00 PM 0.04 32.072 0.302 7.63 4.63 13.91
1/12/2022 2:00:00 PM 0.04 32.072 0.301 7.64 4.9 13.9
1/12/2022 2:15:00 PM 0.01 32.018 0.301 7.62 5.29 13.9
1/12/2022 2:30:00 PM 0.01 32.018 0.3 7.64 5.71 13.89
1/12/2022 2:45:00 PM 0 32 0.3 7.64 5.71 13.89
1/12/2022 3:00:00 PM 0 32 0.299 7.65 7.03 13.88
1/12/2022 3:15:00 PM 0 32 0.299 7.64 5.97 13.88
1/12/2022 3:30:00 PM -0.01 31.982 0.299 7.65 6.51 13.88
1/12/2022 3:45:00 PM -0.01 31.982 0.299 7.65 6.9 13.87
1/12/2022 4:00:00 PM -0.01 31.982 0.298 7.65 6.59 13.89
1/12/2022 4:15:00 PM -0.02 31.964 0.298 7.66 6.53 13.87
1/12/2022 4:30:00 PM -0.02 31.964 0.298 7.65 6.87 13.88
1/12/2022 4:45:00 PM -0.02 31.964 0.298 7.66 7.11 13.88
1/12/2022 5:00:00 PM -0.02 31.964 0.298 7.66 7.59 13.88
1/12/2022 5:15:00 PM -0.03 31.946 0.299 7.66 8.93 13.88
1/12/2022 5:30:00 PM -0.03 31.946 0.299 7.66 8.77 13.87
1/12/2022 5:45:00 PM -0.03 31.946 0.3 7.66 8.92 13.87
1/12/2022 6:00:00 PM -0.03 31.946 0.301 7.66 9.64 13.86
1/12/2022 6:15:00 PM -0.03 31.946 0.301 7.65 8.92 13.86
1/12/2022 6:30:00 PM -0.03 31.946 0.301 7.66 9.03 13.85
1/12/2022 6:45:00 PM -0.03 31.946 0.301 7.65 10.01 13.84
1/12/2022 7:00:00 PM -0.03 31.946 0.3 7.65 8.69 13.85
1/12/2022 7:15:00 PM -0.03 31.946 0.3 7.65 8.85 13.84
1/12/2022 7:30:00 PM -0.03 31.946 0.301 7.65 8.35 13.84
1/12/2022 7:45:00 PM -0.03 31.946 0.301 7.65 8.44 13.84
1/12/2022 8:00:00 PM -0.03 31.946 0.301 7.65 8.05 13.84
1/12/2022 8:15:00 PM -0.03 31.946 0.302 7.65 7.82 13.84
1/12/2022 8:30:00 PM -0.03 31.946 0.303 7.66 8.02 13.83
1/12/2022 8:45:00 PM -0.03 31.946 0.304 7.66 7.75 13.83
1/12/2022 9:00:00 PM -0.03 31.946 0.304 7.66 7.66 13.83
1/12/2022 9:15:00 PM -0.02 31.964 0.305 7.66 7.47 13.82
1/12/2022 9:30:00 PM -0.03 31.946 0.306 7.66 7.31 13.83
1/12/2022 9:45:00 PM -0.03 31.946 0.307 7.66 7.84 13.82
1/12/2022 10:00:00 PM -0.03 31.946 0.308 7.65 8.11 13.83
1/12/2022 10:15:00 PM -0.02 31.964 0.308 7.66 7.18 13.81
1/12/2022 10:30:00 PM -0.02 31.964 0.309 7.65 7.15 13.81
1/12/2022 10:45:00 PM -0.02 31.964 0.31 7.66 7.14 13.82
1/12/2022 11:00:00 PM -0.02 31.964 0.31 7.65 7.3 13.79
1/12/2022 11:15:00 PM -0.02 31.964 0.311 7.66 7.16 13.8
1/12/2022 11:30:00 PM -0.02 31.964 0.312 7.66 6.52 13.8
1/12/2022 11:45:00 PM -0.02 31.964 0.312 7.64 6.78 13.79
1/13/2022 12:00:00 AM -0.02 31.964 0.312 7.65 6.9 13.79
1/13/2022 12:15:00 AM -0.02 31.964 0.312 7.65 6.5 13.78
1/13/2022 12:30:00 AM -0.02 31.964 0.312 7.65 7.25 13.77
1/13/2022 12:45:00 AM -0.02 31.964 0.312 7.65 7.35 13.77
1/13/2022 1:00:00 AM -0.01 31.982 0.312 7.64 6.82 13.76
1/13/2022 1:15:00 AM -0.01 31.982 0.312 7.63 7.13 13.76
1/13/2022 1:30:00 AM -0.01 31.982 0.312 7.64 6.58 13.76
1/13/2022 1:45:00 AM -0.01 31.982 0.311 7.64 6.63 13.76
1/13/2022 2:00:00 AM -0.01 31.982 0.311 7.64 7.1 13.75
1/13/2022 2:15:00 AM -0.01 31.982 0.311 7.63 6.69 13.74
1/13/2022 2:30:00 AM -0.01 31.982 0.31 7.63 6.94 13.75
1/13/2022 2:45:00 AM -0.01 31.982 0.31 7.64 5.98 13.74
1/13/2022 3:00:00 AM 0 32 0.309 7.63 6.32 13.74
1/13/2022 3:15:00 AM 0 32 0.308 7.63 6.62 13.73
1/13/2022 3:30:00 AM 0 32 0.308 7.63 6.35 13.74
1/13/2022 3:45:00 AM 0.01 32.018 0.307 7.63 6.03 13.73
1/13/2022 4:00:00 AM 0.01 32.018 0.306 7.63 6.17 13.73
1/13/2022 4:15:00 AM 0 32 0.306 7.63 6.3 13.73
1/13/2022 4:30:00 AM 0 32 0.305 7.63 6.54 13.74
1/13/2022 4:45:00 AM 0 32 0.305 7.63 6.16 13.74
1/13/2022 5:00:00 AM -0.01 31.982 0.304 7.62 5.94 13.74
1/13/2022 5:15:00 AM 0 32 0.304 7.61 5.69 13.74
1/13/2022 5:30:00 AM 0 32 0.304 7.62 5.67 13.74
1/13/2022 5:45:00 AM 0 32 0.303 7.62 6.08 13.73
1/13/2022 6:00:00 AM 0 32 0.303 7.62 5.49 13.73
1/13/2022 6:15:00 AM 0.01 32.018 0.303 7.61 5.33 13.74
1/13/2022 6:30:00 AM 0.01 32.018 0.303 7.62 5.38 13.73
1/13/2022 6:45:00 AM 0.01 32.018 0.303 7.62 5.86 13.73
1/13/2022 7:00:00 AM 0.01 32.018 0.303 7.62 5.81 13.74
1/13/2022 7:15:00 AM 0.02 32.036 0.302 7.61 5.52 13.73
1/13/2022 7:30:00 AM 0.02 32.036 0.302 7.62 5.54 13.74
1/13/2022 7:45:00 AM 0.02 32.036 0.302 7.61 5.55 13.74
1/13/2022 8:00:00 AM 0.02 32.036 0.302 7.62 5.5 13.74
1/13/2022 8:15:00 AM 0.03 32.054 0.302 7.62 5.4 13.74
1/13/2022 8:30:00 AM 0.04 32.072 0.302 7.62 5.81 13.75
1/13/2022 8:45:00 AM 0.05 32.09 0.302 7.62 5.11 13.76
1/13/2022 9:00:00 AM 0.05 32.09 0.302 7.62 6.12 13.76
1/13/2022 9:15:00 AM 0.06 32.108 0.302 7.62 5.74 13.76
1/13/2022 9:30:00 AM 0.08 32.144 0.302 7.62 5.93 13.76
1/13/2022 9:45:00 AM 0.09 32.162 0.302 7.63 5.79 13.77
1/13/2022 10:00:00 AM 0.12 32.216 0.302 7.63 5.7 13.77
1/13/2022 10:15:00 AM 0.15 32.27 0.302 7.62 6.09 13.78
1/13/2022 10:30:00 AM 0.18 32.324 0.302 7.62 6.47 13.77
1/13/2022 10:45:00 AM 0.22 32.396 0.302 7.63 6.08 13.77
1/13/2022 11:00:00 AM 0.24 32.432 0.302 7.63 6.39 13.77
1/13/2022 11:15:00 AM 0.25 32.45 0.302 7.64 5.78 13.77
1/13/2022 11:30:00 AM 0.26 32.468 0.302 7.64 6.48 13.75
1/13/2022 11:45:00 AM 0.27 32.486 0.302 7.64 6.51 13.75
1/13/2022 12:00:00 PM 0.27 32.486 0.302 7.64 7.07 13.74
1/13/2022 12:15:00 PM 0.28 32.504 0.302 7.64 6.12 13.75
1/13/2022 12:30:00 PM 0.31 32.558 0.302 7.64 6.51 13.75
1/13/2022 12:45:00 PM 0.32 32.576 0.302 7.65 8.07 13.73
1/13/2022 1:00:00 PM 0.35 32.63 0.302 7.65 6.31 13.72
1/13/2022 1:15:00 PM 0.36 32.648 0.302 7.65 6.76 13.72
1/13/2022 1:30:00 PM 0.36 32.648 0.302 7.65 7.35 13.71
1/13/2022 1:45:00 PM 0.36 32.648 0.302 7.66 7.18 13.7
1/13/2022 2:00:00 PM 0.36 32.648 0.301 7.66 7.83 13.69
1/13/2022 2:15:00 PM 0.37 32.666 0.301 7.65 7.69 13.69
1/13/2022 2:30:00 PM 0.38 32.684 0.301 7.66 7.71 13.69
1/13/2022 2:45:00 PM 0.4 32.72 0.301 7.66 7.71 13.68
1/13/2022 3:00:00 PM 0.4 32.72 0.301 7.65 7.25 13.68
1/13/2022 3:15:00 PM 0.4 32.72 0.301 7.66 8.37 13.67
1/13/2022 3:30:00 PM 0.41 32.738 0.301 7.66 7.2 13.66
1/13/2022 3:45:00 PM 0.39 32.702 0.301 7.66 7.83 13.66
1/13/2022 4:00:00 PM 0.38 32.684 0.301 7.64 8.23 13.65
1/13/2022 4:15:00 PM 0.39 32.702 0.301 7.65 7.18 13.65
1/13/2022 4:30:00 PM 0.39 32.702 0.301 7.66 7.33 13.64
1/13/2022 4:45:00 PM 0.39 32.702 0.301 7.66 8.07 13.64
1/13/2022 5:00:00 PM 0.39 32.702 0.301 7.65 7.36 13.63
1/13/2022 5:15:00 PM 0.39 32.702 0.301 7.66 7.33 13.62
1/13/2022 5:30:00 PM 0.38 32.684 0.301 7.65 7.38 13.61
1/13/2022 5:45:00 PM 0.38 32.684 0.301 7.65 6.82 13.62
1/13/2022 6:00:00 PM 0.39 32.702 0.301 7.65 7.31 13.61
1/13/2022 6:15:00 PM 0.39 32.702 0.301 7.65 7.59 13.61
1/13/2022 6:30:00 PM 0.39 32.702 0.301 7.65 8.37 13.6
1/13/2022 6:45:00 PM 0.39 32.702 0.301 7.64 7.53 13.6
1/13/2022 7:00:00 PM 0.4 32.72 0.301 7.64 7.16 13.6
1/13/2022 7:15:00 PM 0.4 32.72 0.301 7.64 7.32 13.59
1/13/2022 7:30:00 PM 0.4 32.72 0.301 7.64 8.3 13.59
1/13/2022 7:45:00 PM 0.41 32.738 0.301 7.64 7.83 13.59
1/13/2022 8:00:00 PM 0.42 32.756 0.301 7.64 7.04 13.59
1/13/2022 8:15:00 PM 0.42 32.756 0.301 7.63 6.68 13.58
1/13/2022 8:30:00 PM 0.43 32.774 0.301 7.64 7.79 13.58
1/13/2022 8:45:00 PM 0.44 32.792 0.3 7.64 6.82 13.57
1/13/2022 9:00:00 PM 0.44 32.792 0.3 7.64 6.77 13.58
1/13/2022 9:15:00 PM 0.44 32.792 0.3 7.63 7.29 13.57
1/13/2022 9:30:00 PM 0.45 32.81 0.3 7.63 6.86 13.57
1/13/2022 9:45:00 PM 0.45 32.81 0.3 7.62 6.42 13.57
1/13/2022 10:00:00 PM 0.46 32.828 0.3 7.63 6.28 13.58
1/13/2022 10:15:00 PM 0.46 32.828 0.3 7.62 6.37 13.57
1/13/2022 10:30:00 PM 0.46 32.828 0.301 7.63 6.34 13.57
1/13/2022 10:45:00 PM 0.47 32.846 0.301 7.63 6.51 13.57
1/13/2022 11:00:00 PM 0.48 32.864 0.301 7.62 6.34 13.57
1/13/2022 11:15:00 PM 0.49 32.882 0.301 7.63 6.41 13.56
1/13/2022 11:30:00 PM 0.49 32.882 0.302 7.63 6.22 13.56
1/13/2022 11:45:00 PM 0.49 32.882 0.302 7.63 6.43 13.57
1/14/2022 12:00:00 AM 0.49 32.882 0.302 7.62 6.5 13.56
1/14/2022 12:15:00 AM 0.49 32.882 0.303 7.63 6.35 13.56
1/14/2022 12:30:00 AM 0.5 32.9 0.303 7.63 6.48 13.56
1/14/2022 12:45:00 AM 0.5 32.9 0.303 7.63 6.47 13.55
1/14/2022 1:00:00 AM 0.5 32.9 0.303 7.63 7.28 13.56
1/14/2022 1:15:00 AM 0.5 32.9 0.303 7.63 6.73 13.55
1/14/2022 1:30:00 AM 0.52 32.936 0.303 7.63 6.39 13.55
1/14/2022 1:45:00 AM 0.52 32.936 0.303 7.63 8.26 13.55
1/14/2022 2:00:00 AM 0.53 32.954 0.303 7.62 6.31 13.54
1/14/2022 2:15:00 AM 0.55 32.99 0.304 7.63 6.37 13.53
1/14/2022 2:30:00 AM 0.56 33.008 0.304 7.63 6.33 13.53
1/14/2022 2:45:00 AM 0.57 33.026 0.304 7.63 5.91 13.52
1/14/2022 3:00:00 AM 0.59 33.062 0.305 7.63 6.08 13.51
1/14/2022 3:15:00 AM 0.6 33.08 0.305 7.64 6.37 13.5
1/14/2022 3:30:00 AM 0.63 33.134 0.305 7.63 6.03 13.5
1/14/2022 3:45:00 AM 0.65 33.17 0.305 7.64 5.99 13.49
1/14/2022 4:00:00 AM 0.68 33.224 0.306 7.64 6.78 13.47
1/14/2022 4:15:00 AM 0.71 33.278 0.306 7.64 5.92 13.46
1/14/2022 4:30:00 AM 0.73 33.314 0.306 7.64 5.93 13.44
1/14/2022 4:45:00 AM 0.77 33.386 0.306 7.64 6.65 13.43
1/14/2022 5:00:00 AM 0.81 33.458 0.306 7.64 6.2 13.42
1/14/2022 5:15:00 AM 0.85 33.53 0.306 7.64 5.93 13.41
1/14/2022 5:30:00 AM 0.89 33.602 0.307 7.65 6.53 13.39
1/14/2022 5:45:00 AM 0.94 33.692 0.307 7.64 5.92 13.37
1/14/2022 6:00:00 AM 0.98 33.764 0.307 7.65 6.2 13.36
1/14/2022 6:15:00 AM 1.03 33.854 0.307 7.65 5.72 13.34
1/14/2022 6:30:00 AM 1.07 33.926 0.307 7.65 6.21 13.33
1/14/2022 6:45:00 AM 1.12 34.016 0.308 7.65 6.33 13.32
1/14/2022 7:00:00 AM 1.17 34.106 0.308 7.64 6.52 13.3
1/14/2022 7:15:00 AM 1.23 34.214 0.308 7.65 6.19 13.28
1/14/2022 7:30:00 AM 1.27 34.286 0.308 7.65 6.13 13.26
1/14/2022 7:45:00 AM 1.32 34.376 0.308 7.66 6.3 13.25
1/14/2022 8:00:00 AM 1.38 34.484 0.309 7.66 5.97 13.23
1/14/2022 8:15:00 AM 1.43 34.574 0.309 7.66 5.57 13.22
1/14/2022 8:30:00 AM 1.48 34.664 0.309 7.67 5.69 13.21
1/14/2022 8:45:00 AM 1.53 34.754 0.309 7.67 6.01 13.19
1/14/2022 9:00:00 AM 1.58 34.844 0.31 7.67 6.19 13.18
1/14/2022 9:15:00 AM 1.63 34.934 0.31 7.68 5.78 13.17
1/14/2022 9:30:00 AM 1.67 35.006 0.31 7.67 5.48 13.16
1/14/2022 9:45:00 AM 1.73 35.114 0.311 7.68 5.59 13.16
1/14/2022 10:00:00 AM 1.77 35.186 0.311 7.68 5.32 13.16
1/14/2022 10:15:00 AM 1.82 35.276 0.312 7.69 5.62 13.15
1/14/2022 10:30:00 AM 1.85 35.33 0.312 7.69 5.16 13.15
1/14/2022 10:45:00 AM 1.89 35.402 0.312 7.7 5.13 13.14
1/14/2022 11:00:00 AM 1.93 35.474 0.313 7.7 5.35 13.13
1/14/2022 11:15:00 AM 1.95 35.51 0.313 7.69 5.23 13.14
1/14/2022 11:30:00 AM 1.99 35.582 0.313 7.7 6.05 13.13
1/14/2022 11:45:00 AM 2.03 35.654 0.314 7.7 5.53 13.13
1/14/2022 12:00:00 PM 2.07 35.726 0.314 7.71 5.15 13.13
1/14/2022 12:15:00 PM 2.1 35.78 0.314 7.71 5.03 13.12
1/14/2022 12:30:00 PM 2.12 35.816 0.314 7.7 5.28 13.12
1/14/2022 12:45:00 PM 2.15 35.87 0.314 7.7 4.95 13.11
1/14/2022 1:00:00 PM 2.18 35.924 0.314 7.71 4.96 13.12
1/14/2022 1:15:00 PM 2.2 35.96 0.314 7.72 4.93 13.11
1/14/2022 1:30:00 PM 2.23 36.014 0.315 7.71 5.16 13.12
1/14/2022 1:45:00 PM 2.24 36.032 0.315 7.72 5.04 13.11
1/14/2022 2:00:00 PM 2.25 36.05 0.315 7.72 5.16 13.1
1/14/2022 2:15:00 PM 2.25 36.05 0.315 7.7 4.71 13.09
1/14/2022 2:30:00 PM 2.25 36.05 0.315 7.72 4.79 13.09
1/14/2022 2:45:00 PM 2.25 36.05 0.315 7.72 4.73 13.09
1/14/2022 3:00:00 PM 2.26 36.068 0.315 7.72 5.04 13.08
1/14/2022 3:15:00 PM 2.26 36.068 0.315 7.72 4.91 13.08
1/14/2022 3:30:00 PM 2.25 36.05 0.315 7.72 5.55 13.08
1/14/2022 3:45:00 PM 2.25 36.05 0.315 7.72 5.87 13.07
1/14/2022 4:00:00 PM 2.25 36.05 0.315 7.71 6.12 13.07
1/14/2022 4:15:00 PM 2.25 36.05 0.315 7.72 5.85 13.07
1/14/2022 4:30:00 PM 2.24 36.032 0.315 7.72 5.25 13.07
1/14/2022 4:45:00 PM 2.24 36.032 0.315 7.7 4.87 13.06
1/14/2022 5:00:00 PM 2.22 35.996 0.315 7.72 4.97 13.06
1/14/2022 5:15:00 PM 2.22 35.996 0.316 7.71 4.75 13.05
1/14/2022 5:30:00 PM 2.2 35.96 0.316 7.71 4.93 13.06
1/14/2022 5:45:00 PM 2.17 35.906 0.316 7.71 4.74 13.05
1/14/2022 6:00:00 PM 2.15 35.87 0.316 7.71 5.34 13.06
1/14/2022 6:15:00 PM 2.13 35.834 0.316 7.71 4.89 13.06
1/14/2022 6:30:00 PM 2.11 35.798 0.316 7.71 4.94 13.06
1/14/2022 6:45:00 PM 2.1 35.78 0.316 7.71 4.8 13.06
1/14/2022 7:00:00 PM 2.06 35.708 0.316 7.7 5.19 13.06
1/14/2022 7:15:00 PM 2.01 35.618 0.316 7.71 4.97 13.07
1/14/2022 7:30:00 PM 1.96 35.528 0.316 7.7 4.96 13.07
1/14/2022 7:45:00 PM 1.93 35.474 0.316 7.71 5.48 13.09
1/14/2022 8:00:00 PM 1.91 35.438 0.316 7.71 5.27 13.1
1/14/2022 8:15:00 PM 1.89 35.402 0.316 7.71 5.13 13.11
1/14/2022 8:30:00 PM 1.85 35.33 0.317 7.71 4.98 13.12
1/14/2022 8:45:00 PM 1.83 35.294 0.317 7.7 5.1 13.12
1/14/2022 9:00:00 PM 1.8 35.24 0.317 7.71 4.77 13.13
1/14/2022 9:15:00 PM 1.77 35.186 0.317 7.71 4.86 13.14
1/14/2022 9:30:00 PM 1.74 35.132 0.317 7.69 5.09 13.14
1/14/2022 9:45:00 PM 1.69 35.042 0.317 7.7 5.03 13.16
1/14/2022 10:00:00 PM 1.64 34.952 0.317 7.7 5.19 13.17
1/14/2022 10:15:00 PM 1.59 34.862 0.317 7.71 4.92 13.19
1/14/2022 10:30:00 PM 1.55 34.79 0.317 7.7 5.03 13.21
1/14/2022 10:45:00 PM 1.51 34.718 0.317 7.71 5.34 13.22
1/14/2022 11:00:00 PM 1.45 34.61 0.317 7.71 4.93 13.24
1/14/2022 11:15:00 PM 1.39 34.502 0.317 7.7 4.91 13.26
1/14/2022 11:30:00 PM 1.33 34.394 0.317 7.71 4.97 13.28
1/14/2022 11:45:00 PM 1.29 34.322 0.317 7.7 5 13.3
1/15/2022 12:00:00 AM 1.23 34.214 0.317 7.7 4.91 13.32
1/15/2022 12:15:00 AM 1.18 34.124 0.318 7.7 5.03 13.33
1/15/2022 12:30:00 AM 1.13 34.034 0.318 7.71 4.55 13.36
1/15/2022 12:45:00 AM 1.07 33.926 0.318 7.69 4.66 13.38
1/15/2022 1:00:00 AM 1 33.8 0.318 7.71 4.74 13.41
1/15/2022 1:15:00 AM 0.94 33.692 0.318 7.7 4.6 13.43
1/15/2022 1:30:00 AM 0.89 33.602 0.318 7.71 4.75 13.45
1/15/2022 1:45:00 AM 0.83 33.494 0.318 7.69 4.87 13.46
1/15/2022 2:00:00 AM 0.78 33.404 0.318 7.7 4.9 13.49
1/15/2022 2:15:00 AM 0.73 33.314 0.318 7.71 4.84 13.5
1/15/2022 2:30:00 AM 0.67 33.206 0.318 7.69 4.89 13.53
1/15/2022 2:45:00 AM 0.6 33.08 0.319 7.7 4.5 13.56
1/15/2022 3:00:00 AM 0.54 32.972 0.319 7.71 4.67 13.58
1/15/2022 3:15:00 AM 0.47 32.846 0.319 7.7 4.65 13.6
1/15/2022 3:30:00 AM 0.4 32.72 0.319 7.7 4.69 13.62
1/15/2022 3:45:00 AM 0.36 32.648 0.319 7.7 4.98 13.64
1/15/2022 4:00:00 AM 0.29 32.522 0.319 7.7 4.6 13.67
1/15/2022 4:15:00 AM 0.22 32.396 0.32 7.7 4.89 13.7
1/15/2022 4:30:00 AM 0.18 32.324 0.32 7.7 4.64 13.72
1/15/2022 4:45:00 AM 0.12 32.216 0.32 7.7 4.69 13.75
1/15/2022 5:00:00 AM 0.07 32.126 0.32 7.7 4.38 13.77
1/15/2022 5:15:00 AM 0.02 32.036 0.321 7.7 4.58 13.8
1/15/2022 5:30:00 AM -0.02 31.964 0.321 7.7 4.59 13.82
1/15/2022 5:45:00 AM -0.08 31.856 0.321 7.7 4.58 13.85
1/15/2022 6:00:00 AM -0.09 31.838 0.321 7.7 4.76 13.88
1/15/2022 6:15:00 AM -0.06 31.892 0.322 7.7 5.18 13.91
1/15/2022 6:30:00 AM -0.06 31.892 0.322 7.7 4.29 13.93
1/15/2022 6:45:00 AM -0.05 31.91 0.323 7.7 4.56 13.94
1/15/2022 7:00:00 AM -0.05 31.91 0.323 7.7 4.65 13.94
1/15/2022 7:15:00 AM -0.04 31.928 0.323 7.69 4.73 13.97
1/15/2022 7:30:00 AM -0.04 31.928 0.324 7.7 4.6 13.97
1/15/2022 7:45:00 AM -0.03 31.946 0.324 7.68 4.34 13.97
1/15/2022 8:00:00 AM -0.02 31.964 0.324 7.68 4.21 13.98
1/15/2022 8:15:00 AM -0.01 31.982 0.325 7.67 4.01 13.98
1/15/2022 8:30:00 AM -0.01 31.982 0.325 7.67 25.85 14.01
1/15/2022 8:45:00 AM 0 32 0.325 7.67 5.71 14.01
1/15/2022 9:00:00 AM -0.01 31.982 0.326 7.67 4.47 14.04
1/15/2022 9:15:00 AM 0.01 32.018 0.326 7.67 9.19 14.03
1/15/2022 9:30:00 AM 0.02 32.036 0.326 7.67 4.18 14.06
1/15/2022 9:45:00 AM 0.04 32.072 0.326 7.67 4.74 14.07
1/15/2022 10:00:00 AM 0.05 32.09 0.326 7.68 4.15 14.08
1/15/2022 10:15:00 AM 0.04 32.072 0.327 7.68 4.45 14.1
1/15/2022 10:30:00 AM 0.04 32.072 0.327 7.68 4.31 14.11
1/15/2022 10:45:00 AM 0.03 32.054 0.327 7.69 4.23 14.12
1/15/2022 11:00:00 AM 0.07 32.126 0.327 7.68 4.27 14.1
1/15/2022 11:15:00 AM 0.05 32.09 0.327 7.68 3.96 14.13
1/15/2022 11:30:00 AM 0.04 32.072 0.327 7.69 4.68 14.11
1/15/2022 11:45:00 AM 0.04 32.072 0.327 7.69 3.94 14.13
1/15/2022 12:00:00 PM 0.03 32.054 0.327 7.7 4.44 14.13
1/15/2022 12:15:00 PM 0.04 32.072 0.328 7.69 3.88 14.12
1/15/2022 12:30:00 PM 0.03 32.054 0.327 7.7 4.01 14.13
1/15/2022 12:45:00 PM 0.03 32.054 0.328 7.69 3.78 14.14
1/15/2022 1:00:00 PM 0.04 32.072 0.328 7.69 4.03 14.13
1/15/2022 1:15:00 PM 0.02 32.036 0.328 7.7 4.76 14.14
1/15/2022 1:30:00 PM 0.05 32.09 0.328 7.69 3.84 14.12
1/15/2022 1:45:00 PM 0.05 32.09 0.328 7.69 4.73 14.13
1/15/2022 2:00:00 PM 0.05 32.09 0.329 7.7 3.94 14.14
1/15/2022 2:15:00 PM 0.06 32.108 0.329 7.7 3.98 14.14
1/15/2022 2:30:00 PM 0.07 32.126 0.329 7.7 3.92 14.14
1/15/2022 2:45:00 PM 0.08 32.144 0.33 7.7 4.06 14.14
1/15/2022 3:00:00 PM 0.07 32.126 0.33 7.7 3.99 14.14
1/15/2022 3:15:00 PM 0.05 32.09 0.33 7.71 4.17 14.13
1/15/2022 3:30:00 PM 0.02 32.036 0.331 7.71 4.17 14.15
1/15/2022 3:45:00 PM 0.02 32.036 0.331 7.71 4.8 14.15
1/15/2022 4:00:00 PM 0.01 32.018 0.331 7.71 4.27 14.15
1/15/2022 4:15:00 PM 0.01 32.018 0.332 7.7 4.38 14.11
1/15/2022 4:30:00 PM -0.02 31.964 0.332 7.71 4.74 14.14
1/15/2022 4:45:00 PM -0.02 31.964 0.333 7.71 4.22 14.13
1/15/2022 5:00:00 PM -0.01 31.982 0.333 7.7 4.17 14.1
1/15/2022 5:15:00 PM -0.03 31.946 0.334 7.69 4.32 14.12
1/15/2022 5:30:00 PM -0.03 31.946 0.334 7.7 4.11 14.11
1/15/2022 5:45:00 PM -0.03 31.946 0.334 7.69 3.94 14.11
1/15/2022 6:00:00 PM -0.03 31.946 0.334 7.69 3.96 14.12
1/15/2022 6:15:00 PM -0.03 31.946 0.334 7.69 4.09 14.12
1/15/2022 6:30:00 PM -0.03 31.946 0.334 7.69 3.76 14.13
1/15/2022 6:45:00 PM -0.02 31.964 0.335 7.69 3.86 14.11
1/15/2022 7:00:00 PM -0.03 31.946 0.334 7.69 3.89 14.12
1/15/2022 7:15:00 PM -0.03 31.946 0.334 7.69 4.19 14.11
1/15/2022 7:30:00 PM -0.03 31.946 0.334 7.69 4.03 14.12
1/15/2022 7:45:00 PM -0.02 31.964 0.334 7.68 4.09 14.12
1/15/2022 8:00:00 PM -0.02 31.964 0.335 7.68 3.89 14.12
1/15/2022 8:15:00 PM -0.02 31.964 0.335 7.68 4.13 14.12
1/15/2022 8:30:00 PM -0.02 31.964 0.335 7.68 3.75 14.12
1/15/2022 8:45:00 PM -0.02 31.964 0.336 7.68 3.84 14.11
1/15/2022 9:00:00 PM -0.02 31.964 0.336 7.68 3.73 14.11
1/15/2022 9:15:00 PM -0.02 31.964 0.337 7.68 3.7 14.14
1/15/2022 9:30:00 PM -0.02 31.964 0.338 7.68 3.63 14.14
1/15/2022 9:45:00 PM -0.02 31.964 0.338 7.67 3.73 14.11
1/15/2022 10:00:00 PM -0.02 31.964 0.338 7.67 3.63 14.12
1/15/2022 10:15:00 PM -0.03 31.946 0.339 7.68 3.6 14.14
1/15/2022 10:30:00 PM -0.03 31.946 0.339 7.68 3.76 14.15
1/15/2022 10:45:00 PM -0.02 31.964 0.34 7.67 3.83 14.13
1/15/2022 11:00:00 PM -0.02 31.964 0.34 7.67 3.58 14.12
1/15/2022 11:15:00 PM -0.02 31.964 0.34 7.67 3.57 14.12
1/15/2022 11:30:00 PM -0.02 31.964 0.341 7.66 3.68 14.11
1/15/2022 11:45:00 PM -0.01 31.982 0.341 7.66 3.98 14.09
1/16/2022 12:00:00 AM 0 32 0.341 7.64 4.09 14.07
1/16/2022 12:15:00 AM -0.01 31.982 0.341 7.64 3.93 14.07
1/16/2022 12:30:00 AM 0.01 32.018 0.341 7.63 4.01 14.05
1/16/2022 12:45:00 AM 0.02 32.036 0.341 7.61 3.92 14.03
1/16/2022 1:00:00 AM 0 32 0.342 7.62 4.3 14.06
1/16/2022 1:15:00 AM 0 32 0.342 7.63 3.57 14.06
1/16/2022 1:30:00 AM 0 32 0.342 7.63 3.58 14.07
1/16/2022 1:45:00 AM 0 32 0.342 7.63 3.52 14.08
1/16/2022 2:00:00 AM -0.01 31.982 0.343 7.64 3.82 14.1
1/16/2022 2:15:00 AM -0.02 31.964 0.343 7.64 3.6 14.1
1/16/2022 2:30:00 AM -0.02 31.964 0.343 7.63 3.5 14.1
1/16/2022 2:45:00 AM -0.01 31.982 0.343 7.63 3.5 14.1
1/16/2022 3:00:00 AM -0.01 31.982 0.344 7.63 3.55 14.08
1/16/2022 3:15:00 AM -0.01 31.982 0.344 7.62 3.62 14.09
1/16/2022 3:30:00 AM 0 32 0.344 7.61 3.58 14.06
1/16/2022 3:45:00 AM 0.01 32.018 0.344 7.61 3.48 14.05
1/16/2022 4:00:00 AM 0.01 32.018 0.344 7.61 3.7 14.06
1/16/2022 4:15:00 AM 0.01 32.018 0.344 7.61 3.52 14.06
1/16/2022 4:30:00 AM 0.01 32.018 0.344 7.61 3.49 14.06
1/16/2022 4:45:00 AM 0.02 32.036 0.344 7.6 3.44 14.03
1/16/2022 5:00:00 AM 0.02 32.036 0.344 7.59 4.09 14.03
1/16/2022 5:15:00 AM 0.02 32.036 0.345 7.59 3.39 14.03
1/16/2022 5:30:00 AM 0.02 32.036 0.345 7.59 3.48 14.02
1/16/2022 5:45:00 AM 0.02 32.036 0.345 7.58 3.39 14.01
1/16/2022 6:00:00 AM 0.03 32.054 0.346 7.58 3.42 13.99
1/16/2022 6:15:00 AM 0.03 32.054 0.346 7.58 3.55 14
1/16/2022 6:30:00 AM 0.03 32.054 0.346 7.57 3.53 13.99
1/16/2022 6:45:00 AM 0.02 32.036 0.347 7.58 3.49 14
1/16/2022 7:00:00 AM 0.03 32.054 0.347 7.57 3.49 13.99
1/16/2022 7:15:00 AM 0.03 32.054 0.348 7.58 3.62 14.01
1/16/2022 7:30:00 AM 0.03 32.054 0.348 7.56 4.43 14
1/16/2022 7:45:00 AM 0.03 32.054 0.349 7.57 3.55 13.97
1/16/2022 8:00:00 AM 0.04 32.072 0.349 7.56 3.47 13.96
1/16/2022 8:15:00 AM 0.04 32.072 0.349 7.56 3.58 13.93
1/16/2022 8:30:00 AM 0.04 32.072 0.35 7.56 3.43 13.96
1/16/2022 8:45:00 AM 0.04 32.072 0.35 7.57 3.46 13.99
1/16/2022 9:00:00 AM 0.04 32.072 0.351 7.57 4 14
1/16/2022 9:15:00 AM 0.05 32.09 0.352 7.58 5.57 13.98
1/16/2022 9:30:00 AM 0.08 32.144 0.352 7.58 13.59 13.99
1/16/2022 9:45:00 AM 0.1 32.18 0.352 7.59 3.5 14.05
1/16/2022 10:00:00 AM 0.13 32.234 0.351 7.59 3.45 14.08